<?xml version="1.0" encoding="UTF-8"?>
<gpx version="1.1" creator="RoadTrp.org" xmlns="http://www.topografix.com/GPX/1/1">
<trk><name>YMCA Loop Trail — Bradley County Recreational Park — July 27, 2026</name><trkseg>
<trkpt lat="35.188972" lon="-84.824819"><ele>270.1</ele><time>2026-07-27T23:41:53Z</time></trkpt>
<trkpt lat="35.188991" lon="-84.824844"><ele>269.4</ele><time>2026-07-27T23:41:56Z</time></trkpt>
<trkpt lat="35.189014" lon="-84.824876"><ele>269.4</ele><time>2026-07-27T23:41:59Z</time></trkpt>
<trkpt lat="35.189047" lon="-84.824891"><ele>269.1</ele><time>2026-07-27T23:42:02Z</time></trkpt>
<trkpt lat="35.189076" lon="-84.824914"><ele>269.1</ele><time>2026-07-27T23:42:05Z</time></trkpt>
<trkpt lat="35.189111" lon="-84.824927"><ele>268.8</ele><time>2026-07-27T23:42:08Z</time></trkpt>
<trkpt lat="35.189133" lon="-84.824895"><ele>268.2</ele><time>2026-07-27T23:42:11Z</time></trkpt>
<trkpt lat="35.189131" lon="-84.824861"><ele>268.2</ele><time>2026-07-27T23:42:13Z</time></trkpt>
<trkpt lat="35.189122" lon="-84.824811"><ele>268.5</ele><time>2026-07-27T23:42:16Z</time></trkpt>
<trkpt lat="35.189119" lon="-84.824771"><ele>268.5</ele><time>2026-07-27T23:42:19Z</time></trkpt>
<trkpt lat="35.189112" lon="-84.824727"><ele>268.8</ele><time>2026-07-27T23:42:22Z</time></trkpt>
<trkpt lat="35.1891" lon="-84.824689"><ele>268.5</ele><time>2026-07-27T23:42:25Z</time></trkpt>
<trkpt lat="35.18909" lon="-84.824648"><ele>268.8</ele><time>2026-07-27T23:42:28Z</time></trkpt>
<trkpt lat="35.189083" lon="-84.824615"><ele>269.1</ele><time>2026-07-27T23:42:30Z</time></trkpt>
<trkpt lat="35.189074" lon="-84.824567"><ele>269.1</ele><time>2026-07-27T23:42:33Z</time></trkpt>
<trkpt lat="35.189069" lon="-84.824517"><ele>269.1</ele><time>2026-07-27T23:42:36Z</time></trkpt>
<trkpt lat="35.18907" lon="-84.824475"><ele>269.1</ele><time>2026-07-27T23:42:39Z</time></trkpt>
<trkpt lat="35.189096" lon="-84.824458"><ele>268.5</ele><time>2026-07-27T23:42:42Z</time></trkpt>
<trkpt lat="35.189131" lon="-84.82445"><ele>268.5</ele><time>2026-07-27T23:42:45Z</time></trkpt>
<trkpt lat="35.189166" lon="-84.824448"><ele>268.5</ele><time>2026-07-27T23:42:47Z</time></trkpt>
<trkpt lat="35.189204" lon="-84.824447"><ele>268.8</ele><time>2026-07-27T23:42:50Z</time></trkpt>
<trkpt lat="35.189242" lon="-84.824444"><ele>268.2</ele><time>2026-07-27T23:42:54Z</time></trkpt>
<trkpt lat="35.189282" lon="-84.824438"><ele>268.2</ele><time>2026-07-27T23:42:57Z</time></trkpt>
<trkpt lat="35.189311" lon="-84.824435"><ele>268.2</ele><time>2026-07-27T23:42:59Z</time></trkpt>
<trkpt lat="35.189344" lon="-84.824435"><ele>267.9</ele><time>2026-07-27T23:43:02Z</time></trkpt>
<trkpt lat="35.189375" lon="-84.824429"><ele>267.6</ele><time>2026-07-27T23:43:05Z</time></trkpt>
<trkpt lat="35.189416" lon="-84.824418"><ele>267.9</ele><time>2026-07-27T23:43:08Z</time></trkpt>
<trkpt lat="35.189443" lon="-84.824415"><ele>267.9</ele><time>2026-07-27T23:43:10Z</time></trkpt>
<trkpt lat="35.189474" lon="-84.824411"><ele>267.3</ele><time>2026-07-27T23:43:13Z</time></trkpt>
<trkpt lat="35.189505" lon="-84.824393"><ele>267.6</ele><time>2026-07-27T23:43:16Z</time></trkpt>
<trkpt lat="35.189532" lon="-84.824373"><ele>267.3</ele><time>2026-07-27T23:43:19Z</time></trkpt>
<trkpt lat="35.189559" lon="-84.82434"><ele>267.6</ele><time>2026-07-27T23:43:22Z</time></trkpt>
<trkpt lat="35.189573" lon="-84.824311"><ele>267.6</ele><time>2026-07-27T23:43:24Z</time></trkpt>
<trkpt lat="35.189583" lon="-84.82428"><ele>267.6</ele><time>2026-07-27T23:43:26Z</time></trkpt>
<trkpt lat="35.1896" lon="-84.82424"><ele>267.6</ele><time>2026-07-27T23:43:29Z</time></trkpt>
<trkpt lat="35.189615" lon="-84.824208"><ele>267.9</ele><time>2026-07-27T23:43:32Z</time></trkpt>
<trkpt lat="35.18962" lon="-84.824162"><ele>267.9</ele><time>2026-07-27T23:43:35Z</time></trkpt>
<trkpt lat="35.18962" lon="-84.824128"><ele>267.6</ele><time>2026-07-27T23:43:37Z</time></trkpt>
<trkpt lat="35.189616" lon="-84.824087"><ele>267.6</ele><time>2026-07-27T23:43:40Z</time></trkpt>
<trkpt lat="35.189611" lon="-84.824047"><ele>267.3</ele><time>2026-07-27T23:43:43Z</time></trkpt>
<trkpt lat="35.189607" lon="-84.824002"><ele>267.0</ele><time>2026-07-27T23:43:46Z</time></trkpt>
<trkpt lat="35.189605" lon="-84.823965"><ele>266.7</ele><time>2026-07-27T23:43:48Z</time></trkpt>
<trkpt lat="35.1896" lon="-84.823931"><ele>266.4</ele><time>2026-07-27T23:43:50Z</time></trkpt>
<trkpt lat="35.189594" lon="-84.823884"><ele>266.4</ele><time>2026-07-27T23:43:53Z</time></trkpt>
<trkpt lat="35.18959" lon="-84.823844"><ele>265.8</ele><time>2026-07-27T23:43:56Z</time></trkpt>
<trkpt lat="35.189584" lon="-84.823801"><ele>266.4</ele><time>2026-07-27T23:43:59Z</time></trkpt>
<trkpt lat="35.189583" lon="-84.823763"><ele>266.4</ele><time>2026-07-27T23:44:01Z</time></trkpt>
<trkpt lat="35.18958" lon="-84.823728"><ele>266.1</ele><time>2026-07-27T23:44:03Z</time></trkpt>
<trkpt lat="35.189574" lon="-84.823685"><ele>265.5</ele><time>2026-07-27T23:44:06Z</time></trkpt>
<trkpt lat="35.189571" lon="-84.823644"><ele>265.8</ele><time>2026-07-27T23:44:09Z</time></trkpt>
<trkpt lat="35.189564" lon="-84.823595"><ele>265.8</ele><time>2026-07-27T23:44:12Z</time></trkpt>
<trkpt lat="35.189558" lon="-84.823558"><ele>265.8</ele><time>2026-07-27T23:44:14Z</time></trkpt>
<trkpt lat="35.189553" lon="-84.823515"><ele>265.8</ele><time>2026-07-27T23:44:17Z</time></trkpt>
<trkpt lat="35.189549" lon="-84.823474"><ele>266.1</ele><time>2026-07-27T23:44:20Z</time></trkpt>
<trkpt lat="35.189543" lon="-84.823425"><ele>266.1</ele><time>2026-07-27T23:44:23Z</time></trkpt>
<trkpt lat="35.189542" lon="-84.823391"><ele>266.1</ele><time>2026-07-27T23:44:25Z</time></trkpt>
<trkpt lat="35.189536" lon="-84.82335"><ele>266.1</ele><time>2026-07-27T23:44:28Z</time></trkpt>
<trkpt lat="35.189531" lon="-84.823304"><ele>265.8</ele><time>2026-07-27T23:44:31Z</time></trkpt>
<trkpt lat="35.189525" lon="-84.823271"><ele>266.4</ele><time>2026-07-27T23:44:33Z</time></trkpt>
<trkpt lat="35.189519" lon="-84.823238"><ele>266.7</ele><time>2026-07-27T23:44:35Z</time></trkpt>
<trkpt lat="35.18951" lon="-84.823194"><ele>267.3</ele><time>2026-07-27T23:44:38Z</time></trkpt>
<trkpt lat="35.189504" lon="-84.823154"><ele>267.3</ele><time>2026-07-27T23:44:41Z</time></trkpt>
<trkpt lat="35.189498" lon="-84.823105"><ele>267.3</ele><time>2026-07-27T23:44:44Z</time></trkpt>
<trkpt lat="35.189491" lon="-84.823059"><ele>267.9</ele><time>2026-07-27T23:44:47Z</time></trkpt>
<trkpt lat="35.189489" lon="-84.823023"><ele>267.3</ele><time>2026-07-27T23:44:50Z</time></trkpt>
<trkpt lat="35.189483" lon="-84.822981"><ele>267.6</ele><time>2026-07-27T23:44:53Z</time></trkpt>
<trkpt lat="35.189481" lon="-84.822945"><ele>267.6</ele><time>2026-07-27T23:44:55Z</time></trkpt>
<trkpt lat="35.189477" lon="-84.822907"><ele>267.9</ele><time>2026-07-27T23:44:58Z</time></trkpt>
<trkpt lat="35.189477" lon="-84.822867"><ele>267.6</ele><time>2026-07-27T23:45:01Z</time></trkpt>
<trkpt lat="35.189469" lon="-84.822826"><ele>267.9</ele><time>2026-07-27T23:45:04Z</time></trkpt>
<trkpt lat="35.189447" lon="-84.822792"><ele>268.5</ele><time>2026-07-27T23:45:07Z</time></trkpt>
<trkpt lat="35.189415" lon="-84.822783"><ele>268.2</ele><time>2026-07-27T23:45:10Z</time></trkpt>
<trkpt lat="35.189382" lon="-84.822792"><ele>268.2</ele><time>2026-07-27T23:45:13Z</time></trkpt>
<trkpt lat="35.189343" lon="-84.822801"><ele>268.8</ele><time>2026-07-27T23:45:16Z</time></trkpt>
<trkpt lat="35.189305" lon="-84.822808"><ele>267.9</ele><time>2026-07-27T23:45:19Z</time></trkpt>
<trkpt lat="35.189271" lon="-84.822823"><ele>268.5</ele><time>2026-07-27T23:45:22Z</time></trkpt>
<trkpt lat="35.189236" lon="-84.822828"><ele>268.8</ele><time>2026-07-27T23:45:25Z</time></trkpt>
<trkpt lat="35.189199" lon="-84.822834"><ele>268.5</ele><time>2026-07-27T23:45:28Z</time></trkpt>
<trkpt lat="35.189163" lon="-84.822846"><ele>268.8</ele><time>2026-07-27T23:45:31Z</time></trkpt>
<trkpt lat="35.189127" lon="-84.822857"><ele>269.7</ele><time>2026-07-27T23:45:34Z</time></trkpt>
<trkpt lat="35.189088" lon="-84.822863"><ele>269.7</ele><time>2026-07-27T23:45:37Z</time></trkpt>
<trkpt lat="35.18906" lon="-84.822871"><ele>269.7</ele><time>2026-07-27T23:45:39Z</time></trkpt>
<trkpt lat="35.189024" lon="-84.822876"><ele>269.4</ele><time>2026-07-27T23:45:42Z</time></trkpt>
<trkpt lat="35.188987" lon="-84.822881"><ele>268.5</ele><time>2026-07-27T23:45:45Z</time></trkpt>
<trkpt lat="35.188949" lon="-84.822876"><ele>267.0</ele><time>2026-07-27T23:45:48Z</time></trkpt>
<trkpt lat="35.188921" lon="-84.822876"><ele>267.3</ele><time>2026-07-27T23:45:50Z</time></trkpt>
<trkpt lat="35.188888" lon="-84.822883"><ele>267.0</ele><time>2026-07-27T23:45:53Z</time></trkpt>
<trkpt lat="35.188854" lon="-84.822894"><ele>267.6</ele><time>2026-07-27T23:45:56Z</time></trkpt>
<trkpt lat="35.188826" lon="-84.822901"><ele>267.9</ele><time>2026-07-27T23:45:58Z</time></trkpt>
<trkpt lat="35.188788" lon="-84.822909"><ele>267.6</ele><time>2026-07-27T23:46:01Z</time></trkpt>
<trkpt lat="35.188754" lon="-84.822919"><ele>267.9</ele><time>2026-07-27T23:46:04Z</time></trkpt>
<trkpt lat="35.188716" lon="-84.822921"><ele>268.2</ele><time>2026-07-27T23:46:07Z</time></trkpt>
<trkpt lat="35.188686" lon="-84.822919"><ele>268.5</ele><time>2026-07-27T23:46:09Z</time></trkpt>
<trkpt lat="35.188653" lon="-84.822911"><ele>268.5</ele><time>2026-07-27T23:46:12Z</time></trkpt>
<trkpt lat="35.188618" lon="-84.822901"><ele>268.5</ele><time>2026-07-27T23:46:15Z</time></trkpt>
<trkpt lat="35.188592" lon="-84.822889"><ele>268.5</ele><time>2026-07-27T23:46:17Z</time></trkpt>
<trkpt lat="35.188565" lon="-84.822881"><ele>268.8</ele><time>2026-07-27T23:46:19Z</time></trkpt>
<trkpt lat="35.188535" lon="-84.822869"><ele>269.1</ele><time>2026-07-27T23:46:22Z</time></trkpt>
<trkpt lat="35.188502" lon="-84.822857"><ele>269.7</ele><time>2026-07-27T23:46:25Z</time></trkpt>
<trkpt lat="35.188462" lon="-84.822848"><ele>269.4</ele><time>2026-07-27T23:46:28Z</time></trkpt>
<trkpt lat="35.188424" lon="-84.822851"><ele>269.1</ele><time>2026-07-27T23:46:31Z</time></trkpt>
<trkpt lat="35.188389" lon="-84.822861"><ele>269.4</ele><time>2026-07-27T23:46:34Z</time></trkpt>
<trkpt lat="35.188348" lon="-84.822869"><ele>269.4</ele><time>2026-07-27T23:46:37Z</time></trkpt>
<trkpt lat="35.188313" lon="-84.822882"><ele>269.4</ele><time>2026-07-27T23:46:40Z</time></trkpt>
<trkpt lat="35.188281" lon="-84.822891"><ele>270.1</ele><time>2026-07-27T23:46:43Z</time></trkpt>
<trkpt lat="35.188242" lon="-84.822904"><ele>269.7</ele><time>2026-07-27T23:46:46Z</time></trkpt>
<trkpt lat="35.188205" lon="-84.822918"><ele>270.1</ele><time>2026-07-27T23:46:49Z</time></trkpt>
<trkpt lat="35.188175" lon="-84.822928"><ele>270.1</ele><time>2026-07-27T23:46:52Z</time></trkpt>
<trkpt lat="35.188137" lon="-84.82294"><ele>270.4</ele><time>2026-07-27T23:46:55Z</time></trkpt>
<trkpt lat="35.188109" lon="-84.822948"><ele>270.1</ele><time>2026-07-27T23:46:57Z</time></trkpt>
<trkpt lat="35.188076" lon="-84.822961"><ele>270.4</ele><time>2026-07-27T23:47:00Z</time></trkpt>
<trkpt lat="35.188045" lon="-84.822968"><ele>270.4</ele><time>2026-07-27T23:47:03Z</time></trkpt>
<trkpt lat="35.188005" lon="-84.822978"><ele>270.4</ele><time>2026-07-27T23:47:06Z</time></trkpt>
<trkpt lat="35.187973" lon="-84.822986"><ele>270.4</ele><time>2026-07-27T23:47:09Z</time></trkpt>
<trkpt lat="35.18794" lon="-84.822992"><ele>270.4</ele><time>2026-07-27T23:47:12Z</time></trkpt>
<trkpt lat="35.187897" lon="-84.822999"><ele>271.0</ele><time>2026-07-27T23:47:15Z</time></trkpt>
<trkpt lat="35.187868" lon="-84.822997"><ele>271.6</ele><time>2026-07-27T23:47:17Z</time></trkpt>
<trkpt lat="35.187836" lon="-84.823"><ele>271.3</ele><time>2026-07-27T23:47:20Z</time></trkpt>
<trkpt lat="35.1878" lon="-84.822998"><ele>271.9</ele><time>2026-07-27T23:47:23Z</time></trkpt>
<trkpt lat="35.187773" lon="-84.822999"><ele>271.9</ele><time>2026-07-27T23:47:25Z</time></trkpt>
<trkpt lat="35.187734" lon="-84.823002"><ele>271.9</ele><time>2026-07-27T23:47:28Z</time></trkpt>
<trkpt lat="35.187702" lon="-84.823"><ele>271.6</ele><time>2026-07-27T23:47:31Z</time></trkpt>
<trkpt lat="35.187663" lon="-84.823001"><ele>272.2</ele><time>2026-07-27T23:47:34Z</time></trkpt>
<trkpt lat="35.187635" lon="-84.823002"><ele>272.8</ele><time>2026-07-27T23:47:36Z</time></trkpt>
<trkpt lat="35.1876" lon="-84.822994"><ele>272.8</ele><time>2026-07-27T23:47:38Z</time></trkpt>
<trkpt lat="35.187566" lon="-84.822984"><ele>271.9</ele><time>2026-07-27T23:47:40Z</time></trkpt>
<trkpt lat="35.187529" lon="-84.822975"><ele>271.9</ele><time>2026-07-27T23:47:43Z</time></trkpt>
<trkpt lat="35.187494" lon="-84.822963"><ele>272.5</ele><time>2026-07-27T23:47:46Z</time></trkpt>
<trkpt lat="35.187459" lon="-84.822962"><ele>271.9</ele><time>2026-07-27T23:47:49Z</time></trkpt>
<trkpt lat="35.187421" lon="-84.822972"><ele>272.2</ele><time>2026-07-27T23:47:52Z</time></trkpt>
<trkpt lat="35.187382" lon="-84.822987"><ele>271.0</ele><time>2026-07-27T23:47:55Z</time></trkpt>
<trkpt lat="35.187354" lon="-84.822993"><ele>271.3</ele><time>2026-07-27T23:47:57Z</time></trkpt>
<trkpt lat="35.187317" lon="-84.823008"><ele>270.4</ele><time>2026-07-27T23:48:00Z</time></trkpt>
<trkpt lat="35.18728" lon="-84.823023"><ele>271.0</ele><time>2026-07-27T23:48:03Z</time></trkpt>
<trkpt lat="35.187258" lon="-84.823044"><ele>270.7</ele><time>2026-07-27T23:48:05Z</time></trkpt>
<trkpt lat="35.187237" lon="-84.823067"><ele>271.0</ele><time>2026-07-27T23:48:07Z</time></trkpt>
<trkpt lat="35.187211" lon="-84.8231"><ele>271.0</ele><time>2026-07-27T23:48:10Z</time></trkpt>
<trkpt lat="35.187192" lon="-84.823134"><ele>270.4</ele><time>2026-07-27T23:48:13Z</time></trkpt>
<trkpt lat="35.187173" lon="-84.823179"><ele>270.4</ele><time>2026-07-27T23:48:16Z</time></trkpt>
<trkpt lat="35.18716" lon="-84.823211"><ele>270.1</ele><time>2026-07-27T23:48:18Z</time></trkpt>
<trkpt lat="35.18715" lon="-84.823244"><ele>269.7</ele><time>2026-07-27T23:48:20Z</time></trkpt>
<trkpt lat="35.187133" lon="-84.823286"><ele>270.4</ele><time>2026-07-27T23:48:23Z</time></trkpt>
<trkpt lat="35.187119" lon="-84.823332"><ele>270.7</ele><time>2026-07-27T23:48:26Z</time></trkpt>
<trkpt lat="35.187114" lon="-84.823379"><ele>271.0</ele><time>2026-07-27T23:48:29Z</time></trkpt>
<trkpt lat="35.18712" lon="-84.823416"><ele>270.7</ele><time>2026-07-27T23:48:31Z</time></trkpt>
<trkpt lat="35.18713" lon="-84.823451"><ele>270.7</ele><time>2026-07-27T23:48:33Z</time></trkpt>
<trkpt lat="35.187147" lon="-84.823495"><ele>270.4</ele><time>2026-07-27T23:48:36Z</time></trkpt>
<trkpt lat="35.187158" lon="-84.823534"><ele>270.7</ele><time>2026-07-27T23:48:39Z</time></trkpt>
<trkpt lat="35.187178" lon="-84.823576"><ele>271.0</ele><time>2026-07-27T23:48:42Z</time></trkpt>
<trkpt lat="35.187191" lon="-84.823607"><ele>271.0</ele><time>2026-07-27T23:48:44Z</time></trkpt>
<trkpt lat="35.187205" lon="-84.823638"><ele>271.0</ele><time>2026-07-27T23:48:46Z</time></trkpt>
<trkpt lat="35.187218" lon="-84.823679"><ele>271.3</ele><time>2026-07-27T23:48:49Z</time></trkpt>
<trkpt lat="35.187232" lon="-84.823724"><ele>271.9</ele><time>2026-07-27T23:48:52Z</time></trkpt>
<trkpt lat="35.187249" lon="-84.823751"><ele>271.9</ele><time>2026-07-27T23:48:54Z</time></trkpt>
<trkpt lat="35.187274" lon="-84.823787"><ele>270.1</ele><time>2026-07-27T23:48:57Z</time></trkpt>
<trkpt lat="35.18729" lon="-84.823829"><ele>269.7</ele><time>2026-07-27T23:49:00Z</time></trkpt>
<trkpt lat="35.187297" lon="-84.823873"><ele>270.4</ele><time>2026-07-27T23:49:03Z</time></trkpt>
<trkpt lat="35.187311" lon="-84.82392"><ele>270.7</ele><time>2026-07-27T23:49:06Z</time></trkpt>
<trkpt lat="35.187322" lon="-84.823952"><ele>270.7</ele><time>2026-07-27T23:49:08Z</time></trkpt>
<trkpt lat="35.187335" lon="-84.823993"><ele>270.4</ele><time>2026-07-27T23:49:11Z</time></trkpt>
<trkpt lat="35.187347" lon="-84.824033"><ele>270.4</ele><time>2026-07-27T23:49:14Z</time></trkpt>
<trkpt lat="35.18736" lon="-84.824076"><ele>270.7</ele><time>2026-07-27T23:49:17Z</time></trkpt>
<trkpt lat="35.187375" lon="-84.824123"><ele>270.1</ele><time>2026-07-27T23:49:20Z</time></trkpt>
<trkpt lat="35.187389" lon="-84.824167"><ele>269.7</ele><time>2026-07-27T23:49:23Z</time></trkpt>
<trkpt lat="35.187399" lon="-84.824208"><ele>269.7</ele><time>2026-07-27T23:49:26Z</time></trkpt>
<trkpt lat="35.187411" lon="-84.82425"><ele>270.1</ele><time>2026-07-27T23:49:29Z</time></trkpt>
<trkpt lat="35.18742" lon="-84.824282"><ele>270.4</ele><time>2026-07-27T23:49:31Z</time></trkpt>
<trkpt lat="35.187431" lon="-84.824317"><ele>270.4</ele><time>2026-07-27T23:49:33Z</time></trkpt>
<trkpt lat="35.187442" lon="-84.824348"><ele>270.4</ele><time>2026-07-27T23:49:35Z</time></trkpt>
<trkpt lat="35.187457" lon="-84.82439"><ele>270.4</ele><time>2026-07-27T23:49:38Z</time></trkpt>
<trkpt lat="35.187468" lon="-84.824431"><ele>271.0</ele><time>2026-07-27T23:49:41Z</time></trkpt>
<trkpt lat="35.187479" lon="-84.824475"><ele>271.0</ele><time>2026-07-27T23:49:44Z</time></trkpt>
<trkpt lat="35.187489" lon="-84.824507"><ele>271.0</ele><time>2026-07-27T23:49:46Z</time></trkpt>
<trkpt lat="35.187501" lon="-84.824539"><ele>271.0</ele><time>2026-07-27T23:49:48Z</time></trkpt>
<trkpt lat="35.187514" lon="-84.824573"><ele>271.3</ele><time>2026-07-27T23:49:50Z</time></trkpt>
<trkpt lat="35.187522" lon="-84.824605"><ele>271.3</ele><time>2026-07-27T23:49:52Z</time></trkpt>
<trkpt lat="35.187531" lon="-84.82465"><ele>271.6</ele><time>2026-07-27T23:49:55Z</time></trkpt>
<trkpt lat="35.18754" lon="-84.824694"><ele>271.3</ele><time>2026-07-27T23:49:58Z</time></trkpt>
<trkpt lat="35.187553" lon="-84.824742"><ele>271.3</ele><time>2026-07-27T23:50:01Z</time></trkpt>
<trkpt lat="35.187565" lon="-84.824777"><ele>271.0</ele><time>2026-07-27T23:50:03Z</time></trkpt>
<trkpt lat="35.187576" lon="-84.82481"><ele>271.0</ele><time>2026-07-27T23:50:05Z</time></trkpt>
<trkpt lat="35.187587" lon="-84.824852"><ele>271.0</ele><time>2026-07-27T23:50:08Z</time></trkpt>
<trkpt lat="35.1876" lon="-84.824893"><ele>271.3</ele><time>2026-07-27T23:50:11Z</time></trkpt>
<trkpt lat="35.18762" lon="-84.824937"><ele>271.0</ele><time>2026-07-27T23:50:14Z</time></trkpt>
<trkpt lat="35.187639" lon="-84.824981"><ele>271.3</ele><time>2026-07-27T23:50:17Z</time></trkpt>
<trkpt lat="35.187648" lon="-84.825021"><ele>271.0</ele><time>2026-07-27T23:50:20Z</time></trkpt>
<trkpt lat="35.187661" lon="-84.825061"><ele>271.3</ele><time>2026-07-27T23:50:23Z</time></trkpt>
<trkpt lat="35.187672" lon="-84.825093"><ele>271.0</ele><time>2026-07-27T23:50:25Z</time></trkpt>
<trkpt lat="35.187685" lon="-84.825127"><ele>270.7</ele><time>2026-07-27T23:50:27Z</time></trkpt>
<trkpt lat="35.187699" lon="-84.825172"><ele>270.7</ele><time>2026-07-27T23:50:30Z</time></trkpt>
<trkpt lat="35.187708" lon="-84.825212"><ele>270.4</ele><time>2026-07-27T23:50:33Z</time></trkpt>
<trkpt lat="35.187725" lon="-84.825256"><ele>270.4</ele><time>2026-07-27T23:50:36Z</time></trkpt>
<trkpt lat="35.187746" lon="-84.825299"><ele>270.1</ele><time>2026-07-27T23:50:39Z</time></trkpt>
<trkpt lat="35.187766" lon="-84.825338"><ele>270.4</ele><time>2026-07-27T23:50:42Z</time></trkpt>
<trkpt lat="35.187788" lon="-84.825362"><ele>270.1</ele><time>2026-07-27T23:50:45Z</time></trkpt>
<trkpt lat="35.18783" lon="-84.825373"><ele>270.7</ele><time>2026-07-27T23:50:48Z</time></trkpt>
<trkpt lat="35.18786" lon="-84.825379"><ele>270.7</ele><time>2026-07-27T23:50:50Z</time></trkpt>
<trkpt lat="35.187889" lon="-84.825382"><ele>271.0</ele><time>2026-07-27T23:50:52Z</time></trkpt>
<trkpt lat="35.187923" lon="-84.825379"><ele>270.4</ele><time>2026-07-27T23:50:55Z</time></trkpt>
<trkpt lat="35.187959" lon="-84.825375"><ele>270.7</ele><time>2026-07-27T23:50:58Z</time></trkpt>
<trkpt lat="35.187987" lon="-84.825364"><ele>270.4</ele><time>2026-07-27T23:51:00Z</time></trkpt>
<trkpt lat="35.188026" lon="-84.82535"><ele>270.7</ele><time>2026-07-27T23:51:03Z</time></trkpt>
<trkpt lat="35.188057" lon="-84.82534"><ele>270.7</ele><time>2026-07-27T23:51:06Z</time></trkpt>
<trkpt lat="35.188087" lon="-84.825327"><ele>270.1</ele><time>2026-07-27T23:51:09Z</time></trkpt>
<trkpt lat="35.188123" lon="-84.82531"><ele>270.1</ele><time>2026-07-27T23:51:12Z</time></trkpt>
<trkpt lat="35.188151" lon="-84.825297"><ele>270.1</ele><time>2026-07-27T23:51:14Z</time></trkpt>
<trkpt lat="35.188189" lon="-84.825283"><ele>270.1</ele><time>2026-07-27T23:51:17Z</time></trkpt>
<trkpt lat="35.188219" lon="-84.82527"><ele>269.4</ele><time>2026-07-27T23:51:20Z</time></trkpt>
<trkpt lat="35.188258" lon="-84.825256"><ele>270.4</ele><time>2026-07-27T23:51:23Z</time></trkpt>
<trkpt lat="35.188285" lon="-84.825244"><ele>270.7</ele><time>2026-07-27T23:51:25Z</time></trkpt>
<trkpt lat="35.188322" lon="-84.825226"><ele>270.7</ele><time>2026-07-27T23:51:28Z</time></trkpt>
<trkpt lat="35.188356" lon="-84.825215"><ele>270.4</ele><time>2026-07-27T23:51:31Z</time></trkpt>
<trkpt lat="35.188389" lon="-84.825201"><ele>270.7</ele><time>2026-07-27T23:51:34Z</time></trkpt>
<trkpt lat="35.188426" lon="-84.825182"><ele>270.7</ele><time>2026-07-27T23:51:37Z</time></trkpt>
<trkpt lat="35.188452" lon="-84.825169"><ele>271.0</ele><time>2026-07-27T23:51:39Z</time></trkpt>
<trkpt lat="35.188478" lon="-84.825157"><ele>270.4</ele><time>2026-07-27T23:51:41Z</time></trkpt>
<trkpt lat="35.188506" lon="-84.825148"><ele>270.7</ele><time>2026-07-27T23:51:43Z</time></trkpt>
<trkpt lat="35.188539" lon="-84.825134"><ele>270.4</ele><time>2026-07-27T23:51:46Z</time></trkpt>
<trkpt lat="35.188577" lon="-84.825121"><ele>270.1</ele><time>2026-07-27T23:51:49Z</time></trkpt>
<trkpt lat="35.188615" lon="-84.825115"><ele>270.4</ele><time>2026-07-27T23:51:52Z</time></trkpt>
<trkpt lat="35.188642" lon="-84.825118"><ele>270.4</ele><time>2026-07-27T23:51:54Z</time></trkpt>
<trkpt lat="35.188677" lon="-84.825139"><ele>270.4</ele><time>2026-07-27T23:51:57Z</time></trkpt>
<trkpt lat="35.188697" lon="-84.825171"><ele>270.7</ele><time>2026-07-27T23:52:00Z</time></trkpt>
<trkpt lat="35.188717" lon="-84.825211"><ele>271.3</ele><time>2026-07-27T23:52:03Z</time></trkpt>
<trkpt lat="35.188737" lon="-84.825252"><ele>271.3</ele><time>2026-07-27T23:52:06Z</time></trkpt>
<trkpt lat="35.188751" lon="-84.82529"><ele>271.3</ele><time>2026-07-27T23:52:09Z</time></trkpt>
<trkpt lat="35.188759" lon="-84.825329"><ele>271.6</ele><time>2026-07-27T23:52:12Z</time></trkpt>
<trkpt lat="35.188774" lon="-84.825372"><ele>271.6</ele><time>2026-07-27T23:52:15Z</time></trkpt>
<trkpt lat="35.18879" lon="-84.825417"><ele>271.0</ele><time>2026-07-27T23:52:18Z</time></trkpt>
<trkpt lat="35.1888" lon="-84.825459"><ele>271.3</ele><time>2026-07-27T23:52:21Z</time></trkpt>
<trkpt lat="35.188812" lon="-84.825498"><ele>271.9</ele><time>2026-07-27T23:52:24Z</time></trkpt>
<trkpt lat="35.188841" lon="-84.825527"><ele>271.3</ele><time>2026-07-27T23:52:27Z</time></trkpt>
<trkpt lat="35.188877" lon="-84.825517"><ele>271.9</ele><time>2026-07-27T23:52:30Z</time></trkpt>
<trkpt lat="35.188909" lon="-84.825495"><ele>271.9</ele><time>2026-07-27T23:52:33Z</time></trkpt>
<trkpt lat="35.188944" lon="-84.82547"><ele>271.9</ele><time>2026-07-27T23:52:36Z</time></trkpt>
<trkpt lat="35.188974" lon="-84.825459"><ele>271.9</ele><time>2026-07-27T23:52:38Z</time></trkpt>
<trkpt lat="35.189009" lon="-84.825443"><ele>270.7</ele><time>2026-07-27T23:52:40Z</time></trkpt>
<trkpt lat="35.189041" lon="-84.82543"><ele>270.7</ele><time>2026-07-27T23:52:42Z</time></trkpt>
<trkpt lat="35.189066" lon="-84.825408"><ele>271.0</ele><time>2026-07-27T23:52:44Z</time></trkpt>
<trkpt lat="35.189073" lon="-84.825368"><ele>271.0</ele><time>2026-07-27T23:52:46Z</time></trkpt>
<trkpt lat="35.189074" lon="-84.82533"><ele>271.0</ele><time>2026-07-27T23:52:48Z</time></trkpt>
<trkpt lat="35.189078" lon="-84.825282"><ele>271.0</ele><time>2026-07-27T23:52:51Z</time></trkpt>
<trkpt lat="35.189084" lon="-84.825239"><ele>270.4</ele><time>2026-07-27T23:52:54Z</time></trkpt>
<trkpt lat="35.18908" lon="-84.825192"><ele>270.4</ele><time>2026-07-27T23:52:57Z</time></trkpt>
<trkpt lat="35.189081" lon="-84.825141"><ele>270.1</ele><time>2026-07-27T23:53:00Z</time></trkpt>
<trkpt lat="35.189088" lon="-84.825095"><ele>269.7</ele><time>2026-07-27T23:53:03Z</time></trkpt>
<trkpt lat="35.189097" lon="-84.825057"><ele>269.1</ele><time>2026-07-27T23:53:06Z</time></trkpt>
<trkpt lat="35.189109" lon="-84.825011"><ele>269.4</ele><time>2026-07-27T23:53:09Z</time></trkpt>
<trkpt lat="35.189117" lon="-84.824977"><ele>269.4</ele><time>2026-07-27T23:53:11Z</time></trkpt>
<trkpt lat="35.189125" lon="-84.824933"><ele>269.7</ele><time>2026-07-27T23:53:14Z</time></trkpt>
<trkpt lat="35.189136" lon="-84.824894"><ele>269.4</ele><time>2026-07-27T23:53:17Z</time></trkpt>
<trkpt lat="35.189137" lon="-84.82485"><ele>268.8</ele><time>2026-07-27T23:53:20Z</time></trkpt>
<trkpt lat="35.189133" lon="-84.824816"><ele>269.1</ele><time>2026-07-27T23:53:22Z</time></trkpt>
<trkpt lat="35.189127" lon="-84.82477"><ele>268.5</ele><time>2026-07-27T23:53:25Z</time></trkpt>
<trkpt lat="35.18912" lon="-84.824727"><ele>268.8</ele><time>2026-07-27T23:53:28Z</time></trkpt>
<trkpt lat="35.189111" lon="-84.82469"><ele>268.8</ele><time>2026-07-27T23:53:31Z</time></trkpt>
<trkpt lat="35.189092" lon="-84.824651"><ele>268.8</ele><time>2026-07-27T23:53:34Z</time></trkpt>
<trkpt lat="35.189081" lon="-84.824605"><ele>268.5</ele><time>2026-07-27T23:53:37Z</time></trkpt>
<trkpt lat="35.189072" lon="-84.824564"><ele>268.2</ele><time>2026-07-27T23:53:40Z</time></trkpt>
<trkpt lat="35.18906" lon="-84.824519"><ele>268.2</ele><time>2026-07-27T23:53:43Z</time></trkpt>
<trkpt lat="35.18907" lon="-84.824473"><ele>268.2</ele><time>2026-07-27T23:53:46Z</time></trkpt>
<trkpt lat="35.189095" lon="-84.824455"><ele>268.2</ele><time>2026-07-27T23:53:48Z</time></trkpt>
<trkpt lat="35.189123" lon="-84.824451"><ele>268.2</ele><time>2026-07-27T23:53:50Z</time></trkpt>
<trkpt lat="35.18916" lon="-84.824451"><ele>268.2</ele><time>2026-07-27T23:53:53Z</time></trkpt>
<trkpt lat="35.189197" lon="-84.824448"><ele>267.6</ele><time>2026-07-27T23:53:56Z</time></trkpt>
<trkpt lat="35.189225" lon="-84.824442"><ele>267.9</ele><time>2026-07-27T23:53:58Z</time></trkpt>
<trkpt lat="35.189253" lon="-84.824437"><ele>267.6</ele><time>2026-07-27T23:54:00Z</time></trkpt>
<trkpt lat="35.189281" lon="-84.824437"><ele>267.6</ele><time>2026-07-27T23:54:02Z</time></trkpt>
<trkpt lat="35.189315" lon="-84.824435"><ele>267.6</ele><time>2026-07-27T23:54:05Z</time></trkpt>
<trkpt lat="35.189354" lon="-84.824431"><ele>267.9</ele><time>2026-07-27T23:54:08Z</time></trkpt>
<trkpt lat="35.189395" lon="-84.824424"><ele>268.2</ele><time>2026-07-27T23:54:11Z</time></trkpt>
<trkpt lat="35.189422" lon="-84.824418"><ele>268.2</ele><time>2026-07-27T23:54:13Z</time></trkpt>
<trkpt lat="35.189462" lon="-84.82441"><ele>268.2</ele><time>2026-07-27T23:54:16Z</time></trkpt>
<trkpt lat="35.189498" lon="-84.824401"><ele>268.8</ele><time>2026-07-27T23:54:19Z</time></trkpt>
<trkpt lat="35.189528" lon="-84.824387"><ele>268.8</ele><time>2026-07-27T23:54:22Z</time></trkpt>
<trkpt lat="35.189553" lon="-84.824364"><ele>269.1</ele><time>2026-07-27T23:54:24Z</time></trkpt>
<trkpt lat="35.189573" lon="-84.824337"><ele>269.1</ele><time>2026-07-27T23:54:26Z</time></trkpt>
<trkpt lat="35.189591" lon="-84.82431"><ele>269.7</ele><time>2026-07-27T23:54:28Z</time></trkpt>
<trkpt lat="35.189613" lon="-84.824288"><ele>270.4</ele><time>2026-07-27T23:54:30Z</time></trkpt>
<trkpt lat="35.189624" lon="-84.824248"><ele>269.4</ele><time>2026-07-27T23:54:33Z</time></trkpt>
<trkpt lat="35.189629" lon="-84.824199"><ele>268.8</ele><time>2026-07-27T23:54:36Z</time></trkpt>
<trkpt lat="35.189628" lon="-84.82416"><ele>268.5</ele><time>2026-07-27T23:54:38Z</time></trkpt>
<trkpt lat="35.189626" lon="-84.824123"><ele>268.5</ele><time>2026-07-27T23:54:40Z</time></trkpt>
<trkpt lat="35.189619" lon="-84.824078"><ele>268.8</ele><time>2026-07-27T23:54:43Z</time></trkpt>
<trkpt lat="35.18961" lon="-84.824031"><ele>268.2</ele><time>2026-07-27T23:54:46Z</time></trkpt>
<trkpt lat="35.189606" lon="-84.823995"><ele>267.3</ele><time>2026-07-27T23:54:48Z</time></trkpt>
<trkpt lat="35.1896" lon="-84.823949"><ele>266.7</ele><time>2026-07-27T23:54:51Z</time></trkpt>
<trkpt lat="35.189596" lon="-84.823906"><ele>265.5</ele><time>2026-07-27T23:54:54Z</time></trkpt>
<trkpt lat="35.18959" lon="-84.823862"><ele>265.2</ele><time>2026-07-27T23:54:57Z</time></trkpt>
<trkpt lat="35.189585" lon="-84.823829"><ele>265.5</ele><time>2026-07-27T23:54:59Z</time></trkpt>
<trkpt lat="35.189582" lon="-84.823793"><ele>265.5</ele><time>2026-07-27T23:55:01Z</time></trkpt>
<trkpt lat="35.189579" lon="-84.823759"><ele>265.8</ele><time>2026-07-27T23:55:03Z</time></trkpt>
<trkpt lat="35.189577" lon="-84.823718"><ele>265.2</ele><time>2026-07-27T23:55:06Z</time></trkpt>
<trkpt lat="35.189574" lon="-84.823675"><ele>264.9</ele><time>2026-07-27T23:55:09Z</time></trkpt>
<trkpt lat="35.18957" lon="-84.823624"><ele>265.2</ele><time>2026-07-27T23:55:12Z</time></trkpt>
<trkpt lat="35.189568" lon="-84.823587"><ele>265.2</ele><time>2026-07-27T23:55:14Z</time></trkpt>
<trkpt lat="35.189558" lon="-84.823545"><ele>265.2</ele><time>2026-07-27T23:55:17Z</time></trkpt>
<trkpt lat="35.189554" lon="-84.823503"><ele>265.2</ele><time>2026-07-27T23:55:20Z</time></trkpt>
<trkpt lat="35.189549" lon="-84.823457"><ele>264.6</ele><time>2026-07-27T23:55:23Z</time></trkpt>
<trkpt lat="35.189546" lon="-84.823423"><ele>264.9</ele><time>2026-07-27T23:55:25Z</time></trkpt>
<trkpt lat="35.189541" lon="-84.823388"><ele>265.2</ele><time>2026-07-27T23:55:27Z</time></trkpt>
<trkpt lat="35.189535" lon="-84.823345"><ele>264.6</ele><time>2026-07-27T23:55:30Z</time></trkpt>
<trkpt lat="35.189534" lon="-84.823302"><ele>264.9</ele><time>2026-07-27T23:55:33Z</time></trkpt>
<trkpt lat="35.18953" lon="-84.823254"><ele>264.9</ele><time>2026-07-27T23:55:36Z</time></trkpt>
<trkpt lat="35.189524" lon="-84.823218"><ele>265.2</ele><time>2026-07-27T23:55:38Z</time></trkpt>
<trkpt lat="35.189521" lon="-84.823181"><ele>265.2</ele><time>2026-07-27T23:55:40Z</time></trkpt>
<trkpt lat="35.189513" lon="-84.823148"><ele>265.8</ele><time>2026-07-27T23:55:42Z</time></trkpt>
<trkpt lat="35.189504" lon="-84.823108"><ele>265.5</ele><time>2026-07-27T23:55:45Z</time></trkpt>
<trkpt lat="35.189499" lon="-84.823064"><ele>265.8</ele><time>2026-07-27T23:55:48Z</time></trkpt>
<trkpt lat="35.189493" lon="-84.823015"><ele>266.1</ele><time>2026-07-27T23:55:51Z</time></trkpt>
<trkpt lat="35.189487" lon="-84.822966"><ele>266.7</ele><time>2026-07-27T23:55:54Z</time></trkpt>
<trkpt lat="35.189484" lon="-84.822921"><ele>266.4</ele><time>2026-07-27T23:55:57Z</time></trkpt>
<trkpt lat="35.189479" lon="-84.822879"><ele>265.8</ele><time>2026-07-27T23:56:00Z</time></trkpt>
<trkpt lat="35.189469" lon="-84.822832"><ele>265.2</ele><time>2026-07-27T23:56:03Z</time></trkpt>
<trkpt lat="35.189449" lon="-84.822792"><ele>265.2</ele><time>2026-07-27T23:56:06Z</time></trkpt>
<trkpt lat="35.189411" lon="-84.822779"><ele>265.5</ele><time>2026-07-27T23:56:09Z</time></trkpt>
<trkpt lat="35.189373" lon="-84.822781"><ele>265.5</ele><time>2026-07-27T23:56:12Z</time></trkpt>
<trkpt lat="35.189341" lon="-84.822791"><ele>265.2</ele><time>2026-07-27T23:56:15Z</time></trkpt>
<trkpt lat="35.189305" lon="-84.822799"><ele>265.5</ele><time>2026-07-27T23:56:18Z</time></trkpt>
<trkpt lat="35.189265" lon="-84.822804"><ele>265.5</ele><time>2026-07-27T23:56:21Z</time></trkpt>
<trkpt lat="35.189235" lon="-84.822809"><ele>265.8</ele><time>2026-07-27T23:56:23Z</time></trkpt>
<trkpt lat="35.189197" lon="-84.822821"><ele>265.8</ele><time>2026-07-27T23:56:26Z</time></trkpt>
<trkpt lat="35.189161" lon="-84.822837"><ele>266.7</ele><time>2026-07-27T23:56:29Z</time></trkpt>
<trkpt lat="35.189122" lon="-84.822845"><ele>267.0</ele><time>2026-07-27T23:56:32Z</time></trkpt>
<trkpt lat="35.189095" lon="-84.822855"><ele>267.3</ele><time>2026-07-27T23:56:34Z</time></trkpt>
<trkpt lat="35.189056" lon="-84.822863"><ele>267.9</ele><time>2026-07-27T23:56:37Z</time></trkpt>
<trkpt lat="35.189019" lon="-84.822868"><ele>267.3</ele><time>2026-07-27T23:56:40Z</time></trkpt>
<trkpt lat="35.188984" lon="-84.822869"><ele>266.7</ele><time>2026-07-27T23:56:43Z</time></trkpt>
<trkpt lat="35.188947" lon="-84.822875"><ele>266.7</ele><time>2026-07-27T23:56:46Z</time></trkpt>
<trkpt lat="35.18891" lon="-84.822879"><ele>266.7</ele><time>2026-07-27T23:56:49Z</time></trkpt>
<trkpt lat="35.188875" lon="-84.822889"><ele>266.1</ele><time>2026-07-27T23:56:52Z</time></trkpt>
<trkpt lat="35.188843" lon="-84.822897"><ele>266.1</ele><time>2026-07-27T23:56:55Z</time></trkpt>
<trkpt lat="35.188804" lon="-84.822906"><ele>266.4</ele><time>2026-07-27T23:56:58Z</time></trkpt>
<trkpt lat="35.188774" lon="-84.822913"><ele>266.7</ele><time>2026-07-27T23:57:00Z</time></trkpt>
<trkpt lat="35.188744" lon="-84.82292"><ele>266.7</ele><time>2026-07-27T23:57:02Z</time></trkpt>
<trkpt lat="35.188706" lon="-84.822923"><ele>266.4</ele><time>2026-07-27T23:57:05Z</time></trkpt>
<trkpt lat="35.188671" lon="-84.822916"><ele>266.4</ele><time>2026-07-27T23:57:08Z</time></trkpt>
<trkpt lat="35.188634" lon="-84.822904"><ele>267.0</ele><time>2026-07-27T23:57:11Z</time></trkpt>
<trkpt lat="35.188605" lon="-84.822891"><ele>266.7</ele><time>2026-07-27T23:57:13Z</time></trkpt>
<trkpt lat="35.188569" lon="-84.82288"><ele>266.7</ele><time>2026-07-27T23:57:16Z</time></trkpt>
<trkpt lat="35.188537" lon="-84.822864"><ele>266.7</ele><time>2026-07-27T23:57:19Z</time></trkpt>
<trkpt lat="35.188499" lon="-84.822847"><ele>267.3</ele><time>2026-07-27T23:57:22Z</time></trkpt>
<trkpt lat="35.188471" lon="-84.822837"><ele>267.0</ele><time>2026-07-27T23:57:24Z</time></trkpt>
<trkpt lat="35.188435" lon="-84.822835"><ele>267.0</ele><time>2026-07-27T23:57:27Z</time></trkpt>
<trkpt lat="35.188402" lon="-84.822842"><ele>267.0</ele><time>2026-07-27T23:57:30Z</time></trkpt>
<trkpt lat="35.188361" lon="-84.822854"><ele>267.3</ele><time>2026-07-27T23:57:33Z</time></trkpt>
<trkpt lat="35.188331" lon="-84.822862"><ele>267.3</ele><time>2026-07-27T23:57:35Z</time></trkpt>
<trkpt lat="35.188304" lon="-84.822869"><ele>268.5</ele><time>2026-07-27T23:57:37Z</time></trkpt>
<trkpt lat="35.188266" lon="-84.822882"><ele>269.4</ele><time>2026-07-27T23:57:40Z</time></trkpt>
<trkpt lat="35.188229" lon="-84.822893"><ele>269.4</ele><time>2026-07-27T23:57:43Z</time></trkpt>
<trkpt lat="35.188192" lon="-84.8229"><ele>269.1</ele><time>2026-07-27T23:57:46Z</time></trkpt>
<trkpt lat="35.188156" lon="-84.822912"><ele>270.1</ele><time>2026-07-27T23:57:49Z</time></trkpt>
<trkpt lat="35.18813" lon="-84.822927"><ele>270.7</ele><time>2026-07-27T23:57:51Z</time></trkpt>
<trkpt lat="35.188103" lon="-84.822937"><ele>271.3</ele><time>2026-07-27T23:57:53Z</time></trkpt>
<trkpt lat="35.188075" lon="-84.822947"><ele>271.9</ele><time>2026-07-27T23:57:55Z</time></trkpt>
<trkpt lat="35.188041" lon="-84.822957"><ele>271.9</ele><time>2026-07-27T23:57:58Z</time></trkpt>
<trkpt lat="35.188005" lon="-84.822965"><ele>272.2</ele><time>2026-07-27T23:58:01Z</time></trkpt>
<trkpt lat="35.187967" lon="-84.822969"><ele>271.6</ele><time>2026-07-27T23:58:04Z</time></trkpt>
<trkpt lat="35.187929" lon="-84.822975"><ele>271.3</ele><time>2026-07-27T23:58:07Z</time></trkpt>
<trkpt lat="35.187891" lon="-84.822978"><ele>270.1</ele><time>2026-07-27T23:58:10Z</time></trkpt>
<trkpt lat="35.187854" lon="-84.822979"><ele>271.0</ele><time>2026-07-27T23:58:13Z</time></trkpt>
<trkpt lat="35.187817" lon="-84.822974"><ele>270.7</ele><time>2026-07-27T23:58:16Z</time></trkpt>
<trkpt lat="35.187779" lon="-84.822975"><ele>271.0</ele><time>2026-07-27T23:58:19Z</time></trkpt>
<trkpt lat="35.187751" lon="-84.822978"><ele>271.3</ele><time>2026-07-27T23:58:21Z</time></trkpt>
<trkpt lat="35.187714" lon="-84.822988"><ele>271.3</ele><time>2026-07-27T23:58:24Z</time></trkpt>
<trkpt lat="35.187676" lon="-84.822987"><ele>271.0</ele><time>2026-07-27T23:58:27Z</time></trkpt>
<trkpt lat="35.187636" lon="-84.822984"><ele>270.4</ele><time>2026-07-27T23:58:30Z</time></trkpt>
<trkpt lat="35.187598" lon="-84.822979"><ele>270.7</ele><time>2026-07-27T23:58:33Z</time></trkpt>
<trkpt lat="35.187568" lon="-84.822976"><ele>270.7</ele><time>2026-07-27T23:58:35Z</time></trkpt>
<trkpt lat="35.187539" lon="-84.822971"><ele>271.0</ele><time>2026-07-27T23:58:37Z</time></trkpt>
<trkpt lat="35.187504" lon="-84.822964"><ele>270.7</ele><time>2026-07-27T23:58:40Z</time></trkpt>
<trkpt lat="35.187466" lon="-84.822956"><ele>270.7</ele><time>2026-07-27T23:58:43Z</time></trkpt>
<trkpt lat="35.187439" lon="-84.822961"><ele>270.4</ele><time>2026-07-27T23:58:45Z</time></trkpt>
<trkpt lat="35.187412" lon="-84.82297"><ele>270.4</ele><time>2026-07-27T23:58:47Z</time></trkpt>
<trkpt lat="35.187385" lon="-84.82298"><ele>270.7</ele><time>2026-07-27T23:58:49Z</time></trkpt>
<trkpt lat="35.187346" lon="-84.822993"><ele>270.4</ele><time>2026-07-27T23:58:52Z</time></trkpt>
<trkpt lat="35.187308" lon="-84.823002"><ele>270.7</ele><time>2026-07-27T23:58:55Z</time></trkpt>
<trkpt lat="35.187274" lon="-84.823021"><ele>271.0</ele><time>2026-07-27T23:58:58Z</time></trkpt>
<trkpt lat="35.187253" lon="-84.823044"><ele>271.3</ele><time>2026-07-27T23:59:00Z</time></trkpt>
<trkpt lat="35.187226" lon="-84.823079"><ele>270.4</ele><time>2026-07-27T23:59:03Z</time></trkpt>
<trkpt lat="35.187202" lon="-84.823117"><ele>271.0</ele><time>2026-07-27T23:59:06Z</time></trkpt>
<trkpt lat="35.187184" lon="-84.823152"><ele>271.0</ele><time>2026-07-27T23:59:09Z</time></trkpt>
<trkpt lat="35.187169" lon="-84.823191"><ele>270.4</ele><time>2026-07-27T23:59:12Z</time></trkpt>
<trkpt lat="35.187153" lon="-84.823237"><ele>270.4</ele><time>2026-07-27T23:59:15Z</time></trkpt>
<trkpt lat="35.187143" lon="-84.823272"><ele>270.4</ele><time>2026-07-27T23:59:17Z</time></trkpt>
<trkpt lat="35.187132" lon="-84.823305"><ele>270.7</ele><time>2026-07-27T23:59:19Z</time></trkpt>
<trkpt lat="35.187126" lon="-84.823355"><ele>270.7</ele><time>2026-07-27T23:59:22Z</time></trkpt>
<trkpt lat="35.187129" lon="-84.82339"><ele>270.4</ele><time>2026-07-27T23:59:24Z</time></trkpt>
<trkpt lat="35.187137" lon="-84.823435"><ele>270.7</ele><time>2026-07-27T23:59:27Z</time></trkpt>
<trkpt lat="35.18715" lon="-84.823478"><ele>271.0</ele><time>2026-07-27T23:59:30Z</time></trkpt>
<trkpt lat="35.187162" lon="-84.82351"><ele>271.0</ele><time>2026-07-27T23:59:32Z</time></trkpt>
<trkpt lat="35.187175" lon="-84.82354"><ele>271.0</ele><time>2026-07-27T23:59:34Z</time></trkpt>
<trkpt lat="35.187189" lon="-84.823569"><ele>271.0</ele><time>2026-07-27T23:59:36Z</time></trkpt>
<trkpt lat="35.187199" lon="-84.823601"><ele>271.3</ele><time>2026-07-27T23:59:38Z</time></trkpt>
<trkpt lat="35.187214" lon="-84.823642"><ele>271.3</ele><time>2026-07-27T23:59:41Z</time></trkpt>
<trkpt lat="35.187227" lon="-84.823682"><ele>271.0</ele><time>2026-07-27T23:59:44Z</time></trkpt>
<trkpt lat="35.187245" lon="-84.823725"><ele>271.6</ele><time>2026-07-27T23:59:47Z</time></trkpt>
<trkpt lat="35.187259" lon="-84.823754"><ele>271.3</ele><time>2026-07-27T23:59:49Z</time></trkpt>
<trkpt lat="35.187275" lon="-84.823799"><ele>271.3</ele><time>2026-07-27T23:59:52Z</time></trkpt>
<trkpt lat="35.187286" lon="-84.82383"><ele>270.7</ele><time>2026-07-27T23:59:54Z</time></trkpt>
<trkpt lat="35.187299" lon="-84.823873"><ele>271.0</ele><time>2026-07-27T23:59:57Z</time></trkpt>
<trkpt lat="35.187312" lon="-84.823919"><ele>271.0</ele><time>2026-07-28T00:00:00Z</time></trkpt>
<trkpt lat="35.187327" lon="-84.823963"><ele>271.0</ele><time>2026-07-28T00:00:03Z</time></trkpt>
<trkpt lat="35.187345" lon="-84.824009"><ele>270.7</ele><time>2026-07-28T00:00:06Z</time></trkpt>
<trkpt lat="35.187351" lon="-84.824043"><ele>270.4</ele><time>2026-07-28T00:00:08Z</time></trkpt>
<trkpt lat="35.187363" lon="-84.824077"><ele>270.4</ele><time>2026-07-28T00:00:10Z</time></trkpt>
<trkpt lat="35.187372" lon="-84.82411"><ele>270.4</ele><time>2026-07-28T00:00:12Z</time></trkpt>
<trkpt lat="35.187385" lon="-84.824154"><ele>270.1</ele><time>2026-07-28T00:00:15Z</time></trkpt>
<trkpt lat="35.187394" lon="-84.824195"><ele>269.7</ele><time>2026-07-28T00:00:18Z</time></trkpt>
<trkpt lat="35.18741" lon="-84.824236"><ele>270.1</ele><time>2026-07-28T00:00:21Z</time></trkpt>
<trkpt lat="35.187423" lon="-84.824284"><ele>270.1</ele><time>2026-07-28T00:00:24Z</time></trkpt>
<trkpt lat="35.187435" lon="-84.824315"><ele>270.1</ele><time>2026-07-28T00:00:26Z</time></trkpt>
<trkpt lat="35.187444" lon="-84.824347"><ele>269.4</ele><time>2026-07-28T00:00:28Z</time></trkpt>
<trkpt lat="35.187458" lon="-84.824393"><ele>269.4</ele><time>2026-07-28T00:00:31Z</time></trkpt>
<trkpt lat="35.187469" lon="-84.824436"><ele>269.7</ele><time>2026-07-28T00:00:34Z</time></trkpt>
<trkpt lat="35.187478" lon="-84.824482"><ele>270.1</ele><time>2026-07-28T00:00:37Z</time></trkpt>
<trkpt lat="35.187487" lon="-84.824514"><ele>270.1</ele><time>2026-07-28T00:00:39Z</time></trkpt>
<trkpt lat="35.187498" lon="-84.824548"><ele>270.1</ele><time>2026-07-28T00:00:41Z</time></trkpt>
<trkpt lat="35.187508" lon="-84.824582"><ele>270.1</ele><time>2026-07-28T00:00:43Z</time></trkpt>
<trkpt lat="35.187519" lon="-84.824614"><ele>269.4</ele><time>2026-07-28T00:00:45Z</time></trkpt>
<trkpt lat="35.187529" lon="-84.824658"><ele>270.1</ele><time>2026-07-28T00:00:48Z</time></trkpt>
<trkpt lat="35.18754" lon="-84.824698"><ele>270.4</ele><time>2026-07-28T00:00:51Z</time></trkpt>
<trkpt lat="35.187553" lon="-84.824742"><ele>270.1</ele><time>2026-07-28T00:00:54Z</time></trkpt>
<trkpt lat="35.187569" lon="-84.824788"><ele>270.1</ele><time>2026-07-28T00:00:57Z</time></trkpt>
<trkpt lat="35.187579" lon="-84.824822"><ele>270.4</ele><time>2026-07-28T00:00:59Z</time></trkpt>
<trkpt lat="35.18759" lon="-84.824855"><ele>270.4</ele><time>2026-07-28T00:01:01Z</time></trkpt>
<trkpt lat="35.187601" lon="-84.824889"><ele>270.1</ele><time>2026-07-28T00:01:03Z</time></trkpt>
<trkpt lat="35.18761" lon="-84.824923"><ele>270.4</ele><time>2026-07-28T00:01:05Z</time></trkpt>
<trkpt lat="35.187622" lon="-84.824964"><ele>270.4</ele><time>2026-07-28T00:01:08Z</time></trkpt>
<trkpt lat="35.187637" lon="-84.825005"><ele>270.4</ele><time>2026-07-28T00:01:11Z</time></trkpt>
<trkpt lat="35.187653" lon="-84.825051"><ele>270.1</ele><time>2026-07-28T00:01:14Z</time></trkpt>
<trkpt lat="35.187665" lon="-84.825083"><ele>270.1</ele><time>2026-07-28T00:01:16Z</time></trkpt>
<trkpt lat="35.187678" lon="-84.825118"><ele>270.4</ele><time>2026-07-28T00:01:18Z</time></trkpt>
<trkpt lat="35.187692" lon="-84.825151"><ele>270.1</ele><time>2026-07-28T00:01:20Z</time></trkpt>
<trkpt lat="35.187705" lon="-84.825182"><ele>270.1</ele><time>2026-07-28T00:01:22Z</time></trkpt>
<trkpt lat="35.187723" lon="-84.825227"><ele>269.4</ele><time>2026-07-28T00:01:25Z</time></trkpt>
<trkpt lat="35.187737" lon="-84.825272"><ele>270.1</ele><time>2026-07-28T00:01:28Z</time></trkpt>
<trkpt lat="35.187753" lon="-84.825313"><ele>269.4</ele><time>2026-07-28T00:01:31Z</time></trkpt>
<trkpt lat="35.187778" lon="-84.825347"><ele>269.4</ele><time>2026-07-28T00:01:34Z</time></trkpt>
<trkpt lat="35.187803" lon="-84.825365"><ele>269.4</ele><time>2026-07-28T00:01:36Z</time></trkpt>
<trkpt lat="35.187834" lon="-84.825373"><ele>269.4</ele><time>2026-07-28T00:01:38Z</time></trkpt>
<trkpt lat="35.187865" lon="-84.825376"><ele>269.7</ele><time>2026-07-28T00:01:40Z</time></trkpt>
<trkpt lat="35.187893" lon="-84.82538"><ele>269.4</ele><time>2026-07-28T00:01:42Z</time></trkpt>
<trkpt lat="35.187924" lon="-84.82538"><ele>269.7</ele><time>2026-07-28T00:01:44Z</time></trkpt>
<trkpt lat="35.187953" lon="-84.825378"><ele>270.1</ele><time>2026-07-28T00:01:46Z</time></trkpt>
<trkpt lat="35.187987" lon="-84.825373"><ele>270.1</ele><time>2026-07-28T00:01:49Z</time></trkpt>
<trkpt lat="35.188024" lon="-84.825363"><ele>269.7</ele><time>2026-07-28T00:01:52Z</time></trkpt>
<trkpt lat="35.18806" lon="-84.825344"><ele>269.4</ele><time>2026-07-28T00:01:55Z</time></trkpt>
<trkpt lat="35.188086" lon="-84.825325"><ele>270.1</ele><time>2026-07-28T00:01:57Z</time></trkpt>
<trkpt lat="35.188116" lon="-84.825319"><ele>270.4</ele><time>2026-07-28T00:01:59Z</time></trkpt>
<trkpt lat="35.188155" lon="-84.825295"><ele>271.0</ele><time>2026-07-28T00:02:02Z</time></trkpt>
<trkpt lat="35.188183" lon="-84.82528"><ele>270.7</ele><time>2026-07-28T00:02:04Z</time></trkpt>
<trkpt lat="35.188209" lon="-84.825269"><ele>270.7</ele><time>2026-07-28T00:02:06Z</time></trkpt>
<trkpt lat="35.188241" lon="-84.825263"><ele>270.4</ele><time>2026-07-28T00:02:09Z</time></trkpt>
<trkpt lat="35.188277" lon="-84.825248"><ele>270.1</ele><time>2026-07-28T00:02:12Z</time></trkpt>
<trkpt lat="35.188314" lon="-84.82523"><ele>269.7</ele><time>2026-07-28T00:02:15Z</time></trkpt>
<trkpt lat="35.188341" lon="-84.825213"><ele>270.1</ele><time>2026-07-28T00:02:17Z</time></trkpt>
<trkpt lat="35.188368" lon="-84.825199"><ele>270.1</ele><time>2026-07-28T00:02:19Z</time></trkpt>
<trkpt lat="35.188407" lon="-84.825187"><ele>270.4</ele><time>2026-07-28T00:02:22Z</time></trkpt>
<trkpt lat="35.188445" lon="-84.825179"><ele>270.1</ele><time>2026-07-28T00:02:25Z</time></trkpt>
<trkpt lat="35.188482" lon="-84.825167"><ele>270.7</ele><time>2026-07-28T00:02:28Z</time></trkpt>
<trkpt lat="35.188509" lon="-84.825155"><ele>271.0</ele><time>2026-07-28T00:02:30Z</time></trkpt>
<trkpt lat="35.188537" lon="-84.825139"><ele>271.3</ele><time>2026-07-28T00:02:32Z</time></trkpt>
<trkpt lat="35.188564" lon="-84.825127"><ele>271.6</ele><time>2026-07-28T00:02:34Z</time></trkpt>
<trkpt lat="35.188592" lon="-84.825117"><ele>271.3</ele><time>2026-07-28T00:02:36Z</time></trkpt>
<trkpt lat="35.188627" lon="-84.825116"><ele>271.3</ele><time>2026-07-28T00:02:39Z</time></trkpt>
<trkpt lat="35.188663" lon="-84.825129"><ele>271.0</ele><time>2026-07-28T00:02:42Z</time></trkpt>
<trkpt lat="35.188696" lon="-84.825153"><ele>271.6</ele><time>2026-07-28T00:02:45Z</time></trkpt>
<trkpt lat="35.188723" lon="-84.825191"><ele>271.3</ele><time>2026-07-28T00:02:48Z</time></trkpt>
<trkpt lat="35.188742" lon="-84.825227"><ele>271.6</ele><time>2026-07-28T00:02:51Z</time></trkpt>
<trkpt lat="35.188751" lon="-84.825265"><ele>271.6</ele><time>2026-07-28T00:02:54Z</time></trkpt>
<trkpt lat="35.188763" lon="-84.825307"><ele>272.2</ele><time>2026-07-28T00:02:57Z</time></trkpt>
<trkpt lat="35.188776" lon="-84.825337"><ele>272.5</ele><time>2026-07-28T00:02:59Z</time></trkpt>
<trkpt lat="35.188789" lon="-84.825369"><ele>272.5</ele><time>2026-07-28T00:03:01Z</time></trkpt>
<trkpt lat="35.188797" lon="-84.825401"><ele>272.8</ele><time>2026-07-28T00:03:03Z</time></trkpt>
<trkpt lat="35.188807" lon="-84.825446"><ele>273.4</ele><time>2026-07-28T00:03:06Z</time></trkpt>
<trkpt lat="35.188813" lon="-84.825489"><ele>273.4</ele><time>2026-07-28T00:03:09Z</time></trkpt>
<trkpt lat="35.188835" lon="-84.825526"><ele>273.4</ele><time>2026-07-28T00:03:12Z</time></trkpt>
<trkpt lat="35.188866" lon="-84.825525"><ele>273.4</ele><time>2026-07-28T00:03:14Z</time></trkpt>
<trkpt lat="35.188899" lon="-84.8255"><ele>273.4</ele><time>2026-07-28T00:03:17Z</time></trkpt>
<trkpt lat="35.188929" lon="-84.825483"><ele>273.4</ele><time>2026-07-28T00:03:20Z</time></trkpt>
<trkpt lat="35.188959" lon="-84.825463"><ele>272.8</ele><time>2026-07-28T00:03:23Z</time></trkpt>
<trkpt lat="35.188995" lon="-84.825444"><ele>271.9</ele><time>2026-07-28T00:03:26Z</time></trkpt>
<trkpt lat="35.189024" lon="-84.825433"><ele>272.2</ele><time>2026-07-28T00:03:28Z</time></trkpt>
<trkpt lat="35.18905" lon="-84.825415"><ele>272.2</ele><time>2026-07-28T00:03:30Z</time></trkpt>
<trkpt lat="35.189067" lon="-84.825385"><ele>272.2</ele><time>2026-07-28T00:03:32Z</time></trkpt>
<trkpt lat="35.189076" lon="-84.825348"><ele>272.2</ele><time>2026-07-28T00:03:34Z</time></trkpt>
<trkpt lat="35.189083" lon="-84.825312"><ele>272.2</ele><time>2026-07-28T00:03:36Z</time></trkpt>
<trkpt lat="35.189087" lon="-84.825277"><ele>271.9</ele><time>2026-07-28T00:03:38Z</time></trkpt>
<trkpt lat="35.189089" lon="-84.825242"><ele>271.9</ele><time>2026-07-28T00:03:40Z</time></trkpt>
<trkpt lat="35.189092" lon="-84.825197"><ele>271.6</ele><time>2026-07-28T00:03:43Z</time></trkpt>
<trkpt lat="35.189093" lon="-84.825152"><ele>271.9</ele><time>2026-07-28T00:03:46Z</time></trkpt>
<trkpt lat="35.189096" lon="-84.825118"><ele>271.6</ele><time>2026-07-28T00:03:48Z</time></trkpt>
<trkpt lat="35.189105" lon="-84.825073"><ele>271.0</ele><time>2026-07-28T00:03:51Z</time></trkpt>
<trkpt lat="35.189113" lon="-84.825024"><ele>271.3</ele><time>2026-07-28T00:03:54Z</time></trkpt>
<trkpt lat="35.189128" lon="-84.824977"><ele>271.0</ele><time>2026-07-28T00:03:57Z</time></trkpt>
<trkpt lat="35.189136" lon="-84.824938"><ele>271.0</ele><time>2026-07-28T00:04:00Z</time></trkpt>
<trkpt lat="35.189144" lon="-84.824901"><ele>270.4</ele><time>2026-07-28T00:04:03Z</time></trkpt>
<trkpt lat="35.189145" lon="-84.824855"><ele>270.1</ele><time>2026-07-28T00:04:06Z</time></trkpt>
<trkpt lat="35.189138" lon="-84.824805"><ele>270.4</ele><time>2026-07-28T00:04:09Z</time></trkpt>
<trkpt lat="35.189133" lon="-84.824771"><ele>270.1</ele><time>2026-07-28T00:04:11Z</time></trkpt>
<trkpt lat="35.189126" lon="-84.824735"><ele>270.1</ele><time>2026-07-28T00:04:13Z</time></trkpt>
<trkpt lat="35.189116" lon="-84.824688"><ele>270.7</ele><time>2026-07-28T00:04:16Z</time></trkpt>
<trkpt lat="35.189109" lon="-84.82464"><ele>271.0</ele><time>2026-07-28T00:04:19Z</time></trkpt>
<trkpt lat="35.189099" lon="-84.824597"><ele>271.0</ele><time>2026-07-28T00:04:22Z</time></trkpt>
<trkpt lat="35.189089" lon="-84.824565"><ele>271.3</ele><time>2026-07-28T00:04:24Z</time></trkpt>
<trkpt lat="35.189073" lon="-84.824518"><ele>271.0</ele><time>2026-07-28T00:04:27Z</time></trkpt>
<trkpt lat="35.189082" lon="-84.824474"><ele>271.3</ele><time>2026-07-28T00:04:30Z</time></trkpt>
<trkpt lat="35.189119" lon="-84.824458"><ele>271.0</ele><time>2026-07-28T00:04:33Z</time></trkpt>
<trkpt lat="35.189158" lon="-84.824452"><ele>270.4</ele><time>2026-07-28T00:04:36Z</time></trkpt>
<trkpt lat="35.189197" lon="-84.824449"><ele>270.1</ele><time>2026-07-28T00:04:39Z</time></trkpt>
<trkpt lat="35.189225" lon="-84.824446"><ele>270.1</ele><time>2026-07-28T00:04:41Z</time></trkpt>
<trkpt lat="35.189254" lon="-84.824445"><ele>270.1</ele><time>2026-07-28T00:04:43Z</time></trkpt>
<trkpt lat="35.189283" lon="-84.824444"><ele>270.1</ele><time>2026-07-28T00:04:45Z</time></trkpt>
<trkpt lat="35.189313" lon="-84.824439"><ele>269.7</ele><time>2026-07-28T00:04:47Z</time></trkpt>
<trkpt lat="35.189343" lon="-84.824436"><ele>269.7</ele><time>2026-07-28T00:04:49Z</time></trkpt>
<trkpt lat="35.189382" lon="-84.824431"><ele>270.1</ele><time>2026-07-28T00:04:52Z</time></trkpt>
<trkpt lat="35.189421" lon="-84.824431"><ele>270.1</ele><time>2026-07-28T00:04:55Z</time></trkpt>
<trkpt lat="35.18946" lon="-84.824425"><ele>269.4</ele><time>2026-07-28T00:04:58Z</time></trkpt>
<trkpt lat="35.189498" lon="-84.824418"><ele>269.4</ele><time>2026-07-28T00:05:01Z</time></trkpt>
<trkpt lat="35.189535" lon="-84.824398"><ele>269.1</ele><time>2026-07-28T00:05:04Z</time></trkpt>
<trkpt lat="35.189558" lon="-84.824376"><ele>269.1</ele><time>2026-07-28T00:05:06Z</time></trkpt>
<trkpt lat="35.189579" lon="-84.82435"><ele>268.8</ele><time>2026-07-28T00:05:08Z</time></trkpt>
<trkpt lat="35.189607" lon="-84.824314"><ele>268.8</ele><time>2026-07-28T00:05:11Z</time></trkpt>
<trkpt lat="35.189633" lon="-84.824277"><ele>269.4</ele><time>2026-07-28T00:05:14Z</time></trkpt>
<trkpt lat="35.189643" lon="-84.824231"><ele>269.1</ele><time>2026-07-28T00:05:17Z</time></trkpt>
<trkpt lat="35.189645" lon="-84.824196"><ele>268.5</ele><time>2026-07-28T00:05:19Z</time></trkpt>
<trkpt lat="35.189644" lon="-84.824161"><ele>268.2</ele><time>2026-07-28T00:05:21Z</time></trkpt>
<trkpt lat="35.18964" lon="-84.824124"><ele>268.2</ele><time>2026-07-28T00:05:23Z</time></trkpt>
<trkpt lat="35.189634" lon="-84.824087"><ele>267.9</ele><time>2026-07-28T00:05:25Z</time></trkpt>
<trkpt lat="35.18963" lon="-84.824053"><ele>267.9</ele><time>2026-07-28T00:05:27Z</time></trkpt>
<trkpt lat="35.189625" lon="-84.824016"><ele>268.2</ele><time>2026-07-28T00:05:29Z</time></trkpt>
<trkpt lat="35.189621" lon="-84.823982"><ele>268.2</ele><time>2026-07-28T00:05:31Z</time></trkpt>
<trkpt lat="35.189619" lon="-84.823937"><ele>267.9</ele><time>2026-07-28T00:05:34Z</time></trkpt>
<trkpt lat="35.189613" lon="-84.82389"><ele>268.2</ele><time>2026-07-28T00:05:37Z</time></trkpt>
<trkpt lat="35.189609" lon="-84.823843"><ele>267.6</ele><time>2026-07-28T00:05:40Z</time></trkpt>
<trkpt lat="35.189605" lon="-84.823793"><ele>267.9</ele><time>2026-07-28T00:05:43Z</time></trkpt>
<trkpt lat="35.189597" lon="-84.823746"><ele>267.9</ele><time>2026-07-28T00:05:46Z</time></trkpt>
<trkpt lat="35.189588" lon="-84.823699"><ele>267.9</ele><time>2026-07-28T00:05:49Z</time></trkpt>
<trkpt lat="35.189584" lon="-84.823656"><ele>268.5</ele><time>2026-07-28T00:05:52Z</time></trkpt>
<trkpt lat="35.189584" lon="-84.823613"><ele>267.3</ele><time>2026-07-28T00:05:55Z</time></trkpt>
<trkpt lat="35.18958" lon="-84.823566"><ele>267.6</ele><time>2026-07-28T00:05:58Z</time></trkpt>
<trkpt lat="35.189574" lon="-84.823532"><ele>267.9</ele><time>2026-07-28T00:06:00Z</time></trkpt>
<trkpt lat="35.18957" lon="-84.823498"><ele>267.9</ele><time>2026-07-28T00:06:02Z</time></trkpt>
<trkpt lat="35.189559" lon="-84.823451"><ele>267.3</ele><time>2026-07-28T00:06:05Z</time></trkpt>
<trkpt lat="35.189556" lon="-84.823407"><ele>267.6</ele><time>2026-07-28T00:06:08Z</time></trkpt>
<trkpt lat="35.189548" lon="-84.823364"><ele>267.9</ele><time>2026-07-28T00:06:11Z</time></trkpt>
<trkpt lat="35.189543" lon="-84.823314"><ele>267.9</ele><time>2026-07-28T00:06:14Z</time></trkpt>
<trkpt lat="35.189538" lon="-84.82328"><ele>267.9</ele><time>2026-07-28T00:06:16Z</time></trkpt>
<trkpt lat="35.189536" lon="-84.823232"><ele>267.3</ele><time>2026-07-28T00:06:19Z</time></trkpt>
<trkpt lat="35.189527" lon="-84.823198"><ele>267.6</ele><time>2026-07-28T00:06:21Z</time></trkpt>
<trkpt lat="35.18952" lon="-84.823165"><ele>267.9</ele><time>2026-07-28T00:06:23Z</time></trkpt>
<trkpt lat="35.189517" lon="-84.823118"><ele>267.9</ele><time>2026-07-28T00:06:26Z</time></trkpt>
<trkpt lat="35.189512" lon="-84.823069"><ele>268.5</ele><time>2026-07-28T00:06:29Z</time></trkpt>
<trkpt lat="35.189506" lon="-84.823032"><ele>268.8</ele><time>2026-07-28T00:06:31Z</time></trkpt>
<trkpt lat="35.189497" lon="-84.822987"><ele>268.8</ele><time>2026-07-28T00:06:34Z</time></trkpt>
<trkpt lat="35.189493" lon="-84.822946"><ele>268.2</ele><time>2026-07-28T00:06:37Z</time></trkpt>
<trkpt lat="35.189493" lon="-84.822899"><ele>268.5</ele><time>2026-07-28T00:06:40Z</time></trkpt>
<trkpt lat="35.189489" lon="-84.822858"><ele>268.2</ele><time>2026-07-28T00:06:43Z</time></trkpt>
<trkpt lat="35.189476" lon="-84.822816"><ele>268.2</ele><time>2026-07-28T00:06:46Z</time></trkpt>
<trkpt lat="35.189449" lon="-84.822786"><ele>266.7</ele><time>2026-07-28T00:06:49Z</time></trkpt>
<trkpt lat="35.189413" lon="-84.822776"><ele>266.4</ele><time>2026-07-28T00:06:52Z</time></trkpt>
<trkpt lat="35.189372" lon="-84.822782"><ele>266.4</ele><time>2026-07-28T00:06:55Z</time></trkpt>
<trkpt lat="35.189342" lon="-84.822787"><ele>266.1</ele><time>2026-07-28T00:06:57Z</time></trkpt>
<trkpt lat="35.189312" lon="-84.822791"><ele>266.1</ele><time>2026-07-28T00:06:59Z</time></trkpt>
<trkpt lat="35.189284" lon="-84.822796"><ele>266.1</ele><time>2026-07-28T00:07:01Z</time></trkpt>
<trkpt lat="35.189256" lon="-84.822801"><ele>266.4</ele><time>2026-07-28T00:07:03Z</time></trkpt>
<trkpt lat="35.189221" lon="-84.82282"><ele>267.6</ele><time>2026-07-28T00:07:06Z</time></trkpt>
<trkpt lat="35.189186" lon="-84.822836"><ele>267.9</ele><time>2026-07-28T00:07:09Z</time></trkpt>
<trkpt lat="35.18915" lon="-84.82285"><ele>267.9</ele><time>2026-07-28T00:07:12Z</time></trkpt>
<trkpt lat="35.189122" lon="-84.822855"><ele>267.9</ele><time>2026-07-28T00:07:14Z</time></trkpt>
<trkpt lat="35.189083" lon="-84.822865"><ele>268.5</ele><time>2026-07-28T00:07:17Z</time></trkpt>
<trkpt lat="35.189044" lon="-84.822873"><ele>268.2</ele><time>2026-07-28T00:07:20Z</time></trkpt>
<trkpt lat="35.189016" lon="-84.822877"><ele>267.6</ele><time>2026-07-28T00:07:22Z</time></trkpt>
<trkpt lat="35.188978" lon="-84.822884"><ele>267.3</ele><time>2026-07-28T00:07:25Z</time></trkpt>
<trkpt lat="35.188941" lon="-84.82289"><ele>267.6</ele><time>2026-07-28T00:07:28Z</time></trkpt>
<trkpt lat="35.1889" lon="-84.822896"><ele>268.2</ele><time>2026-07-28T00:07:31Z</time></trkpt>
<trkpt lat="35.188872" lon="-84.822902"><ele>268.2</ele><time>2026-07-28T00:07:33Z</time></trkpt>
<trkpt lat="35.188842" lon="-84.822908"><ele>267.9</ele><time>2026-07-28T00:07:35Z</time></trkpt>
<trkpt lat="35.188803" lon="-84.822918"><ele>268.5</ele><time>2026-07-28T00:07:38Z</time></trkpt>
<trkpt lat="35.188766" lon="-84.822926"><ele>268.8</ele><time>2026-07-28T00:07:41Z</time></trkpt>
<trkpt lat="35.188727" lon="-84.822932"><ele>268.8</ele><time>2026-07-28T00:07:44Z</time></trkpt>
<trkpt lat="35.188699" lon="-84.822927"><ele>268.8</ele><time>2026-07-28T00:07:46Z</time></trkpt>
<trkpt lat="35.188671" lon="-84.822923"><ele>269.1</ele><time>2026-07-28T00:07:48Z</time></trkpt>
<trkpt lat="35.188643" lon="-84.822912"><ele>268.8</ele><time>2026-07-28T00:07:50Z</time></trkpt>
<trkpt lat="35.188611" lon="-84.822897"><ele>268.8</ele><time>2026-07-28T00:07:53Z</time></trkpt>
<trkpt lat="35.188578" lon="-84.822881"><ele>268.5</ele><time>2026-07-28T00:07:56Z</time></trkpt>
<trkpt lat="35.188541" lon="-84.822866"><ele>268.8</ele><time>2026-07-28T00:07:59Z</time></trkpt>
<trkpt lat="35.188513" lon="-84.822859"><ele>269.1</ele><time>2026-07-28T00:08:01Z</time></trkpt>
<trkpt lat="35.188485" lon="-84.822847"><ele>269.1</ele><time>2026-07-28T00:08:03Z</time></trkpt>
<trkpt lat="35.188447" lon="-84.822843"><ele>268.8</ele><time>2026-07-28T00:08:06Z</time></trkpt>
<trkpt lat="35.188414" lon="-84.822848"><ele>268.5</ele><time>2026-07-28T00:08:09Z</time></trkpt>
<trkpt lat="35.188386" lon="-84.822852"><ele>268.8</ele><time>2026-07-28T00:08:11Z</time></trkpt>
<trkpt lat="35.188355" lon="-84.822861"><ele>268.8</ele><time>2026-07-28T00:08:13Z</time></trkpt>
<trkpt lat="35.188326" lon="-84.822867"><ele>268.5</ele><time>2026-07-28T00:08:15Z</time></trkpt>
<trkpt lat="35.188288" lon="-84.822879"><ele>269.1</ele><time>2026-07-28T00:08:18Z</time></trkpt>
<trkpt lat="35.18825" lon="-84.822889"><ele>269.1</ele><time>2026-07-28T00:08:21Z</time></trkpt>
<trkpt lat="35.188212" lon="-84.822904"><ele>270.1</ele><time>2026-07-28T00:08:24Z</time></trkpt>
<trkpt lat="35.188174" lon="-84.822915"><ele>271.0</ele><time>2026-07-28T00:08:27Z</time></trkpt>
<trkpt lat="35.188137" lon="-84.82293"><ele>272.2</ele><time>2026-07-28T00:08:30Z</time></trkpt>
<trkpt lat="35.188111" lon="-84.822938"><ele>272.8</ele><time>2026-07-28T00:08:32Z</time></trkpt>
<trkpt lat="35.188084" lon="-84.82295"><ele>272.5</ele><time>2026-07-28T00:08:34Z</time></trkpt>
<trkpt lat="35.188055" lon="-84.822959"><ele>272.5</ele><time>2026-07-28T00:08:36Z</time></trkpt>
<trkpt lat="35.188021" lon="-84.822972"><ele>272.5</ele><time>2026-07-28T00:08:39Z</time></trkpt>
<trkpt lat="35.187982" lon="-84.822971"><ele>272.2</ele><time>2026-07-28T00:08:42Z</time></trkpt>
<trkpt lat="35.187946" lon="-84.822979"><ele>272.5</ele><time>2026-07-28T00:08:45Z</time></trkpt>
<trkpt lat="35.187905" lon="-84.822985"><ele>272.2</ele><time>2026-07-28T00:08:48Z</time></trkpt>
<trkpt lat="35.187866" lon="-84.822989"><ele>271.9</ele><time>2026-07-28T00:08:51Z</time></trkpt>
<trkpt lat="35.187829" lon="-84.822981"><ele>271.9</ele><time>2026-07-28T00:08:54Z</time></trkpt>
<trkpt lat="35.187795" lon="-84.82298"><ele>271.6</ele><time>2026-07-28T00:08:57Z</time></trkpt>
<trkpt lat="35.187755" lon="-84.822987"><ele>272.2</ele><time>2026-07-28T00:09:00Z</time></trkpt>
<trkpt lat="35.187728" lon="-84.822993"><ele>272.8</ele><time>2026-07-28T00:09:02Z</time></trkpt>
<trkpt lat="35.187687" lon="-84.822997"><ele>273.1</ele><time>2026-07-28T00:09:05Z</time></trkpt>
<trkpt lat="35.187658" lon="-84.822987"><ele>273.1</ele><time>2026-07-28T00:09:07Z</time></trkpt>
<trkpt lat="35.187631" lon="-84.822981"><ele>272.2</ele><time>2026-07-28T00:09:09Z</time></trkpt>
<trkpt lat="35.187592" lon="-84.822985"><ele>271.0</ele><time>2026-07-28T00:09:12Z</time></trkpt>
<trkpt lat="35.187566" lon="-84.822976"><ele>271.6</ele><time>2026-07-28T00:09:14Z</time></trkpt>
<trkpt lat="35.187537" lon="-84.822976"><ele>271.9</ele><time>2026-07-28T00:09:16Z</time></trkpt>
<trkpt lat="35.187498" lon="-84.822966"><ele>271.6</ele><time>2026-07-28T00:09:19Z</time></trkpt>
<trkpt lat="35.187459" lon="-84.822972"><ele>271.3</ele><time>2026-07-28T00:09:22Z</time></trkpt>
<trkpt lat="35.187418" lon="-84.822973"><ele>271.6</ele><time>2026-07-28T00:09:25Z</time></trkpt>
<trkpt lat="35.18739" lon="-84.822979"><ele>271.0</ele><time>2026-07-28T00:09:27Z</time></trkpt>
<trkpt lat="35.187362" lon="-84.822994"><ele>271.0</ele><time>2026-07-28T00:09:29Z</time></trkpt>
<trkpt lat="35.187336" lon="-84.823004"><ele>271.3</ele><time>2026-07-28T00:09:31Z</time></trkpt>
<trkpt lat="35.187309" lon="-84.823014"><ele>271.0</ele><time>2026-07-28T00:09:33Z</time></trkpt>
<trkpt lat="35.187281" lon="-84.823026"><ele>270.7</ele><time>2026-07-28T00:09:35Z</time></trkpt>
<trkpt lat="35.187259" lon="-84.823049"><ele>270.1</ele><time>2026-07-28T00:09:37Z</time></trkpt>
<trkpt lat="35.18723" lon="-84.823082"><ele>270.1</ele><time>2026-07-28T00:09:40Z</time></trkpt>
<trkpt lat="35.187214" lon="-84.82312"><ele>269.1</ele><time>2026-07-28T00:09:43Z</time></trkpt>
<trkpt lat="35.187196" lon="-84.823164"><ele>268.8</ele><time>2026-07-28T00:09:46Z</time></trkpt>
<trkpt lat="35.187182" lon="-84.823193"><ele>269.4</ele><time>2026-07-28T00:09:48Z</time></trkpt>
<trkpt lat="35.18717" lon="-84.823224"><ele>269.1</ele><time>2026-07-28T00:09:50Z</time></trkpt>
<trkpt lat="35.187159" lon="-84.823254"><ele>269.4</ele><time>2026-07-28T00:09:52Z</time></trkpt>
<trkpt lat="35.187145" lon="-84.823287"><ele>269.4</ele><time>2026-07-28T00:09:54Z</time></trkpt>
<trkpt lat="35.187136" lon="-84.823322"><ele>269.7</ele><time>2026-07-28T00:09:56Z</time></trkpt>
<trkpt lat="35.187129" lon="-84.823357"><ele>270.4</ele><time>2026-07-28T00:09:58Z</time></trkpt>
<trkpt lat="35.187132" lon="-84.823395"><ele>270.4</ele><time>2026-07-28T00:10:00Z</time></trkpt>
<trkpt lat="35.187141" lon="-84.823429"><ele>270.1</ele><time>2026-07-28T00:10:02Z</time></trkpt>
<trkpt lat="35.187151" lon="-84.823461"><ele>270.4</ele><time>2026-07-28T00:10:04Z</time></trkpt>
<trkpt lat="35.187167" lon="-84.823505"><ele>270.7</ele><time>2026-07-28T00:10:07Z</time></trkpt>
<trkpt lat="35.187184" lon="-84.823548"><ele>270.4</ele><time>2026-07-28T00:10:10Z</time></trkpt>
<trkpt lat="35.187203" lon="-84.823591"><ele>270.7</ele><time>2026-07-28T00:10:13Z</time></trkpt>
<trkpt lat="35.187223" lon="-84.823634"><ele>270.4</ele><time>2026-07-28T00:10:16Z</time></trkpt>
<trkpt lat="35.187237" lon="-84.823666"><ele>271.0</ele><time>2026-07-28T00:10:18Z</time></trkpt>
<trkpt lat="35.187246" lon="-84.823699"><ele>271.0</ele><time>2026-07-28T00:10:20Z</time></trkpt>
<trkpt lat="35.187258" lon="-84.823729"><ele>271.3</ele><time>2026-07-28T00:10:22Z</time></trkpt>
<trkpt lat="35.187274" lon="-84.823772"><ele>271.0</ele><time>2026-07-28T00:10:25Z</time></trkpt>
<trkpt lat="35.187287" lon="-84.823814"><ele>271.0</ele><time>2026-07-28T00:10:28Z</time></trkpt>
<trkpt lat="35.1873" lon="-84.823859"><ele>271.9</ele><time>2026-07-28T00:10:31Z</time></trkpt>
<trkpt lat="35.187314" lon="-84.823903"><ele>271.6</ele><time>2026-07-28T00:10:34Z</time></trkpt>
<trkpt lat="35.18733" lon="-84.823951"><ele>271.0</ele><time>2026-07-28T00:10:37Z</time></trkpt>
<trkpt lat="35.187342" lon="-84.823981"><ele>271.0</ele><time>2026-07-28T00:10:39Z</time></trkpt>
<trkpt lat="35.187349" lon="-84.824016"><ele>270.7</ele><time>2026-07-28T00:10:41Z</time></trkpt>
<trkpt lat="35.187359" lon="-84.824048"><ele>270.4</ele><time>2026-07-28T00:10:43Z</time></trkpt>
<trkpt lat="35.187373" lon="-84.824095"><ele>270.1</ele><time>2026-07-28T00:10:46Z</time></trkpt>
<trkpt lat="35.187383" lon="-84.824138"><ele>270.4</ele><time>2026-07-28T00:10:49Z</time></trkpt>
<trkpt lat="35.187392" lon="-84.824179"><ele>270.4</ele><time>2026-07-28T00:10:52Z</time></trkpt>
<trkpt lat="35.187406" lon="-84.824221"><ele>270.4</ele><time>2026-07-28T00:10:55Z</time></trkpt>
<trkpt lat="35.187418" lon="-84.824252"><ele>270.4</ele><time>2026-07-28T00:10:57Z</time></trkpt>
<trkpt lat="35.187427" lon="-84.824286"><ele>270.7</ele><time>2026-07-28T00:10:59Z</time></trkpt>
<trkpt lat="35.187438" lon="-84.82432"><ele>270.7</ele><time>2026-07-28T00:11:01Z</time></trkpt>
<trkpt lat="35.187447" lon="-84.824357"><ele>271.0</ele><time>2026-07-28T00:11:03Z</time></trkpt>
<trkpt lat="35.187458" lon="-84.824388"><ele>270.7</ele><time>2026-07-28T00:11:05Z</time></trkpt>
<trkpt lat="35.187468" lon="-84.824432"><ele>270.7</ele><time>2026-07-28T00:11:08Z</time></trkpt>
<trkpt lat="35.18748" lon="-84.824476"><ele>270.4</ele><time>2026-07-28T00:11:11Z</time></trkpt>
<trkpt lat="35.187496" lon="-84.824522"><ele>270.4</ele><time>2026-07-28T00:11:14Z</time></trkpt>
<trkpt lat="35.187502" lon="-84.824558"><ele>270.7</ele><time>2026-07-28T00:11:16Z</time></trkpt>
<trkpt lat="35.187512" lon="-84.824591"><ele>270.7</ele><time>2026-07-28T00:11:18Z</time></trkpt>
<trkpt lat="35.187522" lon="-84.824624"><ele>271.3</ele><time>2026-07-28T00:11:20Z</time></trkpt>
<trkpt lat="35.187532" lon="-84.824658"><ele>271.0</ele><time>2026-07-28T00:11:22Z</time></trkpt>
<trkpt lat="35.187541" lon="-84.824689"><ele>271.3</ele><time>2026-07-28T00:11:24Z</time></trkpt>
<trkpt lat="35.187552" lon="-84.824729"><ele>271.0</ele><time>2026-07-28T00:11:27Z</time></trkpt>
<trkpt lat="35.187565" lon="-84.82477"><ele>271.6</ele><time>2026-07-28T00:11:30Z</time></trkpt>
<trkpt lat="35.18758" lon="-84.824815"><ele>271.6</ele><time>2026-07-28T00:11:33Z</time></trkpt>
<trkpt lat="35.187589" lon="-84.824848"><ele>271.6</ele><time>2026-07-28T00:11:35Z</time></trkpt>
<trkpt lat="35.187601" lon="-84.824881"><ele>271.9</ele><time>2026-07-28T00:11:37Z</time></trkpt>
<trkpt lat="35.187609" lon="-84.824915"><ele>271.9</ele><time>2026-07-28T00:11:39Z</time></trkpt>
<trkpt lat="35.187621" lon="-84.824947"><ele>271.6</ele><time>2026-07-28T00:11:41Z</time></trkpt>
<trkpt lat="35.187634" lon="-84.824986"><ele>271.3</ele><time>2026-07-28T00:11:44Z</time></trkpt>
<trkpt lat="35.187646" lon="-84.825029"><ele>270.7</ele><time>2026-07-28T00:11:47Z</time></trkpt>
<trkpt lat="35.187654" lon="-84.825077"><ele>269.7</ele><time>2026-07-28T00:11:50Z</time></trkpt>
<trkpt lat="35.187667" lon="-84.825111"><ele>269.4</ele><time>2026-07-28T00:11:52Z</time></trkpt>
<trkpt lat="35.187679" lon="-84.825145"><ele>269.1</ele><time>2026-07-28T00:11:54Z</time></trkpt>
<trkpt lat="35.187695" lon="-84.825179"><ele>269.4</ele><time>2026-07-28T00:11:56Z</time></trkpt>
<trkpt lat="35.18771" lon="-84.825213"><ele>269.7</ele><time>2026-07-28T00:11:58Z</time></trkpt>
<trkpt lat="35.187727" lon="-84.825253"><ele>269.1</ele><time>2026-07-28T00:12:01Z</time></trkpt>
<trkpt lat="35.187745" lon="-84.82529"><ele>268.8</ele><time>2026-07-28T00:12:04Z</time></trkpt>
<trkpt lat="35.187767" lon="-84.825328"><ele>269.4</ele><time>2026-07-28T00:12:07Z</time></trkpt>
<trkpt lat="35.187801" lon="-84.82536"><ele>269.1</ele><time>2026-07-28T00:12:10Z</time></trkpt>
<trkpt lat="35.18783" lon="-84.825375"><ele>269.4</ele><time>2026-07-28T00:12:12Z</time></trkpt>
<trkpt lat="35.18786" lon="-84.825377"><ele>270.1</ele><time>2026-07-28T00:12:14Z</time></trkpt>
<trkpt lat="35.18789" lon="-84.825374"><ele>270.4</ele><time>2026-07-28T00:12:16Z</time></trkpt>
<trkpt lat="35.187929" lon="-84.825371"><ele>270.4</ele><time>2026-07-28T00:12:19Z</time></trkpt>
<trkpt lat="35.187957" lon="-84.825369"><ele>270.4</ele><time>2026-07-28T00:12:21Z</time></trkpt>
<trkpt lat="35.187986" lon="-84.825363"><ele>271.0</ele><time>2026-07-28T00:12:23Z</time></trkpt>
<trkpt lat="35.188014" lon="-84.825355"><ele>271.3</ele><time>2026-07-28T00:12:25Z</time></trkpt>
<trkpt lat="35.188043" lon="-84.825344"><ele>271.6</ele><time>2026-07-28T00:12:27Z</time></trkpt>
<trkpt lat="35.18807" lon="-84.825331"><ele>271.9</ele><time>2026-07-28T00:12:29Z</time></trkpt>
<trkpt lat="35.1881" lon="-84.825319"><ele>271.6</ele><time>2026-07-28T00:12:31Z</time></trkpt>
<trkpt lat="35.188132" lon="-84.82531"><ele>271.6</ele><time>2026-07-28T00:12:33Z</time></trkpt>
<trkpt lat="35.188161" lon="-84.8253"><ele>271.9</ele><time>2026-07-28T00:12:35Z</time></trkpt>
<trkpt lat="35.188189" lon="-84.82529"><ele>271.9</ele><time>2026-07-28T00:12:37Z</time></trkpt>
<trkpt lat="35.188225" lon="-84.825264"><ele>272.5</ele><time>2026-07-28T00:12:40Z</time></trkpt>
<trkpt lat="35.188255" lon="-84.825252"><ele>272.5</ele><time>2026-07-28T00:12:42Z</time></trkpt>
<trkpt lat="35.188281" lon="-84.825239"><ele>272.2</ele><time>2026-07-28T00:12:44Z</time></trkpt>
<trkpt lat="35.188308" lon="-84.825227"><ele>272.5</ele><time>2026-07-28T00:12:46Z</time></trkpt>
<trkpt lat="35.188343" lon="-84.825209"><ele>273.1</ele><time>2026-07-28T00:12:49Z</time></trkpt>
<trkpt lat="35.188372" lon="-84.82519"><ele>273.1</ele><time>2026-07-28T00:12:52Z</time></trkpt>
<trkpt lat="35.188404" lon="-84.825169"><ele>273.1</ele><time>2026-07-28T00:12:55Z</time></trkpt>
<trkpt lat="35.188438" lon="-84.825151"><ele>273.4</ele><time>2026-07-28T00:12:58Z</time></trkpt>
<trkpt lat="35.188476" lon="-84.825134"><ele>273.1</ele><time>2026-07-28T00:13:01Z</time></trkpt>
<trkpt lat="35.188503" lon="-84.825117"><ele>273.1</ele><time>2026-07-28T00:13:03Z</time></trkpt>
<trkpt lat="35.188531" lon="-84.825103"><ele>273.1</ele><time>2026-07-28T00:13:05Z</time></trkpt>
<trkpt lat="35.188559" lon="-84.825093"><ele>273.4</ele><time>2026-07-28T00:13:07Z</time></trkpt>
<trkpt lat="35.188597" lon="-84.825079"><ele>273.4</ele><time>2026-07-28T00:13:10Z</time></trkpt>
<trkpt lat="35.188638" lon="-84.825081"><ele>273.4</ele><time>2026-07-28T00:13:13Z</time></trkpt>
<trkpt lat="35.188665" lon="-84.825094"><ele>273.4</ele><time>2026-07-28T00:13:15Z</time></trkpt>
<trkpt lat="35.188689" lon="-84.825117"><ele>273.4</ele><time>2026-07-28T00:13:17Z</time></trkpt>
<trkpt lat="35.188708" lon="-84.825144"><ele>273.1</ele><time>2026-07-28T00:13:19Z</time></trkpt>
<trkpt lat="35.188725" lon="-84.825177"><ele>273.4</ele><time>2026-07-28T00:13:21Z</time></trkpt>
<trkpt lat="35.18874" lon="-84.825212"><ele>273.7</ele><time>2026-07-28T00:13:23Z</time></trkpt>
<trkpt lat="35.188754" lon="-84.825243"><ele>274.0</ele><time>2026-07-28T00:13:25Z</time></trkpt>
<trkpt lat="35.188771" lon="-84.825284"><ele>274.0</ele><time>2026-07-28T00:13:28Z</time></trkpt>
<trkpt lat="35.188785" lon="-84.825321"><ele>273.7</ele><time>2026-07-28T00:13:31Z</time></trkpt>
<trkpt lat="35.188798" lon="-84.825354"><ele>273.7</ele><time>2026-07-28T00:13:33Z</time></trkpt>
<trkpt lat="35.188807" lon="-84.825387"><ele>273.7</ele><time>2026-07-28T00:13:35Z</time></trkpt>
<trkpt lat="35.188816" lon="-84.825421"><ele>274.0</ele><time>2026-07-28T00:13:37Z</time></trkpt>
<trkpt lat="35.188827" lon="-84.825452"><ele>274.0</ele><time>2026-07-28T00:13:39Z</time></trkpt>
<trkpt lat="35.188837" lon="-84.825485"><ele>274.0</ele><time>2026-07-28T00:13:41Z</time></trkpt>
<trkpt lat="35.188869" lon="-84.825511"><ele>273.1</ele><time>2026-07-28T00:13:44Z</time></trkpt>
<trkpt lat="35.188895" lon="-84.825495"><ele>273.4</ele><time>2026-07-28T00:13:46Z</time></trkpt>
<trkpt lat="35.188929" lon="-84.825474"><ele>273.7</ele><time>2026-07-28T00:13:49Z</time></trkpt>
<trkpt lat="35.188966" lon="-84.825457"><ele>273.4</ele><time>2026-07-28T00:13:52Z</time></trkpt>
<trkpt lat="35.189003" lon="-84.825438"><ele>273.4</ele><time>2026-07-28T00:13:55Z</time></trkpt>
<trkpt lat="35.189036" lon="-84.825418"><ele>273.4</ele><time>2026-07-28T00:13:58Z</time></trkpt>
<trkpt lat="35.189071" lon="-84.825389"><ele>273.7</ele><time>2026-07-28T00:14:01Z</time></trkpt>
<trkpt lat="35.189083" lon="-84.825356"><ele>273.7</ele><time>2026-07-28T00:14:03Z</time></trkpt>
<trkpt lat="35.189089" lon="-84.82532"><ele>273.4</ele><time>2026-07-28T00:14:05Z</time></trkpt>
<trkpt lat="35.18909" lon="-84.825281"><ele>273.4</ele><time>2026-07-28T00:14:07Z</time></trkpt>
<trkpt lat="35.189089" lon="-84.825234"><ele>273.7</ele><time>2026-07-28T00:14:10Z</time></trkpt>
<trkpt lat="35.189089" lon="-84.82519"><ele>273.4</ele><time>2026-07-28T00:14:13Z</time></trkpt>
<trkpt lat="35.189089" lon="-84.825146"><ele>273.1</ele><time>2026-07-28T00:14:16Z</time></trkpt>
<trkpt lat="35.189094" lon="-84.825099"><ele>273.4</ele><time>2026-07-28T00:14:19Z</time></trkpt>
<trkpt lat="35.1891" lon="-84.825064"><ele>273.4</ele><time>2026-07-28T00:14:21Z</time></trkpt>
<trkpt lat="35.189107" lon="-84.825029"><ele>273.4</ele><time>2026-07-28T00:14:23Z</time></trkpt>
<trkpt lat="35.189116" lon="-84.824993"><ele>273.7</ele><time>2026-07-28T00:14:25Z</time></trkpt>
<trkpt lat="35.189123" lon="-84.82496"><ele>273.7</ele><time>2026-07-28T00:14:27Z</time></trkpt>
<trkpt lat="35.189133" lon="-84.824918"><ele>273.7</ele><time>2026-07-28T00:14:30Z</time></trkpt>
<trkpt lat="35.189138" lon="-84.824877"><ele>273.1</ele><time>2026-07-28T00:14:33Z</time></trkpt>
<trkpt lat="35.189141" lon="-84.824833"><ele>273.1</ele><time>2026-07-28T00:14:36Z</time></trkpt>
<trkpt lat="35.189139" lon="-84.824783"><ele>273.4</ele><time>2026-07-28T00:14:39Z</time></trkpt>
<trkpt lat="35.189134" lon="-84.82475"><ele>272.5</ele><time>2026-07-28T00:14:41Z</time></trkpt>
<trkpt lat="35.189129" lon="-84.824717"><ele>271.6</ele><time>2026-07-28T00:14:43Z</time></trkpt>
<trkpt lat="35.189113" lon="-84.824674"><ele>272.2</ele><time>2026-07-28T00:14:46Z</time></trkpt>
<trkpt lat="35.189098" lon="-84.824633"><ele>272.2</ele><time>2026-07-28T00:14:49Z</time></trkpt>
<trkpt lat="35.189089" lon="-84.824583"><ele>272.2</ele><time>2026-07-28T00:14:52Z</time></trkpt>
<trkpt lat="35.189082" lon="-84.824549"><ele>272.5</ele><time>2026-07-28T00:14:54Z</time></trkpt>
<trkpt lat="35.189075" lon="-84.824513"><ele>272.8</ele><time>2026-07-28T00:14:56Z</time></trkpt>
<trkpt lat="35.189078" lon="-84.824478"><ele>272.8</ele><time>2026-07-28T00:14:58Z</time></trkpt>
<trkpt lat="35.189098" lon="-84.824448"><ele>272.8</ele><time>2026-07-28T00:15:00Z</time></trkpt>
<trkpt lat="35.189126" lon="-84.824435"><ele>273.1</ele><time>2026-07-28T00:15:02Z</time></trkpt>
<trkpt lat="35.189154" lon="-84.824432"><ele>272.8</ele><time>2026-07-28T00:15:04Z</time></trkpt>
<trkpt lat="35.189181" lon="-84.824427"><ele>272.2</ele><time>2026-07-28T00:15:06Z</time></trkpt>
<trkpt lat="35.189218" lon="-84.824423"><ele>271.9</ele><time>2026-07-28T00:15:09Z</time></trkpt>
<trkpt lat="35.189256" lon="-84.824418"><ele>271.9</ele><time>2026-07-28T00:15:12Z</time></trkpt>
<trkpt lat="35.189295" lon="-84.824419"><ele>271.3</ele><time>2026-07-28T00:15:15Z</time></trkpt>
<trkpt lat="35.189323" lon="-84.824417"><ele>271.3</ele><time>2026-07-28T00:15:17Z</time></trkpt>
<trkpt lat="35.189352" lon="-84.824416"><ele>270.7</ele><time>2026-07-28T00:15:19Z</time></trkpt>
<trkpt lat="35.189382" lon="-84.824417"><ele>270.7</ele><time>2026-07-28T00:15:21Z</time></trkpt>
<trkpt lat="35.189411" lon="-84.824413"><ele>270.7</ele><time>2026-07-28T00:15:23Z</time></trkpt>
<trkpt lat="35.18944" lon="-84.824408"><ele>271.0</ele><time>2026-07-28T00:15:25Z</time></trkpt>
<trkpt lat="35.189469" lon="-84.824401"><ele>270.7</ele><time>2026-07-28T00:15:27Z</time></trkpt>
<trkpt lat="35.189503" lon="-84.824385"><ele>271.0</ele><time>2026-07-28T00:15:30Z</time></trkpt>
<trkpt lat="35.189534" lon="-84.824367"><ele>271.3</ele><time>2026-07-28T00:15:33Z</time></trkpt>
<trkpt lat="35.189563" lon="-84.824336"><ele>271.6</ele><time>2026-07-28T00:15:36Z</time></trkpt>
<trkpt lat="35.189581" lon="-84.824309"><ele>271.9</ele><time>2026-07-28T00:15:38Z</time></trkpt>
<trkpt lat="35.189601" lon="-84.824282"><ele>272.2</ele><time>2026-07-28T00:15:40Z</time></trkpt>
<trkpt lat="35.18962" lon="-84.824254"><ele>271.6</ele><time>2026-07-28T00:15:42Z</time></trkpt>
<trkpt lat="35.189631" lon="-84.824222"><ele>271.6</ele><time>2026-07-28T00:15:44Z</time></trkpt>
<trkpt lat="35.189637" lon="-84.824187"><ele>271.6</ele><time>2026-07-28T00:15:46Z</time></trkpt>
<trkpt lat="35.189639" lon="-84.824141"><ele>271.6</ele><time>2026-07-28T00:15:49Z</time></trkpt>
<trkpt lat="35.189633" lon="-84.824097"><ele>270.7</ele><time>2026-07-28T00:15:52Z</time></trkpt>
<trkpt lat="35.189628" lon="-84.824053"><ele>270.4</ele><time>2026-07-28T00:15:55Z</time></trkpt>
<trkpt lat="35.189623" lon="-84.824006"><ele>270.1</ele><time>2026-07-28T00:15:58Z</time></trkpt>
<trkpt lat="35.189616" lon="-84.823973"><ele>269.7</ele><time>2026-07-28T00:16:00Z</time></trkpt>
<trkpt lat="35.189612" lon="-84.823926"><ele>270.1</ele><time>2026-07-28T00:16:03Z</time></trkpt>
<trkpt lat="35.189606" lon="-84.82389"><ele>270.4</ele><time>2026-07-28T00:16:05Z</time></trkpt>
<trkpt lat="35.189602" lon="-84.823853"><ele>270.7</ele><time>2026-07-28T00:16:07Z</time></trkpt>
<trkpt lat="35.189597" lon="-84.823815"><ele>270.7</ele><time>2026-07-28T00:16:09Z</time></trkpt>
<trkpt lat="35.189595" lon="-84.823778"><ele>270.7</ele><time>2026-07-28T00:16:11Z</time></trkpt>
<trkpt lat="35.189592" lon="-84.823741"><ele>270.7</ele><time>2026-07-28T00:16:13Z</time></trkpt>
<trkpt lat="35.189589" lon="-84.823706"><ele>270.4</ele><time>2026-07-28T00:16:15Z</time></trkpt>
<trkpt lat="35.189585" lon="-84.82366"><ele>270.7</ele><time>2026-07-28T00:16:18Z</time></trkpt>
<trkpt lat="35.189578" lon="-84.823617"><ele>270.4</ele><time>2026-07-28T00:16:21Z</time></trkpt>
<trkpt lat="35.18957" lon="-84.823573"><ele>270.4</ele><time>2026-07-28T00:16:24Z</time></trkpt>
<trkpt lat="35.189567" lon="-84.823538"><ele>270.4</ele><time>2026-07-28T00:16:26Z</time></trkpt>
<trkpt lat="35.189564" lon="-84.823505"><ele>270.4</ele><time>2026-07-28T00:16:28Z</time></trkpt>
<trkpt lat="35.189561" lon="-84.823469"><ele>270.4</ele><time>2026-07-28T00:16:30Z</time></trkpt>
<trkpt lat="35.18956" lon="-84.823435"><ele>270.1</ele><time>2026-07-28T00:16:32Z</time></trkpt>
<trkpt lat="35.189556" lon="-84.8234"><ele>269.7</ele><time>2026-07-28T00:16:34Z</time></trkpt>
<trkpt lat="35.18955" lon="-84.823355"><ele>269.4</ele><time>2026-07-28T00:16:37Z</time></trkpt>
<trkpt lat="35.189547" lon="-84.823315"><ele>269.1</ele><time>2026-07-28T00:16:40Z</time></trkpt>
<trkpt lat="35.189542" lon="-84.823269"><ele>268.8</ele><time>2026-07-28T00:16:43Z</time></trkpt>
<trkpt lat="35.189537" lon="-84.823235"><ele>268.8</ele><time>2026-07-28T00:16:45Z</time></trkpt>
<trkpt lat="35.189531" lon="-84.823201"><ele>268.8</ele><time>2026-07-28T00:16:47Z</time></trkpt>
<trkpt lat="35.189525" lon="-84.823167"><ele>268.8</ele><time>2026-07-28T00:16:49Z</time></trkpt>
<trkpt lat="35.18952" lon="-84.823134"><ele>268.8</ele><time>2026-07-28T00:16:51Z</time></trkpt>
<trkpt lat="35.189516" lon="-84.823098"><ele>268.8</ele><time>2026-07-28T00:16:53Z</time></trkpt>
<trkpt lat="35.18951" lon="-84.823054"><ele>268.8</ele><time>2026-07-28T00:16:56Z</time></trkpt>
<trkpt lat="35.189503" lon="-84.82301"><ele>269.1</ele><time>2026-07-28T00:16:59Z</time></trkpt>
<trkpt lat="35.189498" lon="-84.822963"><ele>268.8</ele><time>2026-07-28T00:17:02Z</time></trkpt>
<trkpt lat="35.189493" lon="-84.822928"><ele>269.1</ele><time>2026-07-28T00:17:04Z</time></trkpt>
<trkpt lat="35.189489" lon="-84.82289"><ele>268.8</ele><time>2026-07-28T00:17:06Z</time></trkpt>
<trkpt lat="35.189486" lon="-84.822856"><ele>269.1</ele><time>2026-07-28T00:17:08Z</time></trkpt>
<trkpt lat="35.189473" lon="-84.822812"><ele>269.4</ele><time>2026-07-28T00:17:11Z</time></trkpt>
<trkpt lat="35.189448" lon="-84.822783"><ele>268.8</ele><time>2026-07-28T00:17:14Z</time></trkpt>
<trkpt lat="35.189408" lon="-84.822781"><ele>268.8</ele><time>2026-07-28T00:17:17Z</time></trkpt>
<trkpt lat="35.189381" lon="-84.82279"><ele>268.8</ele><time>2026-07-28T00:17:19Z</time></trkpt>
<trkpt lat="35.189341" lon="-84.822799"><ele>268.8</ele><time>2026-07-28T00:17:22Z</time></trkpt>
<trkpt lat="35.189299" lon="-84.822802"><ele>268.5</ele><time>2026-07-28T00:17:25Z</time></trkpt>
<trkpt lat="35.189271" lon="-84.822808"><ele>268.8</ele><time>2026-07-28T00:17:27Z</time></trkpt>
<trkpt lat="35.189242" lon="-84.822815"><ele>269.1</ele><time>2026-07-28T00:17:29Z</time></trkpt>
<trkpt lat="35.189213" lon="-84.82282"><ele>268.8</ele><time>2026-07-28T00:17:31Z</time></trkpt>
<trkpt lat="35.189174" lon="-84.822827"><ele>268.2</ele><time>2026-07-28T00:17:34Z</time></trkpt>
<trkpt lat="35.189134" lon="-84.822839"><ele>268.5</ele><time>2026-07-28T00:17:37Z</time></trkpt>
<trkpt lat="35.189109" lon="-84.822854"><ele>268.5</ele><time>2026-07-28T00:17:39Z</time></trkpt>
<trkpt lat="35.189074" lon="-84.82287"><ele>268.8</ele><time>2026-07-28T00:17:42Z</time></trkpt>
<trkpt lat="35.189033" lon="-84.822876"><ele>269.4</ele><time>2026-07-28T00:17:45Z</time></trkpt>
<trkpt lat="35.188992" lon="-84.822879"><ele>268.8</ele><time>2026-07-28T00:17:48Z</time></trkpt>
<trkpt lat="35.188961" lon="-84.822885"><ele>269.1</ele><time>2026-07-28T00:17:50Z</time></trkpt>
<trkpt lat="35.18893" lon="-84.822887"><ele>269.1</ele><time>2026-07-28T00:17:52Z</time></trkpt>
<trkpt lat="35.188902" lon="-84.822895"><ele>269.1</ele><time>2026-07-28T00:17:54Z</time></trkpt>
<trkpt lat="35.188866" lon="-84.822904"><ele>269.1</ele><time>2026-07-28T00:17:57Z</time></trkpt>
<trkpt lat="35.188832" lon="-84.822914"><ele>269.4</ele><time>2026-07-28T00:18:00Z</time></trkpt>
<trkpt lat="35.188794" lon="-84.822922"><ele>269.7</ele><time>2026-07-28T00:18:03Z</time></trkpt>
<trkpt lat="35.188753" lon="-84.822926"><ele>269.7</ele><time>2026-07-28T00:18:06Z</time></trkpt>
<trkpt lat="35.188723" lon="-84.822927"><ele>270.1</ele><time>2026-07-28T00:18:08Z</time></trkpt>
<trkpt lat="35.188692" lon="-84.822925"><ele>270.1</ele><time>2026-07-28T00:18:10Z</time></trkpt>
<trkpt lat="35.188663" lon="-84.822919"><ele>270.4</ele><time>2026-07-28T00:18:12Z</time></trkpt>
<trkpt lat="35.188634" lon="-84.822908"><ele>270.1</ele><time>2026-07-28T00:18:14Z</time></trkpt>
<trkpt lat="35.188607" lon="-84.822894"><ele>269.7</ele><time>2026-07-28T00:18:16Z</time></trkpt>
<trkpt lat="35.188575" lon="-84.82287"><ele>270.4</ele><time>2026-07-28T00:18:19Z</time></trkpt>
<trkpt lat="35.188537" lon="-84.822864"><ele>269.7</ele><time>2026-07-28T00:18:22Z</time></trkpt>
<trkpt lat="35.18851" lon="-84.822854"><ele>270.1</ele><time>2026-07-28T00:18:24Z</time></trkpt>
<trkpt lat="35.188473" lon="-84.822847"><ele>270.4</ele><time>2026-07-28T00:18:27Z</time></trkpt>
<trkpt lat="35.188443" lon="-84.822851"><ele>270.7</ele><time>2026-07-28T00:18:29Z</time></trkpt>
<trkpt lat="35.188414" lon="-84.822857"><ele>271.0</ele><time>2026-07-28T00:18:31Z</time></trkpt>
<trkpt lat="35.188385" lon="-84.822865"><ele>271.3</ele><time>2026-07-28T00:18:33Z</time></trkpt>
<trkpt lat="35.188358" lon="-84.82287"><ele>271.0</ele><time>2026-07-28T00:18:35Z</time></trkpt>
<trkpt lat="35.188329" lon="-84.822876"><ele>271.0</ele><time>2026-07-28T00:18:37Z</time></trkpt>
<trkpt lat="35.188302" lon="-84.822887"><ele>271.3</ele><time>2026-07-28T00:18:39Z</time></trkpt>
<trkpt lat="35.188267" lon="-84.822903"><ele>271.6</ele><time>2026-07-28T00:18:42Z</time></trkpt>
<trkpt lat="35.188233" lon="-84.822917"><ele>271.6</ele><time>2026-07-28T00:18:45Z</time></trkpt>
<trkpt lat="35.188196" lon="-84.82293"><ele>271.6</ele><time>2026-07-28T00:18:48Z</time></trkpt>
<trkpt lat="35.188169" lon="-84.822938"><ele>271.3</ele><time>2026-07-28T00:18:50Z</time></trkpt>
<trkpt lat="35.188139" lon="-84.822947"><ele>271.6</ele><time>2026-07-28T00:18:52Z</time></trkpt>
<trkpt lat="35.188109" lon="-84.822957"><ele>271.9</ele><time>2026-07-28T00:18:54Z</time></trkpt>
<trkpt lat="35.188072" lon="-84.822972"><ele>271.9</ele><time>2026-07-28T00:18:57Z</time></trkpt>
<trkpt lat="35.188038" lon="-84.822984"><ele>271.9</ele><time>2026-07-28T00:19:00Z</time></trkpt>
<trkpt lat="35.188002" lon="-84.82299"><ele>271.9</ele><time>2026-07-28T00:19:03Z</time></trkpt>
<trkpt lat="35.187962" lon="-84.822998"><ele>272.2</ele><time>2026-07-28T00:19:06Z</time></trkpt>
<trkpt lat="35.187934" lon="-84.823006"><ele>272.8</ele><time>2026-07-28T00:19:08Z</time></trkpt>
<trkpt lat="35.187906" lon="-84.823009"><ele>272.8</ele><time>2026-07-28T00:19:10Z</time></trkpt>
<trkpt lat="35.187875" lon="-84.82301"><ele>272.8</ele><time>2026-07-28T00:19:12Z</time></trkpt>
<trkpt lat="35.187848" lon="-84.82301"><ele>272.5</ele><time>2026-07-28T00:19:14Z</time></trkpt>
<trkpt lat="35.187808" lon="-84.82301"><ele>271.9</ele><time>2026-07-28T00:19:17Z</time></trkpt>
<trkpt lat="35.18777" lon="-84.823013"><ele>271.6</ele><time>2026-07-28T00:19:20Z</time></trkpt>
<trkpt lat="35.187732" lon="-84.823018"><ele>271.9</ele><time>2026-07-28T00:19:23Z</time></trkpt>
<trkpt lat="35.187704" lon="-84.823018"><ele>271.6</ele><time>2026-07-28T00:19:25Z</time></trkpt>
<trkpt lat="35.187675" lon="-84.823015"><ele>271.6</ele><time>2026-07-28T00:19:27Z</time></trkpt>
<trkpt lat="35.187647" lon="-84.823013"><ele>271.0</ele><time>2026-07-28T00:19:29Z</time></trkpt>
<trkpt lat="35.187607" lon="-84.823006"><ele>271.3</ele><time>2026-07-28T00:19:32Z</time></trkpt>
<trkpt lat="35.187567" lon="-84.823002"><ele>272.2</ele><time>2026-07-28T00:19:35Z</time></trkpt>
<trkpt lat="35.187529" lon="-84.822995"><ele>271.9</ele><time>2026-07-28T00:19:38Z</time></trkpt>
<trkpt lat="35.187488" lon="-84.822993"><ele>272.2</ele><time>2026-07-28T00:19:41Z</time></trkpt>
<trkpt lat="35.187458" lon="-84.822999"><ele>272.5</ele><time>2026-07-28T00:19:43Z</time></trkpt>
<trkpt lat="35.18743" lon="-84.823003"><ele>272.5</ele><time>2026-07-28T00:19:45Z</time></trkpt>
<trkpt lat="35.1874" lon="-84.823012"><ele>272.2</ele><time>2026-07-28T00:19:47Z</time></trkpt>
<trkpt lat="35.187371" lon="-84.82302"><ele>272.8</ele><time>2026-07-28T00:19:49Z</time></trkpt>
<trkpt lat="35.187343" lon="-84.823026"><ele>272.8</ele><time>2026-07-28T00:19:51Z</time></trkpt>
<trkpt lat="35.187317" lon="-84.823039"><ele>273.4</ele><time>2026-07-28T00:19:53Z</time></trkpt>
<trkpt lat="35.187291" lon="-84.823053"><ele>273.4</ele><time>2026-07-28T00:19:55Z</time></trkpt>
<trkpt lat="35.187258" lon="-84.82308"><ele>272.8</ele><time>2026-07-28T00:19:58Z</time></trkpt>
<trkpt lat="35.187233" lon="-84.823118"><ele>271.6</ele><time>2026-07-28T00:20:01Z</time></trkpt>
<trkpt lat="35.187213" lon="-84.823151"><ele>271.6</ele><time>2026-07-28T00:20:04Z</time></trkpt>
<trkpt lat="35.187199" lon="-84.823188"><ele>271.9</ele><time>2026-07-28T00:20:07Z</time></trkpt>
<trkpt lat="35.187184" lon="-84.823231"><ele>271.6</ele><time>2026-07-28T00:20:10Z</time></trkpt>
<trkpt lat="35.187165" lon="-84.823275"><ele>271.3</ele><time>2026-07-28T00:20:13Z</time></trkpt>
<trkpt lat="35.187154" lon="-84.823308"><ele>271.3</ele><time>2026-07-28T00:20:15Z</time></trkpt>
<trkpt lat="35.187147" lon="-84.823343"><ele>271.3</ele><time>2026-07-28T00:20:17Z</time></trkpt>
<trkpt lat="35.187146" lon="-84.823392"><ele>271.6</ele><time>2026-07-28T00:20:20Z</time></trkpt>
<trkpt lat="35.187152" lon="-84.823427"><ele>271.3</ele><time>2026-07-28T00:20:22Z</time></trkpt>
<trkpt lat="35.187162" lon="-84.823462"><ele>271.9</ele><time>2026-07-28T00:20:24Z</time></trkpt>
<trkpt lat="35.187177" lon="-84.823508"><ele>271.9</ele><time>2026-07-28T00:20:27Z</time></trkpt>
<trkpt lat="35.187195" lon="-84.82355"><ele>272.5</ele><time>2026-07-28T00:20:30Z</time></trkpt>
<trkpt lat="35.187211" lon="-84.823591"><ele>271.6</ele><time>2026-07-28T00:20:33Z</time></trkpt>
<trkpt lat="35.187227" lon="-84.823632"><ele>272.2</ele><time>2026-07-28T00:20:36Z</time></trkpt>
<trkpt lat="35.187248" lon="-84.823674"><ele>271.6</ele><time>2026-07-28T00:20:39Z</time></trkpt>
<trkpt lat="35.187265" lon="-84.823719"><ele>271.6</ele><time>2026-07-28T00:20:42Z</time></trkpt>
<trkpt lat="35.187277" lon="-84.823753"><ele>271.6</ele><time>2026-07-28T00:20:44Z</time></trkpt>
<trkpt lat="35.187288" lon="-84.823789"><ele>271.9</ele><time>2026-07-28T00:20:46Z</time></trkpt>
<trkpt lat="35.1873" lon="-84.823823"><ele>271.9</ele><time>2026-07-28T00:20:48Z</time></trkpt>
<trkpt lat="35.187312" lon="-84.823857"><ele>271.9</ele><time>2026-07-28T00:20:50Z</time></trkpt>
<trkpt lat="35.187323" lon="-84.823889"><ele>272.5</ele><time>2026-07-28T00:20:52Z</time></trkpt>
<trkpt lat="35.187341" lon="-84.823929"><ele>272.8</ele><time>2026-07-28T00:20:55Z</time></trkpt>
<trkpt lat="35.187356" lon="-84.823965"><ele>273.1</ele><time>2026-07-28T00:20:58Z</time></trkpt>
<trkpt lat="35.187369" lon="-84.82401"><ele>273.1</ele><time>2026-07-28T00:21:01Z</time></trkpt>
<trkpt lat="35.18738" lon="-84.824056"><ele>273.1</ele><time>2026-07-28T00:21:04Z</time></trkpt>
<trkpt lat="35.187389" lon="-84.824089"><ele>273.4</ele><time>2026-07-28T00:21:06Z</time></trkpt>
<trkpt lat="35.1874" lon="-84.824122"><ele>273.4</ele><time>2026-07-28T00:21:08Z</time></trkpt>
<trkpt lat="35.187411" lon="-84.824156"><ele>273.4</ele><time>2026-07-28T00:21:10Z</time></trkpt>
<trkpt lat="35.187421" lon="-84.824189"><ele>273.4</ele><time>2026-07-28T00:21:12Z</time></trkpt>
<trkpt lat="35.187436" lon="-84.824234"><ele>273.4</ele><time>2026-07-28T00:21:15Z</time></trkpt>
<trkpt lat="35.18745" lon="-84.824276"><ele>273.1</ele><time>2026-07-28T00:21:18Z</time></trkpt>
<trkpt lat="35.187461" lon="-84.824317"><ele>272.8</ele><time>2026-07-28T00:21:21Z</time></trkpt>
<trkpt lat="35.187474" lon="-84.824361"><ele>272.8</ele><time>2026-07-28T00:21:24Z</time></trkpt>
<trkpt lat="35.187487" lon="-84.824394"><ele>272.2</ele><time>2026-07-28T00:21:26Z</time></trkpt>
<trkpt lat="35.187498" lon="-84.824432"><ele>272.2</ele><time>2026-07-28T00:21:28Z</time></trkpt>
<trkpt lat="35.187507" lon="-84.824469"><ele>272.2</ele><time>2026-07-28T00:21:30Z</time></trkpt>
<trkpt lat="35.187518" lon="-84.8245"><ele>271.6</ele><time>2026-07-28T00:21:32Z</time></trkpt>
<trkpt lat="35.187529" lon="-84.824531"><ele>271.6</ele><time>2026-07-28T00:21:34Z</time></trkpt>
<trkpt lat="35.18754" lon="-84.824575"><ele>271.6</ele><time>2026-07-28T00:21:37Z</time></trkpt>
<trkpt lat="35.187553" lon="-84.824623"><ele>271.6</ele><time>2026-07-28T00:21:40Z</time></trkpt>
<trkpt lat="35.187565" lon="-84.824667"><ele>271.3</ele><time>2026-07-28T00:21:43Z</time></trkpt>
<trkpt lat="35.187575" lon="-84.8247"><ele>271.6</ele><time>2026-07-28T00:21:45Z</time></trkpt>
<trkpt lat="35.187585" lon="-84.824734"><ele>271.9</ele><time>2026-07-28T00:21:47Z</time></trkpt>
<trkpt lat="35.187597" lon="-84.824768"><ele>272.2</ele><time>2026-07-28T00:21:49Z</time></trkpt>
<trkpt lat="35.187607" lon="-84.824802"><ele>272.2</ele><time>2026-07-28T00:21:51Z</time></trkpt>
<trkpt lat="35.187616" lon="-84.824835"><ele>272.8</ele><time>2026-07-28T00:21:53Z</time></trkpt>
<trkpt lat="35.187631" lon="-84.824881"><ele>273.1</ele><time>2026-07-28T00:21:56Z</time></trkpt>
<trkpt lat="35.187648" lon="-84.824924"><ele>272.8</ele><time>2026-07-28T00:21:59Z</time></trkpt>
<trkpt lat="35.187659" lon="-84.824956"><ele>272.5</ele><time>2026-07-28T00:22:01Z</time></trkpt>
<trkpt lat="35.18767" lon="-84.825003"><ele>272.5</ele><time>2026-07-28T00:22:04Z</time></trkpt>
<trkpt lat="35.187684" lon="-84.825049"><ele>271.9</ele><time>2026-07-28T00:22:07Z</time></trkpt>
<trkpt lat="35.187696" lon="-84.825082"><ele>272.2</ele><time>2026-07-28T00:22:09Z</time></trkpt>
<trkpt lat="35.187706" lon="-84.825115"><ele>271.9</ele><time>2026-07-28T00:22:11Z</time></trkpt>
<trkpt lat="35.187719" lon="-84.82515"><ele>271.6</ele><time>2026-07-28T00:22:13Z</time></trkpt>
<trkpt lat="35.187734" lon="-84.825187"><ele>271.3</ele><time>2026-07-28T00:22:15Z</time></trkpt>
<trkpt lat="35.187749" lon="-84.825222"><ele>270.7</ele><time>2026-07-28T00:22:17Z</time></trkpt>
<trkpt lat="35.187764" lon="-84.825253"><ele>270.7</ele><time>2026-07-28T00:22:19Z</time></trkpt>
<trkpt lat="35.187779" lon="-84.825286"><ele>270.7</ele><time>2026-07-28T00:22:21Z</time></trkpt>
<trkpt lat="35.187793" lon="-84.825315"><ele>270.7</ele><time>2026-07-28T00:22:23Z</time></trkpt>
<trkpt lat="35.18782" lon="-84.825347"><ele>270.7</ele><time>2026-07-28T00:22:26Z</time></trkpt>
<trkpt lat="35.187855" lon="-84.825357"><ele>271.0</ele><time>2026-07-28T00:22:29Z</time></trkpt>
<trkpt lat="35.187892" lon="-84.825364"><ele>271.0</ele><time>2026-07-28T00:22:32Z</time></trkpt>
<trkpt lat="35.187931" lon="-84.825366"><ele>271.0</ele><time>2026-07-28T00:22:35Z</time></trkpt>
<trkpt lat="35.187959" lon="-84.825365"><ele>271.6</ele><time>2026-07-28T00:22:37Z</time></trkpt>
<trkpt lat="35.187986" lon="-84.825356"><ele>271.9</ele><time>2026-07-28T00:22:39Z</time></trkpt>
<trkpt lat="35.188013" lon="-84.825341"><ele>272.5</ele><time>2026-07-28T00:22:41Z</time></trkpt>
<trkpt lat="35.18804" lon="-84.825328"><ele>272.8</ele><time>2026-07-28T00:22:43Z</time></trkpt>
<trkpt lat="35.188067" lon="-84.825315"><ele>273.1</ele><time>2026-07-28T00:22:45Z</time></trkpt>
<trkpt lat="35.188094" lon="-84.825305"><ele>273.1</ele><time>2026-07-28T00:22:47Z</time></trkpt>
<trkpt lat="35.188127" lon="-84.825292"><ele>272.8</ele><time>2026-07-28T00:22:50Z</time></trkpt>
<trkpt lat="35.188165" lon="-84.825276"><ele>272.5</ele><time>2026-07-28T00:22:53Z</time></trkpt>
<trkpt lat="35.188203" lon="-84.825264"><ele>272.8</ele><time>2026-07-28T00:22:56Z</time></trkpt>
<trkpt lat="35.188242" lon="-84.825245"><ele>273.1</ele><time>2026-07-28T00:22:59Z</time></trkpt>
<trkpt lat="35.188272" lon="-84.82523"><ele>273.4</ele><time>2026-07-28T00:23:01Z</time></trkpt>
<trkpt lat="35.188301" lon="-84.82522"><ele>273.4</ele><time>2026-07-28T00:23:03Z</time></trkpt>
<trkpt lat="35.18833" lon="-84.825208"><ele>273.4</ele><time>2026-07-28T00:23:05Z</time></trkpt>
<trkpt lat="35.188357" lon="-84.825195"><ele>273.7</ele><time>2026-07-28T00:23:07Z</time></trkpt>
<trkpt lat="35.188392" lon="-84.825176"><ele>273.7</ele><time>2026-07-28T00:23:10Z</time></trkpt>
<trkpt lat="35.188426" lon="-84.825159"><ele>273.4</ele><time>2026-07-28T00:23:13Z</time></trkpt>
<trkpt lat="35.188462" lon="-84.825143"><ele>273.4</ele><time>2026-07-28T00:23:16Z</time></trkpt>
<trkpt lat="35.188489" lon="-84.825133"><ele>273.1</ele><time>2026-07-28T00:23:18Z</time></trkpt>
<trkpt lat="35.188516" lon="-84.82512"><ele>273.4</ele><time>2026-07-28T00:23:20Z</time></trkpt>
<trkpt lat="35.188544" lon="-84.825107"><ele>273.1</ele><time>2026-07-28T00:23:22Z</time></trkpt>
<trkpt lat="35.18857" lon="-84.825094"><ele>273.4</ele><time>2026-07-28T00:23:24Z</time></trkpt>
<trkpt lat="35.188599" lon="-84.825083"><ele>273.4</ele><time>2026-07-28T00:23:26Z</time></trkpt>
<trkpt lat="35.18863" lon="-84.825084"><ele>273.1</ele><time>2026-07-28T00:23:28Z</time></trkpt>
<trkpt lat="35.188659" lon="-84.825093"><ele>273.4</ele><time>2026-07-28T00:23:30Z</time></trkpt>
<trkpt lat="35.188693" lon="-84.825119"><ele>273.7</ele><time>2026-07-28T00:23:33Z</time></trkpt>
<trkpt lat="35.188712" lon="-84.825143"><ele>273.7</ele><time>2026-07-28T00:23:35Z</time></trkpt>
<trkpt lat="35.188727" lon="-84.825174"><ele>273.4</ele><time>2026-07-28T00:23:37Z</time></trkpt>
<trkpt lat="35.188738" lon="-84.825205"><ele>273.4</ele><time>2026-07-28T00:23:39Z</time></trkpt>
<trkpt lat="35.188755" lon="-84.825249"><ele>273.1</ele><time>2026-07-28T00:23:42Z</time></trkpt>
<trkpt lat="35.188767" lon="-84.825282"><ele>273.1</ele><time>2026-07-28T00:23:44Z</time></trkpt>
<trkpt lat="35.188778" lon="-84.825316"><ele>273.1</ele><time>2026-07-28T00:23:46Z</time></trkpt>
<trkpt lat="35.18879" lon="-84.82535"><ele>273.1</ele><time>2026-07-28T00:23:48Z</time></trkpt>
<trkpt lat="35.188806" lon="-84.825386"><ele>273.4</ele><time>2026-07-28T00:23:50Z</time></trkpt>
<trkpt lat="35.18881" lon="-84.825423"><ele>273.1</ele><time>2026-07-28T00:23:52Z</time></trkpt>
<trkpt lat="35.188817" lon="-84.825458"><ele>273.1</ele><time>2026-07-28T00:23:54Z</time></trkpt>
<trkpt lat="35.188828" lon="-84.82549"><ele>272.2</ele><time>2026-07-28T00:23:56Z</time></trkpt>
<trkpt lat="35.188853" lon="-84.825528"><ele>271.3</ele><time>2026-07-28T00:23:59Z</time></trkpt>
<trkpt lat="35.188892" lon="-84.82551"><ele>271.0</ele><time>2026-07-28T00:24:02Z</time></trkpt>
<trkpt lat="35.188914" lon="-84.825488"><ele>271.3</ele><time>2026-07-28T00:24:04Z</time></trkpt>
<trkpt lat="35.188943" lon="-84.82547"><ele>271.6</ele><time>2026-07-28T00:24:06Z</time></trkpt>
<trkpt lat="35.18897" lon="-84.825456"><ele>271.6</ele><time>2026-07-28T00:24:08Z</time></trkpt>
<trkpt lat="35.188994" lon="-84.825436"><ele>271.9</ele><time>2026-07-28T00:24:10Z</time></trkpt>
<trkpt lat="35.18902" lon="-84.82542"><ele>272.2</ele><time>2026-07-28T00:24:12Z</time></trkpt>
<trkpt lat="35.189047" lon="-84.825409"><ele>272.5</ele><time>2026-07-28T00:24:14Z</time></trkpt>
<trkpt lat="35.189066" lon="-84.825384"><ele>272.8</ele><time>2026-07-28T00:24:16Z</time></trkpt>
<trkpt lat="35.189074" lon="-84.825351"><ele>272.2</ele><time>2026-07-28T00:24:18Z</time></trkpt>
<trkpt lat="35.189076" lon="-84.825316"><ele>272.5</ele><time>2026-07-28T00:24:20Z</time></trkpt>
<trkpt lat="35.189077" lon="-84.825281"><ele>271.9</ele><time>2026-07-28T00:24:22Z</time></trkpt>
<trkpt lat="35.189081" lon="-84.825243"><ele>271.6</ele><time>2026-07-28T00:24:24Z</time></trkpt>
<trkpt lat="35.189087" lon="-84.825207"><ele>271.6</ele><time>2026-07-28T00:24:26Z</time></trkpt>
<trkpt lat="35.189088" lon="-84.825172"><ele>271.6</ele><time>2026-07-28T00:24:28Z</time></trkpt>
<trkpt lat="35.189093" lon="-84.825139"><ele>271.6</ele><time>2026-07-28T00:24:30Z</time></trkpt>
<trkpt lat="35.189098" lon="-84.82509"><ele>271.3</ele><time>2026-07-28T00:24:33Z</time></trkpt>
<trkpt lat="35.189106" lon="-84.825042"><ele>271.3</ele><time>2026-07-28T00:24:36Z</time></trkpt>
<trkpt lat="35.189114" lon="-84.824996"><ele>271.3</ele><time>2026-07-28T00:24:39Z</time></trkpt>
<trkpt lat="35.189122" lon="-84.824964"><ele>271.3</ele><time>2026-07-28T00:24:41Z</time></trkpt>
<trkpt lat="35.18913" lon="-84.824929"><ele>271.6</ele><time>2026-07-28T00:24:43Z</time></trkpt>
<trkpt lat="35.189135" lon="-84.824894"><ele>271.6</ele><time>2026-07-28T00:24:45Z</time></trkpt>
<trkpt lat="35.189145" lon="-84.824848"><ele>272.2</ele><time>2026-07-28T00:24:48Z</time></trkpt>
<trkpt lat="35.189177" lon="-84.824878"><ele>272.8</ele><time>2026-07-28T00:24:50Z</time></trkpt>
<trkpt lat="35.189167" lon="-84.82492"><ele>272.8</ele><time>2026-07-28T00:24:52Z</time></trkpt>
<trkpt lat="35.189157" lon="-84.824956"><ele>272.5</ele><time>2026-07-28T00:24:54Z</time></trkpt>
<trkpt lat="35.189144" lon="-84.82499"><ele>272.8</ele><time>2026-07-28T00:24:56Z</time></trkpt>
<trkpt lat="35.189131" lon="-84.825024"><ele>272.2</ele><time>2026-07-28T00:24:58Z</time></trkpt>
<trkpt lat="35.189119" lon="-84.825054"><ele>271.9</ele><time>2026-07-28T00:25:00Z</time></trkpt>
<trkpt lat="35.189108" lon="-84.825102"><ele>271.9</ele><time>2026-07-28T00:25:03Z</time></trkpt>
<trkpt lat="35.189101" lon="-84.825149"><ele>271.3</ele><time>2026-07-28T00:25:06Z</time></trkpt>
<trkpt lat="35.189098" lon="-84.825183"><ele>271.6</ele><time>2026-07-28T00:25:08Z</time></trkpt>
<trkpt lat="35.189094" lon="-84.825217"><ele>271.0</ele><time>2026-07-28T00:25:10Z</time></trkpt>
<trkpt lat="35.189094" lon="-84.825266"><ele>271.0</ele><time>2026-07-28T00:25:13Z</time></trkpt>
<trkpt lat="35.189089" lon="-84.825308"><ele>271.6</ele><time>2026-07-28T00:25:16Z</time></trkpt>
<trkpt lat="35.189085" lon="-84.825347"><ele>271.3</ele><time>2026-07-28T00:25:19Z</time></trkpt>
<trkpt lat="35.189073" lon="-84.825395"><ele>271.9</ele><time>2026-07-28T00:25:22Z</time></trkpt>
<trkpt lat="35.189052" lon="-84.825422"><ele>271.9</ele><time>2026-07-28T00:25:24Z</time></trkpt>
<trkpt lat="35.189029" lon="-84.825447"><ele>272.2</ele><time>2026-07-28T00:25:26Z</time></trkpt>
<trkpt lat="35.189001" lon="-84.825462"><ele>272.2</ele><time>2026-07-28T00:25:28Z</time></trkpt>
<trkpt lat="35.18897" lon="-84.825476"><ele>272.8</ele><time>2026-07-28T00:25:30Z</time></trkpt>
<trkpt lat="35.188942" lon="-84.825488"><ele>272.5</ele><time>2026-07-28T00:25:32Z</time></trkpt>
<trkpt lat="35.188914" lon="-84.825504"><ele>272.8</ele><time>2026-07-28T00:25:34Z</time></trkpt>
<trkpt lat="35.188886" lon="-84.82552"><ele>272.8</ele><time>2026-07-28T00:25:36Z</time></trkpt>
<trkpt lat="35.188854" lon="-84.825532"><ele>272.8</ele><time>2026-07-28T00:25:38Z</time></trkpt>
<trkpt lat="35.188827" lon="-84.825514"><ele>272.8</ele><time>2026-07-28T00:25:40Z</time></trkpt>
<trkpt lat="35.188813" lon="-84.825479"><ele>272.8</ele><time>2026-07-28T00:25:42Z</time></trkpt>
<trkpt lat="35.188802" lon="-84.825443"><ele>272.8</ele><time>2026-07-28T00:25:44Z</time></trkpt>
<trkpt lat="35.18879" lon="-84.825408"><ele>273.1</ele><time>2026-07-28T00:25:46Z</time></trkpt>
<trkpt lat="35.188781" lon="-84.825373"><ele>272.8</ele><time>2026-07-28T00:25:48Z</time></trkpt>
<trkpt lat="35.188772" lon="-84.825336"><ele>272.5</ele><time>2026-07-28T00:25:50Z</time></trkpt>
<trkpt lat="35.188759" lon="-84.825301"><ele>272.5</ele><time>2026-07-28T00:25:52Z</time></trkpt>
<trkpt lat="35.188748" lon="-84.825267"><ele>272.2</ele><time>2026-07-28T00:25:54Z</time></trkpt>
<trkpt lat="35.188737" lon="-84.825234"><ele>272.5</ele><time>2026-07-28T00:25:56Z</time></trkpt>
<trkpt lat="35.188716" lon="-84.825192"><ele>272.5</ele><time>2026-07-28T00:25:59Z</time></trkpt>
<trkpt lat="35.188696" lon="-84.825155"><ele>272.2</ele><time>2026-07-28T00:26:02Z</time></trkpt>
<trkpt lat="35.188663" lon="-84.825124"><ele>272.2</ele><time>2026-07-28T00:26:05Z</time></trkpt>
<trkpt lat="35.188636" lon="-84.825115"><ele>272.5</ele><time>2026-07-28T00:26:07Z</time></trkpt>
<trkpt lat="35.188606" lon="-84.825118"><ele>272.5</ele><time>2026-07-28T00:26:09Z</time></trkpt>
<trkpt lat="35.188577" lon="-84.825128"><ele>272.2</ele><time>2026-07-28T00:26:11Z</time></trkpt>
<trkpt lat="35.188537" lon="-84.82514"><ele>272.8</ele><time>2026-07-28T00:26:14Z</time></trkpt>
<trkpt lat="35.188509" lon="-84.825127"><ele>272.5</ele><time>2026-07-28T00:26:16Z</time></trkpt>
<trkpt lat="35.188494" lon="-84.825091"><ele>272.5</ele><time>2026-07-28T00:26:18Z</time></trkpt>
<trkpt lat="35.188483" lon="-84.825056"><ele>272.8</ele><time>2026-07-28T00:26:20Z</time></trkpt>
<trkpt lat="35.188474" lon="-84.82502"><ele>272.5</ele><time>2026-07-28T00:26:22Z</time></trkpt>
<trkpt lat="35.188464" lon="-84.824985"><ele>272.5</ele><time>2026-07-28T00:26:24Z</time></trkpt>
<trkpt lat="35.188453" lon="-84.82495"><ele>272.5</ele><time>2026-07-28T00:26:26Z</time></trkpt>
<trkpt lat="35.188443" lon="-84.824913"><ele>272.8</ele><time>2026-07-28T00:26:28Z</time></trkpt>
<trkpt lat="35.188435" lon="-84.82488"><ele>272.8</ele><time>2026-07-28T00:26:30Z</time></trkpt>
<trkpt lat="35.188425" lon="-84.824836"><ele>272.5</ele><time>2026-07-28T00:26:33Z</time></trkpt>
<trkpt lat="35.188412" lon="-84.824792"><ele>272.2</ele><time>2026-07-28T00:26:36Z</time></trkpt>
<trkpt lat="35.188397" lon="-84.824745"><ele>272.2</ele><time>2026-07-28T00:26:39Z</time></trkpt>
<trkpt lat="35.188388" lon="-84.824713"><ele>272.2</ele><time>2026-07-28T00:26:41Z</time></trkpt>
<trkpt lat="35.188378" lon="-84.824678"><ele>272.5</ele><time>2026-07-28T00:26:43Z</time></trkpt>
<trkpt lat="35.188365" lon="-84.824646"><ele>272.2</ele><time>2026-07-28T00:26:45Z</time></trkpt>
<trkpt lat="35.188351" lon="-84.824613"><ele>272.2</ele><time>2026-07-28T00:26:47Z</time></trkpt>
<trkpt lat="35.188341" lon="-84.824581"><ele>271.9</ele><time>2026-07-28T00:26:49Z</time></trkpt>
<trkpt lat="35.188332" lon="-84.824546"><ele>271.9</ele><time>2026-07-28T00:26:51Z</time></trkpt>
<trkpt lat="35.18832" lon="-84.824511"><ele>271.6</ele><time>2026-07-28T00:26:53Z</time></trkpt>
<trkpt lat="35.188309" lon="-84.824478"><ele>271.0</ele><time>2026-07-28T00:26:55Z</time></trkpt>
<trkpt lat="35.188306" lon="-84.824444"><ele>271.3</ele><time>2026-07-28T00:26:57Z</time></trkpt>
<trkpt lat="35.188302" lon="-84.824409"><ele>271.6</ele><time>2026-07-28T00:26:59Z</time></trkpt>
<trkpt lat="35.188294" lon="-84.824372"><ele>271.9</ele><time>2026-07-28T00:27:01Z</time></trkpt>
<trkpt lat="35.188281" lon="-84.824338"><ele>271.9</ele><time>2026-07-28T00:27:03Z</time></trkpt>
<trkpt lat="35.18827" lon="-84.8243"><ele>272.2</ele><time>2026-07-28T00:27:05Z</time></trkpt>
<trkpt lat="35.188259" lon="-84.824263"><ele>271.9</ele><time>2026-07-28T00:27:07Z</time></trkpt>
<trkpt lat="35.18825" lon="-84.824226"><ele>271.9</ele><time>2026-07-28T00:27:09Z</time></trkpt>
<trkpt lat="35.18824" lon="-84.824189"><ele>271.9</ele><time>2026-07-28T00:27:11Z</time></trkpt>
<trkpt lat="35.188229" lon="-84.824155"><ele>271.6</ele><time>2026-07-28T00:27:13Z</time></trkpt>
<trkpt lat="35.188216" lon="-84.824122"><ele>271.6</ele><time>2026-07-28T00:27:15Z</time></trkpt>
<trkpt lat="35.188204" lon="-84.824088"><ele>271.6</ele><time>2026-07-28T00:27:17Z</time></trkpt>
<trkpt lat="35.18819" lon="-84.824055"><ele>271.3</ele><time>2026-07-28T00:27:19Z</time></trkpt>
<trkpt lat="35.188176" lon="-84.824018"><ele>271.3</ele><time>2026-07-28T00:27:21Z</time></trkpt>
<trkpt lat="35.188163" lon="-84.823985"><ele>271.3</ele><time>2026-07-28T00:27:23Z</time></trkpt>
<trkpt lat="35.188155" lon="-84.823953"><ele>271.6</ele><time>2026-07-28T00:27:25Z</time></trkpt>
<trkpt lat="35.188145" lon="-84.823905"><ele>271.9</ele><time>2026-07-28T00:27:28Z</time></trkpt>
<trkpt lat="35.188135" lon="-84.823861"><ele>272.2</ele><time>2026-07-28T00:27:31Z</time></trkpt>
<trkpt lat="35.188126" lon="-84.823812"><ele>272.5</ele><time>2026-07-28T00:27:34Z</time></trkpt>
<trkpt lat="35.188114" lon="-84.823766"><ele>272.8</ele><time>2026-07-28T00:27:37Z</time></trkpt>
<trkpt lat="35.188107" lon="-84.823732"><ele>272.8</ele><time>2026-07-28T00:27:39Z</time></trkpt>
<trkpt lat="35.188096" lon="-84.823698"><ele>272.8</ele><time>2026-07-28T00:27:41Z</time></trkpt>
<trkpt lat="35.188084" lon="-84.823666"><ele>272.5</ele><time>2026-07-28T00:27:43Z</time></trkpt>
<trkpt lat="35.188071" lon="-84.823634"><ele>272.5</ele><time>2026-07-28T00:27:45Z</time></trkpt>
<trkpt lat="35.188059" lon="-84.823598"><ele>272.2</ele><time>2026-07-28T00:27:47Z</time></trkpt>
<trkpt lat="35.188049" lon="-84.82356"><ele>272.2</ele><time>2026-07-28T00:27:49Z</time></trkpt>
<trkpt lat="35.18804" lon="-84.823523"><ele>272.2</ele><time>2026-07-28T00:27:51Z</time></trkpt>
<trkpt lat="35.188029" lon="-84.823485"><ele>272.2</ele><time>2026-07-28T00:27:53Z</time></trkpt>
<trkpt lat="35.188022" lon="-84.823449"><ele>272.2</ele><time>2026-07-28T00:27:55Z</time></trkpt>
<trkpt lat="35.188011" lon="-84.823414"><ele>271.9</ele><time>2026-07-28T00:27:57Z</time></trkpt>
<trkpt lat="35.188" lon="-84.823376"><ele>271.9</ele><time>2026-07-28T00:27:59Z</time></trkpt>
<trkpt lat="35.187989" lon="-84.823344"><ele>272.5</ele><time>2026-07-28T00:28:01Z</time></trkpt>
<trkpt lat="35.187981" lon="-84.823311"><ele>272.5</ele><time>2026-07-28T00:28:03Z</time></trkpt>
<trkpt lat="35.187972" lon="-84.823267"><ele>271.6</ele><time>2026-07-28T00:28:06Z</time></trkpt>
<trkpt lat="35.187963" lon="-84.823234"><ele>271.6</ele><time>2026-07-28T00:28:08Z</time></trkpt>
<trkpt lat="35.187953" lon="-84.823199"><ele>271.3</ele><time>2026-07-28T00:28:10Z</time></trkpt>
<trkpt lat="35.187945" lon="-84.823161"><ele>271.3</ele><time>2026-07-28T00:28:12Z</time></trkpt>
<trkpt lat="35.187937" lon="-84.823124"><ele>270.7</ele><time>2026-07-28T00:28:14Z</time></trkpt>
<trkpt lat="35.187928" lon="-84.823089"><ele>270.4</ele><time>2026-07-28T00:28:16Z</time></trkpt>
<trkpt lat="35.187916" lon="-84.823054"><ele>270.1</ele><time>2026-07-28T00:28:18Z</time></trkpt>
<trkpt lat="35.187909" lon="-84.823019"><ele>270.1</ele><time>2026-07-28T00:28:20Z</time></trkpt>
<trkpt lat="35.187914" lon="-84.822981"><ele>271.0</ele><time>2026-07-28T00:28:22Z</time></trkpt>
<trkpt lat="35.187945" lon="-84.822966"><ele>271.3</ele><time>2026-07-28T00:28:24Z</time></trkpt>
<trkpt lat="35.187977" lon="-84.82296"><ele>271.6</ele><time>2026-07-28T00:28:26Z</time></trkpt>
<trkpt lat="35.188009" lon="-84.822956"><ele>271.6</ele><time>2026-07-28T00:28:28Z</time></trkpt>
<trkpt lat="35.188041" lon="-84.822952"><ele>271.3</ele><time>2026-07-28T00:28:30Z</time></trkpt>
<trkpt lat="35.18807" lon="-84.822944"><ele>271.3</ele><time>2026-07-28T00:28:32Z</time></trkpt>
<trkpt lat="35.188098" lon="-84.822932"><ele>271.0</ele><time>2026-07-28T00:28:34Z</time></trkpt>
<trkpt lat="35.188126" lon="-84.82292"><ele>270.7</ele><time>2026-07-28T00:28:36Z</time></trkpt>
<trkpt lat="35.188155" lon="-84.822913"><ele>270.7</ele><time>2026-07-28T00:28:38Z</time></trkpt>
<trkpt lat="35.188184" lon="-84.822907"><ele>270.4</ele><time>2026-07-28T00:28:40Z</time></trkpt>
<trkpt lat="35.188213" lon="-84.822901"><ele>270.7</ele><time>2026-07-28T00:28:42Z</time></trkpt>
<trkpt lat="35.188239" lon="-84.822889"><ele>271.3</ele><time>2026-07-28T00:28:44Z</time></trkpt>
<trkpt lat="35.188267" lon="-84.82288"><ele>271.3</ele><time>2026-07-28T00:28:46Z</time></trkpt>
<trkpt lat="35.188307" lon="-84.822863"><ele>271.3</ele><time>2026-07-28T00:28:49Z</time></trkpt>
<trkpt lat="35.188336" lon="-84.822852"><ele>271.0</ele><time>2026-07-28T00:28:51Z</time></trkpt>
<trkpt lat="35.188363" lon="-84.822844"><ele>271.0</ele><time>2026-07-28T00:28:53Z</time></trkpt>
<trkpt lat="35.18839" lon="-84.822835"><ele>271.6</ele><time>2026-07-28T00:28:55Z</time></trkpt>
<trkpt lat="35.188418" lon="-84.822824"><ele>270.7</ele><time>2026-07-28T00:28:57Z</time></trkpt>
<trkpt lat="35.188447" lon="-84.822821"><ele>269.4</ele><time>2026-07-28T00:28:59Z</time></trkpt>
<trkpt lat="35.188478" lon="-84.822825"><ele>269.1</ele><time>2026-07-28T00:29:01Z</time></trkpt>
<trkpt lat="35.188508" lon="-84.822835"><ele>268.8</ele><time>2026-07-28T00:29:03Z</time></trkpt>
<trkpt lat="35.188537" lon="-84.822849"><ele>268.2</ele><time>2026-07-28T00:29:05Z</time></trkpt>
<trkpt lat="35.188567" lon="-84.82286"><ele>267.6</ele><time>2026-07-28T00:29:07Z</time></trkpt>
<trkpt lat="35.188595" lon="-84.822875"><ele>267.9</ele><time>2026-07-28T00:29:09Z</time></trkpt>
<trkpt lat="35.188622" lon="-84.822889"><ele>267.9</ele><time>2026-07-28T00:29:11Z</time></trkpt>
<trkpt lat="35.188652" lon="-84.822896"><ele>267.3</ele><time>2026-07-28T00:29:13Z</time></trkpt>
<trkpt lat="35.188684" lon="-84.822904"><ele>267.0</ele><time>2026-07-28T00:29:15Z</time></trkpt>
<trkpt lat="35.188715" lon="-84.822907"><ele>266.7</ele><time>2026-07-28T00:29:17Z</time></trkpt>
<trkpt lat="35.188745" lon="-84.822909"><ele>266.7</ele><time>2026-07-28T00:29:19Z</time></trkpt>
<trkpt lat="35.188774" lon="-84.822903"><ele>267.0</ele><time>2026-07-28T00:29:21Z</time></trkpt>
<trkpt lat="35.188801" lon="-84.822892"><ele>267.0</ele><time>2026-07-28T00:29:23Z</time></trkpt>
<trkpt lat="35.188828" lon="-84.822883"><ele>267.3</ele><time>2026-07-28T00:29:25Z</time></trkpt>
<trkpt lat="35.188857" lon="-84.822874"><ele>267.6</ele><time>2026-07-28T00:29:27Z</time></trkpt>
<trkpt lat="35.188884" lon="-84.822864"><ele>267.3</ele><time>2026-07-28T00:29:29Z</time></trkpt>
<trkpt lat="35.188913" lon="-84.822859"><ele>267.3</ele><time>2026-07-28T00:29:31Z</time></trkpt>
<trkpt lat="35.188944" lon="-84.822858"><ele>267.3</ele><time>2026-07-28T00:29:33Z</time></trkpt>
<trkpt lat="35.188974" lon="-84.822857"><ele>267.3</ele><time>2026-07-28T00:29:35Z</time></trkpt>
<trkpt lat="35.189003" lon="-84.822853"><ele>267.9</ele><time>2026-07-28T00:29:37Z</time></trkpt>
<trkpt lat="35.189033" lon="-84.822848"><ele>268.2</ele><time>2026-07-28T00:29:39Z</time></trkpt>
<trkpt lat="35.189063" lon="-84.822842"><ele>267.6</ele><time>2026-07-28T00:29:41Z</time></trkpt>
<trkpt lat="35.189093" lon="-84.822835"><ele>267.6</ele><time>2026-07-28T00:29:43Z</time></trkpt>
<trkpt lat="35.189121" lon="-84.822826"><ele>268.5</ele><time>2026-07-28T00:29:45Z</time></trkpt>
<trkpt lat="35.189151" lon="-84.822817"><ele>268.2</ele><time>2026-07-28T00:29:47Z</time></trkpt>
<trkpt lat="35.189182" lon="-84.822807"><ele>268.2</ele><time>2026-07-28T00:29:49Z</time></trkpt>
<trkpt lat="35.189209" lon="-84.822798"><ele>268.2</ele><time>2026-07-28T00:29:51Z</time></trkpt>
<trkpt lat="35.18924" lon="-84.822789"><ele>268.5</ele><time>2026-07-28T00:29:53Z</time></trkpt>
<trkpt lat="35.189268" lon="-84.82278"><ele>268.8</ele><time>2026-07-28T00:29:55Z</time></trkpt>
<trkpt lat="35.189309" lon="-84.822774"><ele>268.8</ele><time>2026-07-28T00:29:58Z</time></trkpt>
<trkpt lat="35.189348" lon="-84.822762"><ele>268.8</ele><time>2026-07-28T00:30:01Z</time></trkpt>
<trkpt lat="35.189376" lon="-84.822757"><ele>267.0</ele><time>2026-07-28T00:30:03Z</time></trkpt>
<trkpt lat="35.189406" lon="-84.82276"><ele>268.2</ele><time>2026-07-28T00:30:05Z</time></trkpt>
<trkpt lat="35.189436" lon="-84.822765"><ele>268.5</ele><time>2026-07-28T00:30:07Z</time></trkpt>
<trkpt lat="35.189466" lon="-84.822777"><ele>267.3</ele><time>2026-07-28T00:30:09Z</time></trkpt>
<trkpt lat="35.189488" lon="-84.822809"><ele>268.5</ele><time>2026-07-28T00:30:11Z</time></trkpt>
<trkpt lat="35.189496" lon="-84.822849"><ele>268.5</ele><time>2026-07-28T00:30:13Z</time></trkpt>
<trkpt lat="35.189503" lon="-84.822885"><ele>268.8</ele><time>2026-07-28T00:30:15Z</time></trkpt>
<trkpt lat="35.189506" lon="-84.822922"><ele>269.1</ele><time>2026-07-28T00:30:17Z</time></trkpt>
<trkpt lat="35.189508" lon="-84.82296"><ele>267.9</ele><time>2026-07-28T00:30:19Z</time></trkpt>
<trkpt lat="35.189514" lon="-84.822999"><ele>268.5</ele><time>2026-07-28T00:30:21Z</time></trkpt>
<trkpt lat="35.189511" lon="-84.823034"><ele>268.8</ele><time>2026-07-28T00:30:23Z</time></trkpt>
<trkpt lat="35.189511" lon="-84.823068"><ele>269.4</ele><time>2026-07-28T00:30:25Z</time></trkpt>
<trkpt lat="35.189514" lon="-84.823103"><ele>269.1</ele><time>2026-07-28T00:30:27Z</time></trkpt>
<trkpt lat="35.189523" lon="-84.823137"><ele>268.2</ele><time>2026-07-28T00:30:29Z</time></trkpt>
<trkpt lat="35.189531" lon="-84.823174"><ele>267.9</ele><time>2026-07-28T00:30:31Z</time></trkpt>
<trkpt lat="35.189539" lon="-84.823212"><ele>267.0</ele><time>2026-07-28T00:30:33Z</time></trkpt>
<trkpt lat="35.189542" lon="-84.823245"><ele>267.3</ele><time>2026-07-28T00:30:35Z</time></trkpt>
<trkpt lat="35.189548" lon="-84.823282"><ele>266.7</ele><time>2026-07-28T00:30:37Z</time></trkpt>
<trkpt lat="35.189551" lon="-84.82332"><ele>266.4</ele><time>2026-07-28T00:30:39Z</time></trkpt>
<trkpt lat="35.189554" lon="-84.823357"><ele>266.4</ele><time>2026-07-28T00:30:41Z</time></trkpt>
<trkpt lat="35.18956" lon="-84.823392"><ele>266.7</ele><time>2026-07-28T00:30:43Z</time></trkpt>
<trkpt lat="35.189566" lon="-84.823425"><ele>267.3</ele><time>2026-07-28T00:30:45Z</time></trkpt>
<trkpt lat="35.189568" lon="-84.82346"><ele>267.3</ele><time>2026-07-28T00:30:47Z</time></trkpt>
<trkpt lat="35.189573" lon="-84.823496"><ele>266.4</ele><time>2026-07-28T00:30:49Z</time></trkpt>
<trkpt lat="35.189575" lon="-84.82353"><ele>267.3</ele><time>2026-07-28T00:30:51Z</time></trkpt>
<trkpt lat="35.18958" lon="-84.823581"><ele>267.9</ele><time>2026-07-28T00:30:54Z</time></trkpt>
<trkpt lat="35.189581" lon="-84.823615"><ele>268.2</ele><time>2026-07-28T00:30:56Z</time></trkpt>
<trkpt lat="35.189582" lon="-84.82365"><ele>268.5</ele><time>2026-07-28T00:30:58Z</time></trkpt>
<trkpt lat="35.189586" lon="-84.823699"><ele>268.8</ele><time>2026-07-28T00:31:01Z</time></trkpt>
<trkpt lat="35.189593" lon="-84.823733"><ele>269.1</ele><time>2026-07-28T00:31:03Z</time></trkpt>
<trkpt lat="35.189598" lon="-84.823768"><ele>268.8</ele><time>2026-07-28T00:31:05Z</time></trkpt>
<trkpt lat="35.189603" lon="-84.823803"><ele>268.2</ele><time>2026-07-28T00:31:07Z</time></trkpt>
<trkpt lat="35.189608" lon="-84.823837"><ele>267.9</ele><time>2026-07-28T00:31:09Z</time></trkpt>
<trkpt lat="35.189613" lon="-84.823872"><ele>267.6</ele><time>2026-07-28T00:31:11Z</time></trkpt>
<trkpt lat="35.189617" lon="-84.823906"><ele>267.6</ele><time>2026-07-28T00:31:13Z</time></trkpt>
<trkpt lat="35.189622" lon="-84.823941"><ele>268.2</ele><time>2026-07-28T00:31:15Z</time></trkpt>
<trkpt lat="35.189624" lon="-84.823978"><ele>267.6</ele><time>2026-07-28T00:31:17Z</time></trkpt>
<trkpt lat="35.189626" lon="-84.824012"><ele>267.6</ele><time>2026-07-28T00:31:19Z</time></trkpt>
<trkpt lat="35.189632" lon="-84.824048"><ele>267.6</ele><time>2026-07-28T00:31:21Z</time></trkpt>
<trkpt lat="35.18964" lon="-84.824081"><ele>267.3</ele><time>2026-07-28T00:31:23Z</time></trkpt>
<trkpt lat="35.189645" lon="-84.824116"><ele>267.3</ele><time>2026-07-28T00:31:25Z</time></trkpt>
<trkpt lat="35.189647" lon="-84.824165"><ele>267.6</ele><time>2026-07-28T00:31:28Z</time></trkpt>
<trkpt lat="35.189644" lon="-84.8242"><ele>267.6</ele><time>2026-07-28T00:31:30Z</time></trkpt>
<trkpt lat="35.189635" lon="-84.824236"><ele>267.6</ele><time>2026-07-28T00:31:32Z</time></trkpt>
<trkpt lat="35.189622" lon="-84.824269"><ele>267.6</ele><time>2026-07-28T00:31:34Z</time></trkpt>
<trkpt lat="35.189606" lon="-84.824301"><ele>268.2</ele><time>2026-07-28T00:31:36Z</time></trkpt>
<trkpt lat="35.189589" lon="-84.824331"><ele>268.2</ele><time>2026-07-28T00:31:38Z</time></trkpt>
<trkpt lat="35.189568" lon="-84.824358"><ele>268.8</ele><time>2026-07-28T00:31:40Z</time></trkpt>
<trkpt lat="35.189543" lon="-84.824382"><ele>269.1</ele><time>2026-07-28T00:31:42Z</time></trkpt>
<trkpt lat="35.189514" lon="-84.824402"><ele>269.1</ele><time>2026-07-28T00:31:44Z</time></trkpt>
<trkpt lat="35.189482" lon="-84.824413"><ele>268.8</ele><time>2026-07-28T00:31:46Z</time></trkpt>
<trkpt lat="35.189451" lon="-84.824417"><ele>268.5</ele><time>2026-07-28T00:31:48Z</time></trkpt>
<trkpt lat="35.189421" lon="-84.824423"><ele>268.5</ele><time>2026-07-28T00:31:50Z</time></trkpt>
<trkpt lat="35.189393" lon="-84.824427"><ele>268.8</ele><time>2026-07-28T00:31:52Z</time></trkpt>
<trkpt lat="35.189352" lon="-84.82443"><ele>268.5</ele><time>2026-07-28T00:31:55Z</time></trkpt>
<trkpt lat="35.189311" lon="-84.824428"><ele>268.8</ele><time>2026-07-28T00:31:58Z</time></trkpt>
<trkpt lat="35.189283" lon="-84.824433"><ele>268.8</ele><time>2026-07-28T00:32:00Z</time></trkpt>
<trkpt lat="35.189255" lon="-84.824437"><ele>268.8</ele><time>2026-07-28T00:32:02Z</time></trkpt>
<trkpt lat="35.189228" lon="-84.824438"><ele>268.8</ele><time>2026-07-28T00:32:04Z</time></trkpt>
<trkpt lat="35.1892" lon="-84.824442"><ele>269.1</ele><time>2026-07-28T00:32:06Z</time></trkpt>
<trkpt lat="35.18917" lon="-84.824445"><ele>269.4</ele><time>2026-07-28T00:32:08Z</time></trkpt>
<trkpt lat="35.189141" lon="-84.824451"><ele>269.7</ele><time>2026-07-28T00:32:10Z</time></trkpt>
<trkpt lat="35.189112" lon="-84.824457"><ele>270.1</ele><time>2026-07-28T00:32:12Z</time></trkpt>
<trkpt lat="35.189087" lon="-84.824473"><ele>270.1</ele><time>2026-07-28T00:32:14Z</time></trkpt>
<trkpt lat="35.189075" lon="-84.824504"><ele>270.4</ele><time>2026-07-28T00:32:16Z</time></trkpt>
<trkpt lat="35.18908" lon="-84.82454"><ele>270.4</ele><time>2026-07-28T00:32:18Z</time></trkpt>
<trkpt lat="35.189091" lon="-84.824572"><ele>270.4</ele><time>2026-07-28T00:32:20Z</time></trkpt>
<trkpt lat="35.189099" lon="-84.824607"><ele>270.1</ele><time>2026-07-28T00:32:22Z</time></trkpt>
<trkpt lat="35.189102" lon="-84.824642"><ele>270.7</ele><time>2026-07-28T00:32:24Z</time></trkpt>
<trkpt lat="35.189106" lon="-84.824679"><ele>270.4</ele><time>2026-07-28T00:32:26Z</time></trkpt>
<trkpt lat="35.189112" lon="-84.824715"><ele>270.4</ele><time>2026-07-28T00:32:28Z</time></trkpt>
<trkpt lat="35.18912" lon="-84.824752"><ele>271.3</ele><time>2026-07-28T00:32:30Z</time></trkpt>
<trkpt lat="35.189127" lon="-84.824786"><ele>271.9</ele><time>2026-07-28T00:32:32Z</time></trkpt>
<trkpt lat="35.18913" lon="-84.824821"><ele>271.6</ele><time>2026-07-28T00:32:34Z</time></trkpt>
<trkpt lat="35.189135" lon="-84.824857"><ele>271.3</ele><time>2026-07-28T00:32:36Z</time></trkpt>
<trkpt lat="35.189136" lon="-84.824893"><ele>271.3</ele><time>2026-07-28T00:32:38Z</time></trkpt>
<trkpt lat="35.189133" lon="-84.824928"><ele>271.6</ele><time>2026-07-28T00:32:40Z</time></trkpt>
<trkpt lat="35.189127" lon="-84.824961"><ele>271.6</ele><time>2026-07-28T00:32:42Z</time></trkpt>
<trkpt lat="35.189114" lon="-84.825005"><ele>271.9</ele><time>2026-07-28T00:32:45Z</time></trkpt>
<trkpt lat="35.189103" lon="-84.825052"><ele>271.6</ele><time>2026-07-28T00:32:48Z</time></trkpt>
<trkpt lat="35.189095" lon="-84.825098"><ele>271.0</ele><time>2026-07-28T00:32:51Z</time></trkpt>
<trkpt lat="35.18909" lon="-84.825148"><ele>270.7</ele><time>2026-07-28T00:32:54Z</time></trkpt>
<trkpt lat="35.189088" lon="-84.825182"><ele>270.7</ele><time>2026-07-28T00:32:56Z</time></trkpt>
<trkpt lat="35.189086" lon="-84.825217"><ele>270.4</ele><time>2026-07-28T00:32:58Z</time></trkpt>
<trkpt lat="35.189085" lon="-84.825266"><ele>270.4</ele><time>2026-07-28T00:33:01Z</time></trkpt>
<trkpt lat="35.189082" lon="-84.825303"><ele>270.1</ele><time>2026-07-28T00:33:03Z</time></trkpt>
<trkpt lat="35.189081" lon="-84.825339"><ele>270.1</ele><time>2026-07-28T00:33:05Z</time></trkpt>
<trkpt lat="35.189077" lon="-84.825376"><ele>269.7</ele><time>2026-07-28T00:33:07Z</time></trkpt>
<trkpt lat="35.189069" lon="-84.825411"><ele>270.1</ele><time>2026-07-28T00:33:09Z</time></trkpt>
<trkpt lat="35.189046" lon="-84.825436"><ele>270.4</ele><time>2026-07-28T00:33:11Z</time></trkpt>
<trkpt lat="35.189015" lon="-84.825447"><ele>271.0</ele><time>2026-07-28T00:33:13Z</time></trkpt>
<trkpt lat="35.188981" lon="-84.825459"><ele>271.3</ele><time>2026-07-28T00:33:15Z</time></trkpt>
<trkpt lat="35.188955" lon="-84.825475"><ele>271.0</ele><time>2026-07-28T00:33:17Z</time></trkpt>
<trkpt lat="35.188918" lon="-84.825495"><ele>271.3</ele><time>2026-07-28T00:33:20Z</time></trkpt>
<trkpt lat="35.188888" lon="-84.825502"><ele>271.6</ele><time>2026-07-28T00:33:22Z</time></trkpt>
<trkpt lat="35.188857" lon="-84.82551"><ele>271.9</ele><time>2026-07-28T00:33:24Z</time></trkpt>
<trkpt lat="35.188826" lon="-84.825505"><ele>272.8</ele><time>2026-07-28T00:33:26Z</time></trkpt>
<trkpt lat="35.18881" lon="-84.825474"><ele>272.8</ele><time>2026-07-28T00:33:28Z</time></trkpt>
<trkpt lat="35.188801" lon="-84.825438"><ele>272.8</ele><time>2026-07-28T00:33:30Z</time></trkpt>
<trkpt lat="35.188792" lon="-84.825402"><ele>273.1</ele><time>2026-07-28T00:33:32Z</time></trkpt>
<trkpt lat="35.188782" lon="-84.82537"><ele>273.1</ele><time>2026-07-28T00:33:34Z</time></trkpt>
<trkpt lat="35.188768" lon="-84.825322"><ele>273.1</ele><time>2026-07-28T00:33:37Z</time></trkpt>
<trkpt lat="35.188754" lon="-84.825289"><ele>273.1</ele><time>2026-07-28T00:33:39Z</time></trkpt>
<trkpt lat="35.188742" lon="-84.825253"><ele>273.4</ele><time>2026-07-28T00:33:41Z</time></trkpt>
<trkpt lat="35.18873" lon="-84.825219"><ele>273.1</ele><time>2026-07-28T00:33:43Z</time></trkpt>
<trkpt lat="35.188717" lon="-84.825188"><ele>273.4</ele><time>2026-07-28T00:33:45Z</time></trkpt>
<trkpt lat="35.188702" lon="-84.825158"><ele>273.4</ele><time>2026-07-28T00:33:47Z</time></trkpt>
<trkpt lat="35.18868" lon="-84.82513"><ele>273.7</ele><time>2026-07-28T00:33:49Z</time></trkpt>
<trkpt lat="35.188654" lon="-84.82511"><ele>273.7</ele><time>2026-07-28T00:33:51Z</time></trkpt>
<trkpt lat="35.188625" lon="-84.825101"><ele>273.4</ele><time>2026-07-28T00:33:53Z</time></trkpt>
<trkpt lat="35.188595" lon="-84.825101"><ele>273.7</ele><time>2026-07-28T00:33:55Z</time></trkpt>
<trkpt lat="35.188566" lon="-84.82511"><ele>273.4</ele><time>2026-07-28T00:33:57Z</time></trkpt>
<trkpt lat="35.188539" lon="-84.825121"><ele>272.8</ele><time>2026-07-28T00:33:59Z</time></trkpt>
<trkpt lat="35.188503" lon="-84.825107"><ele>272.8</ele><time>2026-07-28T00:34:02Z</time></trkpt>
<trkpt lat="35.188488" lon="-84.825075"><ele>272.5</ele><time>2026-07-28T00:34:04Z</time></trkpt>
<trkpt lat="35.188478" lon="-84.825038"><ele>272.8</ele><time>2026-07-28T00:34:06Z</time></trkpt>
<trkpt lat="35.18847" lon="-84.825003"><ele>272.5</ele><time>2026-07-28T00:34:08Z</time></trkpt>
<trkpt lat="35.188457" lon="-84.824956"><ele>272.8</ele><time>2026-07-28T00:34:11Z</time></trkpt>
<trkpt lat="35.188445" lon="-84.824909"><ele>272.8</ele><time>2026-07-28T00:34:14Z</time></trkpt>
<trkpt lat="35.188437" lon="-84.824863"><ele>272.8</ele><time>2026-07-28T00:34:17Z</time></trkpt>
<trkpt lat="35.188428" lon="-84.824829"><ele>273.1</ele><time>2026-07-28T00:34:19Z</time></trkpt>
<trkpt lat="35.188417" lon="-84.824796"><ele>272.8</ele><time>2026-07-28T00:34:21Z</time></trkpt>
<trkpt lat="35.188405" lon="-84.824762"><ele>272.8</ele><time>2026-07-28T00:34:23Z</time></trkpt>
<trkpt lat="35.188397" lon="-84.824728"><ele>272.5</ele><time>2026-07-28T00:34:25Z</time></trkpt>
<trkpt lat="35.188391" lon="-84.824693"><ele>272.8</ele><time>2026-07-28T00:34:27Z</time></trkpt>
<trkpt lat="35.188383" lon="-84.824661"><ele>272.8</ele><time>2026-07-28T00:34:29Z</time></trkpt>
<trkpt lat="35.188374" lon="-84.824626"><ele>272.8</ele><time>2026-07-28T00:34:31Z</time></trkpt>
<trkpt lat="35.188362" lon="-84.82458"><ele>272.5</ele><time>2026-07-28T00:34:34Z</time></trkpt>
<trkpt lat="35.188353" lon="-84.824548"><ele>272.2</ele><time>2026-07-28T00:34:36Z</time></trkpt>
<trkpt lat="35.188342" lon="-84.824515"><ele>271.9</ele><time>2026-07-28T00:34:38Z</time></trkpt>
<trkpt lat="35.188328" lon="-84.824479"><ele>272.2</ele><time>2026-07-28T00:34:40Z</time></trkpt>
<trkpt lat="35.188316" lon="-84.824445"><ele>272.2</ele><time>2026-07-28T00:34:42Z</time></trkpt>
<trkpt lat="35.188304" lon="-84.824411"><ele>271.9</ele><time>2026-07-28T00:34:44Z</time></trkpt>
<trkpt lat="35.188292" lon="-84.824377"><ele>271.9</ele><time>2026-07-28T00:34:46Z</time></trkpt>
<trkpt lat="35.188282" lon="-84.82434"><ele>271.9</ele><time>2026-07-28T00:34:48Z</time></trkpt>
<trkpt lat="35.188273" lon="-84.824302"><ele>271.9</ele><time>2026-07-28T00:34:50Z</time></trkpt>
<trkpt lat="35.188262" lon="-84.824266"><ele>272.2</ele><time>2026-07-28T00:34:52Z</time></trkpt>
<trkpt lat="35.188251" lon="-84.824228"><ele>271.9</ele><time>2026-07-28T00:34:54Z</time></trkpt>
<trkpt lat="35.188241" lon="-84.824193"><ele>271.6</ele><time>2026-07-28T00:34:56Z</time></trkpt>
<trkpt lat="35.188229" lon="-84.824159"><ele>271.0</ele><time>2026-07-28T00:34:58Z</time></trkpt>
<trkpt lat="35.188218" lon="-84.824123"><ele>270.7</ele><time>2026-07-28T00:35:00Z</time></trkpt>
<trkpt lat="35.188207" lon="-84.824088"><ele>270.7</ele><time>2026-07-28T00:35:02Z</time></trkpt>
<trkpt lat="35.188197" lon="-84.824054"><ele>270.7</ele><time>2026-07-28T00:35:04Z</time></trkpt>
<trkpt lat="35.188184" lon="-84.82402"><ele>270.1</ele><time>2026-07-28T00:35:06Z</time></trkpt>
<trkpt lat="35.188172" lon="-84.823973"><ele>270.1</ele><time>2026-07-28T00:35:09Z</time></trkpt>
<trkpt lat="35.188161" lon="-84.823926"><ele>269.7</ele><time>2026-07-28T00:35:12Z</time></trkpt>
<trkpt lat="35.18815" lon="-84.823879"><ele>270.1</ele><time>2026-07-28T00:35:15Z</time></trkpt>
<trkpt lat="35.188142" lon="-84.823846"><ele>270.1</ele><time>2026-07-28T00:35:17Z</time></trkpt>
<trkpt lat="35.188134" lon="-84.823813"><ele>270.4</ele><time>2026-07-28T00:35:19Z</time></trkpt>
<trkpt lat="35.188123" lon="-84.823781"><ele>271.0</ele><time>2026-07-28T00:35:21Z</time></trkpt>
<trkpt lat="35.18811" lon="-84.823747"><ele>270.7</ele><time>2026-07-28T00:35:23Z</time></trkpt>
<trkpt lat="35.188099" lon="-84.82371"><ele>270.7</ele><time>2026-07-28T00:35:25Z</time></trkpt>
<trkpt lat="35.188091" lon="-84.823675"><ele>271.6</ele><time>2026-07-28T00:35:27Z</time></trkpt>
<trkpt lat="35.188086" lon="-84.823639"><ele>272.2</ele><time>2026-07-28T00:35:29Z</time></trkpt>
<trkpt lat="35.188075" lon="-84.823592"><ele>271.0</ele><time>2026-07-28T00:35:32Z</time></trkpt>
<trkpt lat="35.188059" lon="-84.823547"><ele>271.0</ele><time>2026-07-28T00:35:35Z</time></trkpt>
<trkpt lat="35.188048" lon="-84.823514"><ele>271.0</ele><time>2026-07-28T00:35:37Z</time></trkpt>
<trkpt lat="35.188038" lon="-84.823479"><ele>271.0</ele><time>2026-07-28T00:35:39Z</time></trkpt>
<trkpt lat="35.188025" lon="-84.823442"><ele>271.0</ele><time>2026-07-28T00:35:41Z</time></trkpt>
<trkpt lat="35.188015" lon="-84.823406"><ele>271.3</ele><time>2026-07-28T00:35:43Z</time></trkpt>
<trkpt lat="35.188005" lon="-84.82337"><ele>271.3</ele><time>2026-07-28T00:35:45Z</time></trkpt>
<trkpt lat="35.187996" lon="-84.823333"><ele>271.3</ele><time>2026-07-28T00:35:47Z</time></trkpt>
<trkpt lat="35.187986" lon="-84.823297"><ele>271.3</ele><time>2026-07-28T00:35:49Z</time></trkpt>
<trkpt lat="35.187976" lon="-84.82326"><ele>271.3</ele><time>2026-07-28T00:35:51Z</time></trkpt>
<trkpt lat="35.187965" lon="-84.823226"><ele>271.0</ele><time>2026-07-28T00:35:53Z</time></trkpt>
<trkpt lat="35.187953" lon="-84.823193"><ele>271.0</ele><time>2026-07-28T00:35:55Z</time></trkpt>
<trkpt lat="35.18794" lon="-84.823152"><ele>271.3</ele><time>2026-07-28T00:35:58Z</time></trkpt>
<trkpt lat="35.187933" lon="-84.82311"><ele>271.3</ele><time>2026-07-28T00:36:01Z</time></trkpt>
<trkpt lat="35.187922" lon="-84.823068"><ele>271.0</ele><time>2026-07-28T00:36:04Z</time></trkpt>
<trkpt lat="35.187912" lon="-84.823028"><ele>270.4</ele><time>2026-07-28T00:36:07Z</time></trkpt>
<trkpt lat="35.187908" lon="-84.822993"><ele>269.7</ele><time>2026-07-28T00:36:10Z</time></trkpt>
<trkpt lat="35.18793" lon="-84.822968"><ele>268.8</ele><time>2026-07-28T00:36:13Z</time></trkpt>
<trkpt lat="35.187966" lon="-84.82297"><ele>268.2</ele><time>2026-07-28T00:36:16Z</time></trkpt>
<trkpt lat="35.187997" lon="-84.822966"><ele>267.9</ele><time>2026-07-28T00:36:19Z</time></trkpt>
<trkpt lat="35.18803" lon="-84.82296"><ele>267.6</ele><time>2026-07-28T00:36:22Z</time></trkpt>
<trkpt lat="35.188062" lon="-84.822954"><ele>267.6</ele><time>2026-07-28T00:36:25Z</time></trkpt>
<trkpt lat="35.188095" lon="-84.822942"><ele>267.3</ele><time>2026-07-28T00:36:28Z</time></trkpt>
<trkpt lat="35.18813" lon="-84.822934"><ele>266.7</ele><time>2026-07-28T00:36:31Z</time></trkpt>
<trkpt lat="35.188162" lon="-84.82292"><ele>267.0</ele><time>2026-07-28T00:36:34Z</time></trkpt>
<trkpt lat="35.188195" lon="-84.822911"><ele>267.3</ele><time>2026-07-28T00:36:37Z</time></trkpt>
<trkpt lat="35.188225" lon="-84.822903"><ele>267.0</ele><time>2026-07-28T00:36:40Z</time></trkpt>
<trkpt lat="35.188257" lon="-84.822887"><ele>267.9</ele><time>2026-07-28T00:36:43Z</time></trkpt>
<trkpt lat="35.188295" lon="-84.82287"><ele>268.2</ele><time>2026-07-28T00:36:46Z</time></trkpt>
<trkpt lat="35.18833" lon="-84.822863"><ele>267.6</ele><time>2026-07-28T00:36:49Z</time></trkpt>
<trkpt lat="35.188364" lon="-84.822855"><ele>267.9</ele><time>2026-07-28T00:36:52Z</time></trkpt>
<trkpt lat="35.188403" lon="-84.822845"><ele>268.8</ele><time>2026-07-28T00:36:55Z</time></trkpt>
<trkpt lat="35.188429" lon="-84.822835"><ele>268.8</ele><time>2026-07-28T00:36:57Z</time></trkpt>
<trkpt lat="35.188468" lon="-84.822843"><ele>268.5</ele><time>2026-07-28T00:37:00Z</time></trkpt>
<trkpt lat="35.188498" lon="-84.822857"><ele>268.2</ele><time>2026-07-28T00:37:03Z</time></trkpt>
<trkpt lat="35.188532" lon="-84.822867"><ele>268.2</ele><time>2026-07-28T00:37:06Z</time></trkpt>
<trkpt lat="35.18857" lon="-84.82288"><ele>267.3</ele><time>2026-07-28T00:37:09Z</time></trkpt>
<trkpt lat="35.188607" lon="-84.822895"><ele>267.3</ele><time>2026-07-28T00:37:12Z</time></trkpt>
<trkpt lat="35.18864" lon="-84.82291"><ele>267.0</ele><time>2026-07-28T00:37:15Z</time></trkpt>
<trkpt lat="35.188677" lon="-84.82292"><ele>266.4</ele><time>2026-07-28T00:37:18Z</time></trkpt>
<trkpt lat="35.188718" lon="-84.822921"><ele>265.8</ele><time>2026-07-28T00:37:21Z</time></trkpt>
<trkpt lat="35.188756" lon="-84.82292"><ele>265.5</ele><time>2026-07-28T00:37:24Z</time></trkpt>
<trkpt lat="35.188788" lon="-84.822912"><ele>264.6</ele><time>2026-07-28T00:37:27Z</time></trkpt>
<trkpt lat="35.188822" lon="-84.822906"><ele>265.2</ele><time>2026-07-28T00:37:30Z</time></trkpt>
<trkpt lat="35.188849" lon="-84.822899"><ele>265.2</ele><time>2026-07-28T00:37:32Z</time></trkpt>
<trkpt lat="35.188889" lon="-84.822882"><ele>264.9</ele><time>2026-07-28T00:37:35Z</time></trkpt>
<trkpt lat="35.188916" lon="-84.822872"><ele>264.6</ele><time>2026-07-28T00:37:37Z</time></trkpt>
<trkpt lat="35.188951" lon="-84.822869"><ele>264.6</ele><time>2026-07-28T00:37:40Z</time></trkpt>
<trkpt lat="35.188986" lon="-84.822867"><ele>264.3</ele><time>2026-07-28T00:37:43Z</time></trkpt>
<trkpt lat="35.189026" lon="-84.822856"><ele>264.0</ele><time>2026-07-28T00:37:46Z</time></trkpt>
<trkpt lat="35.189065" lon="-84.822851"><ele>264.6</ele><time>2026-07-28T00:37:49Z</time></trkpt>
<trkpt lat="35.189104" lon="-84.822845"><ele>264.9</ele><time>2026-07-28T00:37:52Z</time></trkpt>
<trkpt lat="35.189142" lon="-84.822836"><ele>264.3</ele><time>2026-07-28T00:37:55Z</time></trkpt>
<trkpt lat="35.189177" lon="-84.822826"><ele>264.6</ele><time>2026-07-28T00:37:58Z</time></trkpt>
<trkpt lat="35.189211" lon="-84.822809"><ele>263.0</ele><time>2026-07-28T00:38:01Z</time></trkpt>
<trkpt lat="35.189248" lon="-84.822806"><ele>264.3</ele><time>2026-07-28T00:38:04Z</time></trkpt>
<trkpt lat="35.18928" lon="-84.822796"><ele>263.7</ele><time>2026-07-28T00:38:07Z</time></trkpt>
<trkpt lat="35.189315" lon="-84.822788"><ele>265.2</ele><time>2026-07-28T00:38:10Z</time></trkpt>
<trkpt lat="35.18935" lon="-84.822778"><ele>265.2</ele><time>2026-07-28T00:38:13Z</time></trkpt>
<trkpt lat="35.189384" lon="-84.822773"><ele>265.5</ele><time>2026-07-28T00:38:16Z</time></trkpt>
<trkpt lat="35.189422" lon="-84.822769"><ele>265.2</ele><time>2026-07-28T00:38:19Z</time></trkpt>
<trkpt lat="35.18946" lon="-84.822781"><ele>265.2</ele><time>2026-07-28T00:38:22Z</time></trkpt>
<trkpt lat="35.189479" lon="-84.822808"><ele>265.8</ele><time>2026-07-28T00:38:24Z</time></trkpt>
<trkpt lat="35.189487" lon="-84.822855"><ele>265.5</ele><time>2026-07-28T00:38:27Z</time></trkpt>
<trkpt lat="35.189494" lon="-84.822904"><ele>264.9</ele><time>2026-07-28T00:38:30Z</time></trkpt>
<trkpt lat="35.189496" lon="-84.822953"><ele>264.9</ele><time>2026-07-28T00:38:33Z</time></trkpt>
<trkpt lat="35.189503" lon="-84.823003"><ele>265.2</ele><time>2026-07-28T00:38:36Z</time></trkpt>
<trkpt lat="35.189505" lon="-84.823047"><ele>265.8</ele><time>2026-07-28T00:38:39Z</time></trkpt>
<trkpt lat="35.189509" lon="-84.823093"><ele>265.5</ele><time>2026-07-28T00:38:42Z</time></trkpt>
<trkpt lat="35.189521" lon="-84.823143"><ele>265.8</ele><time>2026-07-28T00:38:45Z</time></trkpt>
<trkpt lat="35.189527" lon="-84.823178"><ele>265.2</ele><time>2026-07-28T00:38:47Z</time></trkpt>
<trkpt lat="35.189535" lon="-84.823214"><ele>264.6</ele><time>2026-07-28T00:38:49Z</time></trkpt>
<trkpt lat="35.189539" lon="-84.823263"><ele>264.3</ele><time>2026-07-28T00:38:52Z</time></trkpt>
<trkpt lat="35.189542" lon="-84.823306"><ele>264.3</ele><time>2026-07-28T00:38:55Z</time></trkpt>
<trkpt lat="35.189549" lon="-84.823351"><ele>264.6</ele><time>2026-07-28T00:38:58Z</time></trkpt>
<trkpt lat="35.189553" lon="-84.823401"><ele>264.3</ele><time>2026-07-28T00:39:01Z</time></trkpt>
<trkpt lat="35.189557" lon="-84.823435"><ele>264.6</ele><time>2026-07-28T00:39:03Z</time></trkpt>
<trkpt lat="35.189561" lon="-84.823468"><ele>264.6</ele><time>2026-07-28T00:39:05Z</time></trkpt>
<trkpt lat="35.189565" lon="-84.823515"><ele>264.9</ele><time>2026-07-28T00:39:08Z</time></trkpt>
<trkpt lat="35.18957" lon="-84.823556"><ele>264.6</ele><time>2026-07-28T00:39:11Z</time></trkpt>
<trkpt lat="35.189574" lon="-84.823601"><ele>265.2</ele><time>2026-07-28T00:39:14Z</time></trkpt>
<trkpt lat="35.189575" lon="-84.823637"><ele>265.5</ele><time>2026-07-28T00:39:16Z</time></trkpt>
<trkpt lat="35.18958" lon="-84.823674"><ele>265.5</ele><time>2026-07-28T00:39:18Z</time></trkpt>
<trkpt lat="35.18959" lon="-84.823721"><ele>267.0</ele><time>2026-07-28T00:39:21Z</time></trkpt>
<trkpt lat="35.18959" lon="-84.823768"><ele>267.0</ele><time>2026-07-28T00:39:24Z</time></trkpt>
<trkpt lat="35.189597" lon="-84.823802"><ele>267.0</ele><time>2026-07-28T00:39:26Z</time></trkpt>
<trkpt lat="35.189605" lon="-84.823848"><ele>267.3</ele><time>2026-07-28T00:39:29Z</time></trkpt>
<trkpt lat="35.189612" lon="-84.823884"><ele>267.0</ele><time>2026-07-28T00:39:32Z</time></trkpt>
<trkpt lat="35.189617" lon="-84.823923"><ele>267.0</ele><time>2026-07-28T00:39:35Z</time></trkpt>
<trkpt lat="35.189624" lon="-84.823956"><ele>267.3</ele><time>2026-07-28T00:39:37Z</time></trkpt>
<trkpt lat="35.189627" lon="-84.823991"><ele>267.3</ele><time>2026-07-28T00:39:39Z</time></trkpt>
<trkpt lat="35.189632" lon="-84.824039"><ele>267.3</ele><time>2026-07-28T00:39:42Z</time></trkpt>
<trkpt lat="35.189636" lon="-84.82408"><ele>267.3</ele><time>2026-07-28T00:39:45Z</time></trkpt>
<trkpt lat="35.18964" lon="-84.824126"><ele>267.3</ele><time>2026-07-28T00:39:48Z</time></trkpt>
<trkpt lat="35.189642" lon="-84.824175"><ele>267.3</ele><time>2026-07-28T00:39:51Z</time></trkpt>
<trkpt lat="35.189634" lon="-84.824223"><ele>267.6</ele><time>2026-07-28T00:39:54Z</time></trkpt>
<trkpt lat="35.189623" lon="-84.824263"><ele>267.6</ele><time>2026-07-28T00:39:57Z</time></trkpt>
<trkpt lat="35.189605" lon="-84.824302"><ele>267.3</ele><time>2026-07-28T00:40:00Z</time></trkpt>
<trkpt lat="35.18958" lon="-84.824342"><ele>267.0</ele><time>2026-07-28T00:40:03Z</time></trkpt>
<trkpt lat="35.189559" lon="-84.824366"><ele>267.3</ele><time>2026-07-28T00:40:05Z</time></trkpt>
<trkpt lat="35.189535" lon="-84.824384"><ele>267.0</ele><time>2026-07-28T00:40:07Z</time></trkpt>
<trkpt lat="35.189499" lon="-84.824401"><ele>267.0</ele><time>2026-07-28T00:40:10Z</time></trkpt>
<trkpt lat="35.189464" lon="-84.824413"><ele>267.3</ele><time>2026-07-28T00:40:13Z</time></trkpt>
<trkpt lat="35.189423" lon="-84.824422"><ele>267.6</ele><time>2026-07-28T00:40:16Z</time></trkpt>
<trkpt lat="35.189394" lon="-84.824428"><ele>267.9</ele><time>2026-07-28T00:40:18Z</time></trkpt>
<trkpt lat="35.189354" lon="-84.824432"><ele>267.9</ele><time>2026-07-28T00:40:21Z</time></trkpt>
<trkpt lat="35.189321" lon="-84.824436"><ele>267.9</ele><time>2026-07-28T00:40:24Z</time></trkpt>
<trkpt lat="35.189281" lon="-84.824439"><ele>268.5</ele><time>2026-07-28T00:40:27Z</time></trkpt>
<trkpt lat="35.189253" lon="-84.824442"><ele>268.5</ele><time>2026-07-28T00:40:29Z</time></trkpt>
<trkpt lat="35.189224" lon="-84.824445"><ele>268.8</ele><time>2026-07-28T00:40:31Z</time></trkpt>
<trkpt lat="35.189194" lon="-84.824451"><ele>269.1</ele><time>2026-07-28T00:40:33Z</time></trkpt>
<trkpt lat="35.189165" lon="-84.824454"><ele>268.8</ele><time>2026-07-28T00:40:35Z</time></trkpt>
<trkpt lat="35.189125" lon="-84.82446"><ele>269.4</ele><time>2026-07-28T00:40:38Z</time></trkpt>
<trkpt lat="35.18909" lon="-84.824473"><ele>269.7</ele><time>2026-07-28T00:40:41Z</time></trkpt>
<trkpt lat="35.189075" lon="-84.824513"><ele>269.7</ele><time>2026-07-28T00:40:44Z</time></trkpt>
<trkpt lat="35.189085" lon="-84.82456"><ele>270.4</ele><time>2026-07-28T00:40:47Z</time></trkpt>
<trkpt lat="35.189102" lon="-84.824603"><ele>270.4</ele><time>2026-07-28T00:40:50Z</time></trkpt>
<trkpt lat="35.189112" lon="-84.824642"><ele>270.1</ele><time>2026-07-28T00:40:53Z</time></trkpt>
<trkpt lat="35.189126" lon="-84.824684"><ele>269.7</ele><time>2026-07-28T00:40:56Z</time></trkpt>
<trkpt lat="35.189139" lon="-84.824729"><ele>270.1</ele><time>2026-07-28T00:40:59Z</time></trkpt>
<trkpt lat="35.189148" lon="-84.824764"><ele>270.4</ele><time>2026-07-28T00:41:01Z</time></trkpt>
<trkpt lat="35.189154" lon="-84.82481"><ele>270.1</ele><time>2026-07-28T00:41:04Z</time></trkpt>
<trkpt lat="35.189154" lon="-84.824853"><ele>270.1</ele><time>2026-07-28T00:41:07Z</time></trkpt>
<trkpt lat="35.189151" lon="-84.824898"><ele>270.4</ele><time>2026-07-28T00:41:10Z</time></trkpt>
<trkpt lat="35.189145" lon="-84.824932"><ele>270.7</ele><time>2026-07-28T00:41:12Z</time></trkpt>
<trkpt lat="35.189138" lon="-84.824965"><ele>270.7</ele><time>2026-07-28T00:41:14Z</time></trkpt>
<trkpt lat="35.189125" lon="-84.825009"><ele>271.0</ele><time>2026-07-28T00:41:17Z</time></trkpt>
<trkpt lat="35.189117" lon="-84.825049"><ele>270.7</ele><time>2026-07-28T00:41:20Z</time></trkpt>
<trkpt lat="35.189109" lon="-84.825098"><ele>270.7</ele><time>2026-07-28T00:41:23Z</time></trkpt>
<trkpt lat="35.189099" lon="-84.825145"><ele>271.3</ele><time>2026-07-28T00:41:26Z</time></trkpt>
<trkpt lat="35.189097" lon="-84.825183"><ele>271.0</ele><time>2026-07-28T00:41:29Z</time></trkpt>
<trkpt lat="35.189091" lon="-84.825225"><ele>270.4</ele><time>2026-07-28T00:41:32Z</time></trkpt>
<trkpt lat="35.189086" lon="-84.825267"><ele>270.7</ele><time>2026-07-28T00:41:35Z</time></trkpt>
<trkpt lat="35.189081" lon="-84.825311"><ele>270.4</ele><time>2026-07-28T00:41:39Z</time></trkpt>
<trkpt lat="35.189077" lon="-84.825346"><ele>270.7</ele><time>2026-07-28T00:41:43Z</time></trkpt>
<trkpt lat="35.189067" lon="-84.82539"><ele>270.4</ele><time>2026-07-28T00:41:47Z</time></trkpt>
<trkpt lat="35.18905" lon="-84.825421"><ele>270.7</ele><time>2026-07-28T00:41:49Z</time></trkpt>
<trkpt lat="35.18902" lon="-84.825446"><ele>271.9</ele><time>2026-07-28T00:41:51Z</time></trkpt>
<trkpt lat="35.188988" lon="-84.825461"><ele>272.5</ele><time>2026-07-28T00:41:53Z</time></trkpt>
<trkpt lat="35.18896" lon="-84.825471"><ele>271.6</ele><time>2026-07-28T00:41:55Z</time></trkpt>
<trkpt lat="35.188935" lon="-84.825487"><ele>271.9</ele><time>2026-07-28T00:41:57Z</time></trkpt>
<trkpt lat="35.188901" lon="-84.825508"><ele>271.6</ele><time>2026-07-28T00:42:00Z</time></trkpt>
<trkpt lat="35.188864" lon="-84.825526"><ele>272.8</ele><time>2026-07-28T00:42:03Z</time></trkpt>
<trkpt lat="35.188825" lon="-84.825527"><ele>272.2</ele><time>2026-07-28T00:42:06Z</time></trkpt>
<trkpt lat="35.188807" lon="-84.825498"><ele>271.9</ele><time>2026-07-28T00:42:08Z</time></trkpt>
<trkpt lat="35.188799" lon="-84.825461"><ele>271.3</ele><time>2026-07-28T00:42:10Z</time></trkpt>
<trkpt lat="35.188788" lon="-84.825421"><ele>271.6</ele><time>2026-07-28T00:42:12Z</time></trkpt>
<trkpt lat="35.188778" lon="-84.825385"><ele>271.9</ele><time>2026-07-28T00:42:14Z</time></trkpt>
<trkpt lat="35.18877" lon="-84.825351"><ele>271.9</ele><time>2026-07-28T00:42:16Z</time></trkpt>
<trkpt lat="35.188755" lon="-84.82531"><ele>272.2</ele><time>2026-07-28T00:42:19Z</time></trkpt>
<trkpt lat="35.188739" lon="-84.825271"><ele>272.2</ele><time>2026-07-28T00:42:22Z</time></trkpt>
<trkpt lat="35.188725" lon="-84.825228"><ele>271.6</ele><time>2026-07-28T00:42:25Z</time></trkpt>
<trkpt lat="35.188708" lon="-84.825182"><ele>271.3</ele><time>2026-07-28T00:42:28Z</time></trkpt>
<trkpt lat="35.188692" lon="-84.825154"><ele>271.3</ele><time>2026-07-28T00:42:30Z</time></trkpt>
<trkpt lat="35.188661" lon="-84.825125"><ele>271.3</ele><time>2026-07-28T00:42:33Z</time></trkpt>
<trkpt lat="35.18863" lon="-84.825116"><ele>271.6</ele><time>2026-07-28T00:42:36Z</time></trkpt>
<trkpt lat="35.188596" lon="-84.825119"><ele>271.6</ele><time>2026-07-28T00:42:39Z</time></trkpt>
<trkpt lat="35.188569" lon="-84.825128"><ele>271.3</ele><time>2026-07-28T00:42:41Z</time></trkpt>
<trkpt lat="35.18853" lon="-84.825143"><ele>270.7</ele><time>2026-07-28T00:42:44Z</time></trkpt>
<trkpt lat="35.188501" lon="-84.825121"><ele>270.7</ele><time>2026-07-28T00:42:47Z</time></trkpt>
<trkpt lat="35.188492" lon="-84.825077"><ele>270.1</ele><time>2026-07-28T00:42:50Z</time></trkpt>
<trkpt lat="35.188484" lon="-84.825045"><ele>269.7</ele><time>2026-07-28T00:42:52Z</time></trkpt>
<trkpt lat="35.188473" lon="-84.825012"><ele>269.7</ele><time>2026-07-28T00:42:54Z</time></trkpt>
<trkpt lat="35.188459" lon="-84.824969"><ele>269.7</ele><time>2026-07-28T00:42:57Z</time></trkpt>
<trkpt lat="35.188449" lon="-84.824931"><ele>269.4</ele><time>2026-07-28T00:43:00Z</time></trkpt>
<trkpt lat="35.18844" lon="-84.824885"><ele>269.1</ele><time>2026-07-28T00:43:03Z</time></trkpt>
<trkpt lat="35.188425" lon="-84.824839"><ele>269.1</ele><time>2026-07-28T00:43:06Z</time></trkpt>
<trkpt lat="35.188415" lon="-84.824807"><ele>269.1</ele><time>2026-07-28T00:43:08Z</time></trkpt>
<trkpt lat="35.188403" lon="-84.824767"><ele>269.4</ele><time>2026-07-28T00:43:11Z</time></trkpt>
<trkpt lat="35.18839" lon="-84.824728"><ele>269.4</ele><time>2026-07-28T00:43:14Z</time></trkpt>
<trkpt lat="35.188377" lon="-84.824681"><ele>269.4</ele><time>2026-07-28T00:43:17Z</time></trkpt>
<trkpt lat="35.188367" lon="-84.824636"><ele>269.7</ele><time>2026-07-28T00:43:20Z</time></trkpt>
<trkpt lat="35.188357" lon="-84.8246"><ele>269.7</ele><time>2026-07-28T00:43:23Z</time></trkpt>
<trkpt lat="35.188344" lon="-84.824559"><ele>269.4</ele><time>2026-07-28T00:43:26Z</time></trkpt>
<trkpt lat="35.188327" lon="-84.824516"><ele>269.1</ele><time>2026-07-28T00:43:29Z</time></trkpt>
<trkpt lat="35.188311" lon="-84.824475"><ele>268.8</ele><time>2026-07-28T00:43:32Z</time></trkpt>
<trkpt lat="35.188302" lon="-84.824436"><ele>268.5</ele><time>2026-07-28T00:43:35Z</time></trkpt>
<trkpt lat="35.188289" lon="-84.824394"><ele>268.5</ele><time>2026-07-28T00:43:38Z</time></trkpt>
<trkpt lat="35.188276" lon="-84.824354"><ele>268.5</ele><time>2026-07-28T00:43:41Z</time></trkpt>
<trkpt lat="35.188265" lon="-84.824314"><ele>268.8</ele><time>2026-07-28T00:43:44Z</time></trkpt>
<trkpt lat="35.188252" lon="-84.824264"><ele>268.8</ele><time>2026-07-28T00:43:47Z</time></trkpt>
<trkpt lat="35.188242" lon="-84.82423"><ele>268.8</ele><time>2026-07-28T00:43:49Z</time></trkpt>
<trkpt lat="35.18823" lon="-84.824184"><ele>268.8</ele><time>2026-07-28T00:43:52Z</time></trkpt>
<trkpt lat="35.188221" lon="-84.824139"><ele>269.1</ele><time>2026-07-28T00:43:55Z</time></trkpt>
<trkpt lat="35.188204" lon="-84.824096"><ele>268.8</ele><time>2026-07-28T00:43:58Z</time></trkpt>
<trkpt lat="35.188188" lon="-84.824052"><ele>268.8</ele><time>2026-07-28T00:44:01Z</time></trkpt>
<trkpt lat="35.188179" lon="-84.824019"><ele>268.8</ele><time>2026-07-28T00:44:03Z</time></trkpt>
<trkpt lat="35.188168" lon="-84.823987"><ele>268.8</ele><time>2026-07-28T00:44:05Z</time></trkpt>
<trkpt lat="35.188156" lon="-84.82395"><ele>268.8</ele><time>2026-07-28T00:44:08Z</time></trkpt>
<trkpt lat="35.188144" lon="-84.823907"><ele>269.1</ele><time>2026-07-28T00:44:11Z</time></trkpt>
<trkpt lat="35.188132" lon="-84.823863"><ele>269.1</ele><time>2026-07-28T00:44:14Z</time></trkpt>
<trkpt lat="35.188122" lon="-84.82383"><ele>269.1</ele><time>2026-07-28T00:44:16Z</time></trkpt>
<trkpt lat="35.188109" lon="-84.823784"><ele>268.8</ele><time>2026-07-28T00:44:19Z</time></trkpt>
<trkpt lat="35.188099" lon="-84.823744"><ele>268.8</ele><time>2026-07-28T00:44:22Z</time></trkpt>
<trkpt lat="35.188089" lon="-84.823696"><ele>268.8</ele><time>2026-07-28T00:44:25Z</time></trkpt>
<trkpt lat="35.188076" lon="-84.823647"><ele>268.8</ele><time>2026-07-28T00:44:28Z</time></trkpt>
<trkpt lat="35.188066" lon="-84.823614"><ele>269.1</ele><time>2026-07-28T00:44:30Z</time></trkpt>
<trkpt lat="35.188058" lon="-84.82358"><ele>268.8</ele><time>2026-07-28T00:44:32Z</time></trkpt>
<trkpt lat="35.188047" lon="-84.823535"><ele>268.5</ele><time>2026-07-28T00:44:35Z</time></trkpt>
<trkpt lat="35.188037" lon="-84.823495"><ele>268.2</ele><time>2026-07-28T00:44:38Z</time></trkpt>
<trkpt lat="35.188021" lon="-84.823451"><ele>268.2</ele><time>2026-07-28T00:44:41Z</time></trkpt>
<trkpt lat="35.188007" lon="-84.82342"><ele>267.9</ele><time>2026-07-28T00:44:43Z</time></trkpt>
<trkpt lat="35.187998" lon="-84.823384"><ele>268.2</ele><time>2026-07-28T00:44:45Z</time></trkpt>
<trkpt lat="35.18799" lon="-84.823348"><ele>268.2</ele><time>2026-07-28T00:44:47Z</time></trkpt>
<trkpt lat="35.187979" lon="-84.823304"><ele>268.2</ele><time>2026-07-28T00:44:50Z</time></trkpt>
<trkpt lat="35.18797" lon="-84.823263"><ele>267.9</ele><time>2026-07-28T00:44:53Z</time></trkpt>
<trkpt lat="35.187957" lon="-84.823217"><ele>267.9</ele><time>2026-07-28T00:44:56Z</time></trkpt>
<trkpt lat="35.187948" lon="-84.823185"><ele>267.9</ele><time>2026-07-28T00:44:58Z</time></trkpt>
<trkpt lat="35.18794" lon="-84.823153"><ele>268.2</ele><time>2026-07-28T00:45:00Z</time></trkpt>
<trkpt lat="35.18793" lon="-84.82312"><ele>267.9</ele><time>2026-07-28T00:45:02Z</time></trkpt>
<trkpt lat="35.187917" lon="-84.823078"><ele>267.6</ele><time>2026-07-28T00:45:05Z</time></trkpt>
<trkpt lat="35.187906" lon="-84.823035"><ele>267.3</ele><time>2026-07-28T00:45:08Z</time></trkpt>
<trkpt lat="35.187914" lon="-84.822987"><ele>267.9</ele><time>2026-07-28T00:45:11Z</time></trkpt>
<trkpt lat="35.187939" lon="-84.822968"><ele>268.2</ele><time>2026-07-28T00:45:13Z</time></trkpt>
<trkpt lat="35.187968" lon="-84.822966"><ele>268.8</ele><time>2026-07-28T00:45:15Z</time></trkpt>
<trkpt lat="35.188" lon="-84.822961"><ele>268.8</ele><time>2026-07-28T00:45:17Z</time></trkpt>
<trkpt lat="35.188039" lon="-84.822951"><ele>268.5</ele><time>2026-07-28T00:45:20Z</time></trkpt>
<trkpt lat="35.188076" lon="-84.822941"><ele>268.2</ele><time>2026-07-28T00:45:23Z</time></trkpt>
<trkpt lat="35.18811" lon="-84.822931"><ele>267.9</ele><time>2026-07-28T00:45:26Z</time></trkpt>
<trkpt lat="35.188149" lon="-84.822916"><ele>267.6</ele><time>2026-07-28T00:45:29Z</time></trkpt>
<trkpt lat="35.188189" lon="-84.822901"><ele>269.1</ele><time>2026-07-28T00:45:32Z</time></trkpt>
<trkpt lat="35.188218" lon="-84.822892"><ele>268.8</ele><time>2026-07-28T00:45:34Z</time></trkpt>
<trkpt lat="35.188245" lon="-84.822883"><ele>268.8</ele><time>2026-07-28T00:45:36Z</time></trkpt>
<trkpt lat="35.188273" lon="-84.822874"><ele>269.1</ele><time>2026-07-28T00:45:38Z</time></trkpt>
<trkpt lat="35.188309" lon="-84.822861"><ele>269.4</ele><time>2026-07-28T00:45:41Z</time></trkpt>
<trkpt lat="35.188344" lon="-84.822849"><ele>268.8</ele><time>2026-07-28T00:45:44Z</time></trkpt>
<trkpt lat="35.18838" lon="-84.822838"><ele>267.9</ele><time>2026-07-28T00:45:47Z</time></trkpt>
<trkpt lat="35.188407" lon="-84.82283"><ele>267.9</ele><time>2026-07-28T00:45:49Z</time></trkpt>
<trkpt lat="35.188437" lon="-84.822829"><ele>268.2</ele><time>2026-07-28T00:45:51Z</time></trkpt>
<trkpt lat="35.188468" lon="-84.822833"><ele>267.6</ele><time>2026-07-28T00:45:53Z</time></trkpt>
<trkpt lat="35.188497" lon="-84.822841"><ele>267.6</ele><time>2026-07-28T00:45:55Z</time></trkpt>
<trkpt lat="35.188524" lon="-84.82285"><ele>268.2</ele><time>2026-07-28T00:45:57Z</time></trkpt>
<trkpt lat="35.188563" lon="-84.822865"><ele>268.5</ele><time>2026-07-28T00:46:00Z</time></trkpt>
<trkpt lat="35.188602" lon="-84.822876"><ele>268.2</ele><time>2026-07-28T00:46:03Z</time></trkpt>
<trkpt lat="35.188641" lon="-84.822891"><ele>267.0</ele><time>2026-07-28T00:46:06Z</time></trkpt>
<trkpt lat="35.188679" lon="-84.822907"><ele>267.0</ele><time>2026-07-28T00:46:09Z</time></trkpt>
<trkpt lat="35.188707" lon="-84.822913"><ele>267.3</ele><time>2026-07-28T00:46:11Z</time></trkpt>
<trkpt lat="35.188747" lon="-84.822916"><ele>266.7</ele><time>2026-07-28T00:46:14Z</time></trkpt>
<trkpt lat="35.188783" lon="-84.822903"><ele>267.3</ele><time>2026-07-28T00:46:17Z</time></trkpt>
<trkpt lat="35.188817" lon="-84.822895"><ele>267.3</ele><time>2026-07-28T00:46:20Z</time></trkpt>
<trkpt lat="35.18885" lon="-84.822885"><ele>265.8</ele><time>2026-07-28T00:46:23Z</time></trkpt>
<trkpt lat="35.188889" lon="-84.822875"><ele>265.5</ele><time>2026-07-28T00:46:26Z</time></trkpt>
<trkpt lat="35.188927" lon="-84.822868"><ele>265.8</ele><time>2026-07-28T00:46:29Z</time></trkpt>
<trkpt lat="35.188955" lon="-84.822872"><ele>265.2</ele><time>2026-07-28T00:46:31Z</time></trkpt>
<trkpt lat="35.188996" lon="-84.822867"><ele>265.2</ele><time>2026-07-28T00:46:34Z</time></trkpt>
<trkpt lat="35.189021" lon="-84.822853"><ele>265.2</ele><time>2026-07-28T00:46:36Z</time></trkpt>
<trkpt lat="35.189057" lon="-84.82284"><ele>265.5</ele><time>2026-07-28T00:46:39Z</time></trkpt>
<trkpt lat="35.189096" lon="-84.822826"><ele>265.8</ele><time>2026-07-28T00:46:42Z</time></trkpt>
<trkpt lat="35.189126" lon="-84.82282"><ele>265.8</ele><time>2026-07-28T00:46:44Z</time></trkpt>
<trkpt lat="35.189154" lon="-84.822822"><ele>265.2</ele><time>2026-07-28T00:46:46Z</time></trkpt>
<trkpt lat="35.189181" lon="-84.822819"><ele>265.2</ele><time>2026-07-28T00:46:48Z</time></trkpt>
<trkpt lat="35.189208" lon="-84.822809"><ele>265.2</ele><time>2026-07-28T00:46:50Z</time></trkpt>
<trkpt lat="35.189247" lon="-84.8228"><ele>264.9</ele><time>2026-07-28T00:46:53Z</time></trkpt>
<trkpt lat="35.189285" lon="-84.822788"><ele>264.3</ele><time>2026-07-28T00:46:56Z</time></trkpt>
<trkpt lat="35.189322" lon="-84.822777"><ele>263.7</ele><time>2026-07-28T00:46:59Z</time></trkpt>
<trkpt lat="35.189359" lon="-84.822773"><ele>264.6</ele><time>2026-07-28T00:47:02Z</time></trkpt>
<trkpt lat="35.189398" lon="-84.822766"><ele>265.5</ele><time>2026-07-28T00:47:05Z</time></trkpt>
<trkpt lat="35.189426" lon="-84.822768"><ele>265.5</ele><time>2026-07-28T00:47:07Z</time></trkpt>
<trkpt lat="35.189453" lon="-84.822775"><ele>265.8</ele><time>2026-07-28T00:47:09Z</time></trkpt>
<trkpt lat="35.189475" lon="-84.822798"><ele>266.1</ele><time>2026-07-28T00:47:11Z</time></trkpt>
<trkpt lat="35.189488" lon="-84.822829"><ele>265.5</ele><time>2026-07-28T00:47:13Z</time></trkpt>
<trkpt lat="35.189497" lon="-84.822862"><ele>265.5</ele><time>2026-07-28T00:47:15Z</time></trkpt>
<trkpt lat="35.189504" lon="-84.822896"><ele>265.2</ele><time>2026-07-28T00:47:17Z</time></trkpt>
<trkpt lat="35.189509" lon="-84.822929"><ele>264.9</ele><time>2026-07-28T00:47:19Z</time></trkpt>
<trkpt lat="35.189512" lon="-84.822979"><ele>264.3</ele><time>2026-07-28T00:47:22Z</time></trkpt>
<trkpt lat="35.189512" lon="-84.823026"><ele>263.3</ele><time>2026-07-28T00:47:25Z</time></trkpt>
<trkpt lat="35.189519" lon="-84.823073"><ele>263.7</ele><time>2026-07-28T00:47:28Z</time></trkpt>
<trkpt lat="35.189526" lon="-84.823117"><ele>264.0</ele><time>2026-07-28T00:47:31Z</time></trkpt>
<trkpt lat="35.189532" lon="-84.823165"><ele>264.6</ele><time>2026-07-28T00:47:34Z</time></trkpt>
<trkpt lat="35.189537" lon="-84.823214"><ele>263.7</ele><time>2026-07-28T00:47:37Z</time></trkpt>
<trkpt lat="35.189544" lon="-84.823263"><ele>264.0</ele><time>2026-07-28T00:47:40Z</time></trkpt>
<trkpt lat="35.189551" lon="-84.823311"><ele>264.3</ele><time>2026-07-28T00:47:43Z</time></trkpt>
<trkpt lat="35.189555" lon="-84.823344"><ele>264.6</ele><time>2026-07-28T00:47:45Z</time></trkpt>
<trkpt lat="35.189561" lon="-84.823393"><ele>264.9</ele><time>2026-07-28T00:47:48Z</time></trkpt>
<trkpt lat="35.189567" lon="-84.823428"><ele>265.2</ele><time>2026-07-28T00:47:50Z</time></trkpt>
<trkpt lat="35.189571" lon="-84.823461"><ele>264.9</ele><time>2026-07-28T00:47:52Z</time></trkpt>
<trkpt lat="35.189577" lon="-84.823504"><ele>265.2</ele><time>2026-07-28T00:47:55Z</time></trkpt>
<trkpt lat="35.189585" lon="-84.823543"><ele>265.5</ele><time>2026-07-28T00:47:58Z</time></trkpt>
<trkpt lat="35.18959" lon="-84.823593"><ele>265.5</ele><time>2026-07-28T00:48:01Z</time></trkpt>
<trkpt lat="35.189593" lon="-84.82363"><ele>265.5</ele><time>2026-07-28T00:48:03Z</time></trkpt>
<trkpt lat="35.189595" lon="-84.823667"><ele>265.8</ele><time>2026-07-28T00:48:05Z</time></trkpt>
<trkpt lat="35.189597" lon="-84.823701"><ele>265.8</ele><time>2026-07-28T00:48:07Z</time></trkpt>
<trkpt lat="35.189603" lon="-84.823743"><ele>266.1</ele><time>2026-07-28T00:48:10Z</time></trkpt>
<trkpt lat="35.189611" lon="-84.823786"><ele>265.8</ele><time>2026-07-28T00:48:13Z</time></trkpt>
<trkpt lat="35.189616" lon="-84.823835"><ele>265.8</ele><time>2026-07-28T00:48:16Z</time></trkpt>
<trkpt lat="35.189621" lon="-84.823869"><ele>265.8</ele><time>2026-07-28T00:48:18Z</time></trkpt>
<trkpt lat="35.189626" lon="-84.823903"><ele>265.8</ele><time>2026-07-28T00:48:20Z</time></trkpt>
<trkpt lat="35.18963" lon="-84.823947"><ele>265.8</ele><time>2026-07-28T00:48:23Z</time></trkpt>
<trkpt lat="35.189635" lon="-84.823988"><ele>265.8</ele><time>2026-07-28T00:48:26Z</time></trkpt>
<trkpt lat="35.189642" lon="-84.824037"><ele>265.8</ele><time>2026-07-28T00:48:29Z</time></trkpt>
<trkpt lat="35.189648" lon="-84.824072"><ele>265.8</ele><time>2026-07-28T00:48:31Z</time></trkpt>
<trkpt lat="35.189652" lon="-84.824108"><ele>265.8</ele><time>2026-07-28T00:48:33Z</time></trkpt>
<trkpt lat="35.189655" lon="-84.824145"><ele>265.8</ele><time>2026-07-28T00:48:35Z</time></trkpt>
<trkpt lat="35.189657" lon="-84.824179"><ele>265.8</ele><time>2026-07-28T00:48:37Z</time></trkpt>
<trkpt lat="35.189653" lon="-84.824213"><ele>266.1</ele><time>2026-07-28T00:48:39Z</time></trkpt>
<trkpt lat="35.189642" lon="-84.824257"><ele>266.1</ele><time>2026-07-28T00:48:42Z</time></trkpt>
<trkpt lat="35.189624" lon="-84.824298"><ele>265.8</ele><time>2026-07-28T00:48:45Z</time></trkpt>
<trkpt lat="35.189609" lon="-84.824327"><ele>266.1</ele><time>2026-07-28T00:48:47Z</time></trkpt>
<trkpt lat="35.18959" lon="-84.824355"><ele>265.8</ele><time>2026-07-28T00:48:49Z</time></trkpt>
<trkpt lat="35.189564" lon="-84.824376"><ele>265.8</ele><time>2026-07-28T00:48:51Z</time></trkpt>
<trkpt lat="35.189534" lon="-84.824392"><ele>265.8</ele><time>2026-07-28T00:48:53Z</time></trkpt>
<trkpt lat="35.189505" lon="-84.824406"><ele>265.5</ele><time>2026-07-28T00:48:55Z</time></trkpt>
<trkpt lat="35.189474" lon="-84.824416"><ele>265.2</ele><time>2026-07-28T00:48:57Z</time></trkpt>
<trkpt lat="35.189446" lon="-84.824424"><ele>264.9</ele><time>2026-07-28T00:48:59Z</time></trkpt>
<trkpt lat="35.189417" lon="-84.824429"><ele>265.2</ele><time>2026-07-28T00:49:01Z</time></trkpt>
<trkpt lat="35.189379" lon="-84.824433"><ele>265.2</ele><time>2026-07-28T00:49:04Z</time></trkpt>
<trkpt lat="35.18934" lon="-84.824439"><ele>266.1</ele><time>2026-07-28T00:49:07Z</time></trkpt>
<trkpt lat="35.18931" lon="-84.824439"><ele>265.8</ele><time>2026-07-28T00:49:09Z</time></trkpt>
<trkpt lat="35.18928" lon="-84.824444"><ele>266.1</ele><time>2026-07-28T00:49:11Z</time></trkpt>
<trkpt lat="35.18925" lon="-84.824446"><ele>265.8</ele><time>2026-07-28T00:49:13Z</time></trkpt>
<trkpt lat="35.189221" lon="-84.824449"><ele>266.1</ele><time>2026-07-28T00:49:15Z</time></trkpt>
<trkpt lat="35.189192" lon="-84.82445"><ele>266.1</ele><time>2026-07-28T00:49:17Z</time></trkpt>
<trkpt lat="35.189154" lon="-84.82446"><ele>266.4</ele><time>2026-07-28T00:49:20Z</time></trkpt>
<trkpt lat="35.189117" lon="-84.824468"><ele>266.4</ele><time>2026-07-28T00:49:23Z</time></trkpt>
<trkpt lat="35.189091" lon="-84.824481"><ele>266.7</ele><time>2026-07-28T00:49:25Z</time></trkpt>
<trkpt lat="35.189079" lon="-84.824524"><ele>267.3</ele><time>2026-07-28T00:49:28Z</time></trkpt>
<trkpt lat="35.18909" lon="-84.824559"><ele>267.3</ele><time>2026-07-28T00:49:30Z</time></trkpt>
<trkpt lat="35.1891" lon="-84.824592"><ele>267.9</ele><time>2026-07-28T00:49:32Z</time></trkpt>
<trkpt lat="35.189111" lon="-84.824633"><ele>267.9</ele><time>2026-07-28T00:49:35Z</time></trkpt>
<trkpt lat="35.189122" lon="-84.824672"><ele>268.5</ele><time>2026-07-28T00:49:38Z</time></trkpt>
<trkpt lat="35.189129" lon="-84.82471"><ele>268.5</ele><time>2026-07-28T00:49:40Z</time></trkpt>
<trkpt lat="35.189144" lon="-84.824754"><ele>269.1</ele><time>2026-07-28T00:49:43Z</time></trkpt>
<trkpt lat="35.189149" lon="-84.824791"><ele>269.1</ele><time>2026-07-28T00:49:45Z</time></trkpt>
<trkpt lat="35.189153" lon="-84.824828"><ele>269.4</ele><time>2026-07-28T00:49:47Z</time></trkpt>
<trkpt lat="35.189156" lon="-84.824865"><ele>269.4</ele><time>2026-07-28T00:49:49Z</time></trkpt>
<trkpt lat="35.189153" lon="-84.824912"><ele>269.4</ele><time>2026-07-28T00:49:52Z</time></trkpt>
<trkpt lat="35.189144" lon="-84.824953"><ele>269.1</ele><time>2026-07-28T00:49:55Z</time></trkpt>
<trkpt lat="35.189117" lon="-84.824943"><ele>268.8</ele><time>2026-07-28T00:49:57Z</time></trkpt>
<trkpt lat="35.189095" lon="-84.824918"><ele>269.1</ele><time>2026-07-28T00:49:59Z</time></trkpt>
<trkpt lat="35.189062" lon="-84.824892"><ele>269.1</ele><time>2026-07-28T00:50:02Z</time></trkpt>
<trkpt lat="35.189033" lon="-84.824868"><ele>268.8</ele><time>2026-07-28T00:50:05Z</time></trkpt>
<trkpt lat="35.189007" lon="-84.824841"><ele>269.7</ele><time>2026-07-28T00:50:08Z</time></trkpt>
<trkpt lat="35.188989" lon="-84.824817"><ele>270.1</ele><time>2026-07-28T00:50:11Z</time></trkpt>
<trkpt lat="35.188989" lon="-84.824816"><ele>269.7</ele><time>2026-07-28T00:50:12Z</time></trkpt>
<trkpt lat="35.188984" lon="-84.824807"><ele>269.7</ele><time>2026-07-28T00:50:13Z</time></trkpt>
</trkseg></trk></gpx>